Provisional Data: Driftwood Branch Sinnemahoning Creek


Please select a monitoring station.
Please select start date.
Please select start date.

Toggle Unit: C/F Toggle Unit: C/F
Sample Time Temperature (C) Temperature (F) Specific Conductivity (mS/cm) pH   Turbidity (NTU+) DO (mg/L)
8/1/2022 12:00:00 AM 20.14 68.252 0.113 7.11 2.1 7.61
8/1/2022 12:15:00 AM 20.05 68.09 0.113 7.16 2.09 7.63
8/1/2022 12:30:00 AM 19.95 67.91 0.114 7.15 2.18 7.64
8/1/2022 12:45:00 AM 19.91 67.838 0.113 7.15 2.27 7.66
8/1/2022 1:00:00 AM 19.87 67.766 0.113 7.13 2.16 7.66
8/1/2022 1:15:00 AM 19.82 67.676 0.113 7.09 2.25 7.66
8/1/2022 1:30:00 AM 19.77 67.586 0.113 7.09 2.12 7.69
8/1/2022 1:45:00 AM 19.74 67.532 0.113 7.09 2.15 7.69
8/1/2022 2:00:00 AM 19.68 67.424 0.112 7.08 2.1 7.7
8/1/2022 2:15:00 AM 19.63 67.334 0.113 7.08 2.12 7.72
8/1/2022 2:30:00 AM 19.58 67.244 0.113 7.07 2.13 7.71
8/1/2022 2:45:00 AM 19.56 67.208 0.113 7.1 2.1 7.72
8/1/2022 3:00:00 AM 19.51 67.118 0.113 7.09 2.01 7.73
8/1/2022 3:15:00 AM 19.48 67.064 0.112 7.05 2.06 7.73
8/1/2022 3:30:00 AM 19.44 66.992 0.112 7.1 2.2 7.74
8/1/2022 3:45:00 AM 19.4 66.92 0.112 7.04 2.67 7.75
8/1/2022 4:00:00 AM 19.35 66.83 0.113 7.09 2.13 7.75
8/1/2022 4:15:00 AM 19.33 66.794 0.112 7.08 2.11 7.77
8/1/2022 4:30:00 AM 19.33 66.794 0.112 7.09 2.94 7.79
8/1/2022 4:45:00 AM 19.31 66.758 0.111 7.09 2.4 7.8
8/1/2022 5:00:00 AM 19.26 66.668 0.112 7.03 2.16 7.78
8/1/2022 5:15:00 AM 19.23 66.614 0.112 7.07 4.04 7.78
8/1/2022 5:30:00 AM 19.2 66.56 0.112 7.05 2.2 7.8
8/1/2022 5:45:00 AM 19.17 66.506 0.112 7.04 2.3 7.8
8/1/2022 6:00:00 AM 19.14 66.452 0.112 7.05 2.21 7.78
8/1/2022 6:15:00 AM 19.11 66.398 0.112 7.03 2.19 7.8
8/1/2022 6:30:00 AM 19.1 66.38 0.112 7.07 2.1 7.8
8/1/2022 6:45:00 AM 19.07 66.326 0.112 7.08 2.1 7.83
8/1/2022 7:00:00 AM 19.07 66.326 0.112 7.03 2.09 7.84
8/1/2022 7:15:00 AM 19.04 66.272 0.112 7.04 2.41 7.91
8/1/2022 7:30:00 AM 19.05 66.29 0.112 7.07 2.08 8
8/1/2022 7:45:00 AM 19.06 66.308 0.112 7.07 2.48 8.1
8/1/2022 8:00:00 AM 19.1 66.38 0.112 7.08 1.93 8.2
8/1/2022 8:15:00 AM 19.12 66.416 0.112 7.1 1.97 8.25
8/1/2022 8:30:00 AM 19.15 66.47 0.111 7.12 1.95 8.34
8/1/2022 8:45:00 AM 19.19 66.542 0.111 7.14 2.08 8.46
8/1/2022 9:00:00 AM 19.25 66.65 0.111 7.16 2.06 8.56
8/1/2022 9:15:00 AM 19.35 66.83 0.11 7.15 1.98 8.75
8/1/2022 9:30:00 AM 19.5 67.1 0.11 7.2 1.98 8.89
8/1/2022 9:45:00 AM 19.65 67.37 0.11 7.25 1.99 8.99
8/1/2022 10:00:00 AM 19.77 67.586 0.11 7.28 1.91 9.08
8/1/2022 10:15:00 AM 19.99 67.982 0.109 7.3 1.91 9.21
8/1/2022 10:30:00 AM 20.1 68.18 0.109 7.34 1.93 9.25
8/1/2022 10:45:00 AM 20.2 68.36 0.11 7.36 1.91 9.32
8/1/2022 11:00:00 AM 20.49 68.882 0.109 7.4 1.89 9.41
8/1/2022 11:15:00 AM 20.93 69.674 0.109 7.4 1.93 9.48
8/1/2022 11:30:00 AM 21.09 69.962 0.108 7.44 2.24 9.44
8/1/2022 11:45:00 AM 21.3 70.34 0.108 7.45 1.85 9.41
8/1/2022 12:00:00 PM 21.68 71.024 0.108 7.51 1.97 9.47
8/1/2022 12:15:00 PM 21.84 71.312 0.108 7.54 1.95 9.47
8/1/2022 12:30:00 PM 22.1 71.78 0.108 7.6 1.97 9.43
8/1/2022 12:45:00 PM 22.41 72.338 0.108 7.68 1.97 9.44
8/1/2022 1:00:00 PM 22.75 72.95 0.107 7.72 1.87 9.42
8/1/2022 1:15:00 PM 22.95 73.31 0.107 7.77 1.92 9.41
8/1/2022 1:30:00 PM 23.16 73.688 0.107 7.93 1.91 9.48
8/1/2022 1:45:00 PM 23.43 74.174 0.107 7.92 1.95 9.44
8/1/2022 2:00:00 PM 23.61 74.498 0.107 7.95 1.89 9.36
8/1/2022 2:15:00 PM 23.74 74.732 0.107 7.96 1.86 9.34
8/1/2022 2:30:00 PM 23.86 74.948 0.107 8.05 1.87 9.34
8/1/2022 2:45:00 PM 24.03 75.254 0.107 8.01 1.94 9.29
8/1/2022 3:00:00 PM 24.38 75.884 0.107 8.07 1.88 9.22
8/1/2022 3:15:00 PM 24.65 76.37 0.107 8.04 1.96 9.13
8/1/2022 3:30:00 PM 24.7 76.46 0.107 8.04 1.91 9.12
8/1/2022 3:45:00 PM 24.68 76.424 0.107 8.1 1.91 9.09
8/1/2022 4:00:00 PM 24.63 76.334 0.107 8.1 1.88 9.09
8/1/2022 4:15:00 PM 24.76 76.568 0.107 8.1 7.49 8.99
8/1/2022 4:30:00 PM 24.95 76.91 0.107 8.07 7.25 8.93
8/1/2022 4:45:00 PM 25.06 77.108 0.107 8.04 2.02 8.87
8/1/2022 5:00:00 PM 25.09 77.162 0.106 8.05 1.86 8.82
8/1/2022 5:15:00 PM 24.83 76.694 0.106 8.03 2.03 8.69
8/1/2022 5:30:00 PM 24.51 76.118 0.107 7.87 1.86 8.57
8/1/2022 5:45:00 PM 24.29 75.722 0.107 7.87 1.92 8.56
8/1/2022 6:00:00 PM 24.15 75.47 0.107 7.83 1.97 8.55
8/1/2022 6:15:00 PM 23.96 75.128 0.107 7.75 1.99 8.42
8/1/2022 6:30:00 PM 23.85 74.93 0.107 7.66 1.94 8.33
8/1/2022 6:45:00 PM 23.77 74.786 0.107 7.59 1.87 8.27
8/1/2022 7:00:00 PM 23.58 74.444 0.108 7.55 2.13 8.15
8/1/2022 7:15:00 PM 23.45 74.21 0.108 7.51 1.94 8.04
8/1/2022 7:30:00 PM 23.35 74.03 0.108 7.44 2.09 7.96
8/1/2022 7:45:00 PM 23.24 73.832 0.109 7.4 1.93 7.85
8/1/2022 8:00:00 PM 23.13 73.634 0.109 7.41 1.99 7.76
8/1/2022 8:15:00 PM 23.02 73.436 0.109 7.34 2.03 7.67
8/1/2022 8:30:00 PM 22.91 73.238 0.11 7.34 1.96 7.59
8/1/2022 8:45:00 PM 22.78 73.004 0.11 7.32 2.07 7.49
8/1/2022 9:00:00 PM 22.67 72.806 0.111 7.24 2.15 7.41
8/1/2022 9:15:00 PM 22.58 72.644 0.111 7.26 2.05 7.35
8/1/2022 9:30:00 PM 22.5 72.5 0.111 7.25 2.16 7.3
8/1/2022 9:45:00 PM 22.39 72.302 0.111 7.23 2.14 7.25
8/1/2022 10:00:00 PM 22.29 72.122 0.111 7.21 2.1 7.22
8/1/2022 10:15:00 PM 22.21 71.978 0.111 7.15 2.2 7.19
8/1/2022 10:30:00 PM 22.12 71.816 0.111 7.16 2.29 7.19
8/1/2022 10:45:00 PM 22.02 71.636 0.111 7.15 2.4 7.17
8/1/2022 11:00:00 PM 21.93 71.474 0.111 7.13 2.11 7.18
8/1/2022 11:15:00 PM 21.84 71.312 0.111 7.12 2.16 7.18
8/1/2022 11:30:00 PM 21.76 71.168 0.11 7.12 2.03 7.18
8/1/2022 11:45:00 PM 21.7 71.06 0.11 7.14 2.24 7.18
8/2/2022 12:00:00 AM 21.64 70.952 0.11 7.1 2.28 7.2
8/2/2022 12:15:00 AM 21.58 70.844 0.11 7.1 2.31 7.2
8/2/2022 12:30:00 AM 21.5 70.7 0.109 7.13 2.31 7.2
8/2/2022 12:45:00 AM 21.43 70.574 0.109 7.13 2.24 7.22
8/2/2022 1:00:00 AM 21.37 70.466 0.109 7.08 2.2 7.23
8/2/2022 1:15:00 AM 21.28 70.304 0.109 7.12 2.22 7.23
8/2/2022 1:30:00 AM 21.23 70.214 0.109 7.05 2.13 7.23
8/2/2022 1:45:00 AM 21.18 70.124 0.109 7.06 2.27 7.24
8/2/2022 2:00:00 AM 21.14 70.052 0.109 7.1 2.24 7.25
8/2/2022 2:15:00 AM 21.09 69.962 0.109 7.04 2.22 7.25
8/2/2022 2:30:00 AM 21.05 69.89 0.109 7.09 2.31 7.27
8/2/2022 2:45:00 AM 21.02 69.836 0.109 7.05 2.09 7.29
8/2/2022 3:00:00 AM 21.01 69.818 0.109 7.1 2.14 7.29
8/2/2022 3:15:00 AM 20.99 69.782 0.109 7.09 2.31 7.31
8/2/2022 3:30:00 AM 20.96 69.728 0.11 7.04 2.16 7.31
8/2/2022 3:45:00 AM 20.94 69.692 0.11 7.04 2.06 7.33
8/2/2022 4:00:00 AM 20.91 69.638 0.11 7.04 2.32 7.33
8/2/2022 4:15:00 AM 20.87 69.566 0.11 7.06 2.39 7.33
8/2/2022 4:30:00 AM 20.85 69.53 0.11 7.07 2.3 7.34
8/2/2022 4:45:00 AM 20.82 69.476 0.11 7.06 2.2 7.34
8/2/2022 5:00:00 AM 20.76 69.368 0.11 7.04 2.22 7.35
8/2/2022 5:15:00 AM 20.73 69.314 0.11 7.02 2.19 7.35
8/2/2022 5:30:00 AM 20.69 69.242 0.11 7.06 2.37 7.38
8/2/2022 5:45:00 AM 20.65 69.17 0.11 7.03 2.32 7.4
8/2/2022 6:00:00 AM 20.61 69.098 0.11 7.05 2.2 7.41
8/2/2022 6:15:00 AM 20.57 69.026 0.11 7.03 2.28 7.43
8/2/2022 6:30:00 AM 20.52 68.936 0.111 7.07 2.28 7.45
8/2/2022 6:45:00 AM 20.5 68.9 0.111 7.08 2.24 7.51
8/2/2022 7:00:00 AM 20.5 68.9 0.112 7.03 2.32 7.54
8/2/2022 7:15:00 AM 20.51 68.918 0.111 7.05 2.17 7.64
8/2/2022 7:30:00 AM 20.51 68.918 0.112 7.1 2.24 7.74
8/2/2022 7:45:00 AM 20.54 68.972 0.113 7.12 2.15 7.81
8/2/2022 8:00:00 AM 20.55 68.99 0.113 7.12 2.21 7.87
8/2/2022 8:15:00 AM 20.61 69.098 0.112 7.1 2.07 8.02
8/2/2022 8:30:00 AM 20.69 69.242 0.112 7.16 2.13 8.11
8/2/2022 8:45:00 AM 20.85 69.53 0.111 7.13 2.2 8.24
8/2/2022 9:00:00 AM 21.08 69.944 0.11 7.19 2.08 8.4
8/2/2022 9:15:00 AM 21.15 70.07 0.11 7.18 2.15 8.46
8/2/2022 9:30:00 AM 21.26 70.268 0.11 7.23 2.1 8.51
8/2/2022 9:45:00 AM 21.32 70.376 0.109 7.27 2.13 8.62
8/2/2022 10:00:00 AM 21.37 70.466 0.109 7.24 2 8.67
8/2/2022 10:15:00 AM 21.43 70.574 0.109 7.32 2.08 8.75
8/2/2022 10:30:00 AM 21.61 70.898 0.108 7.34 1.98 8.89
8/2/2022 10:45:00 AM 21.83 71.294 0.108 7.41 2.02 9.02
8/2/2022 11:00:00 AM 22.13 71.834 0.108 7.46 2 9.06
8/2/2022 11:15:00 AM 22.46 72.42799 0.108 7.49 2.06 9.11
8/2/2022 11:30:00 AM 22.7 72.86 0.107 7.49 2.02 9.15
8/2/2022 11:45:00 AM 23.09 73.562 0.107 7.53 2.19 9.18
8/2/2022 12:00:00 PM 23.17 73.706 0.107 7.57 2.15 9.14
8/2/2022 12:15:00 PM 23.48 74.264 0.107 7.65 2.08 9.23
8/2/2022 12:30:00 PM 23.77 74.786 0.107 7.66 2.01 9.23
8/2/2022 12:45:00 PM 24 75.2 0.107 7.72 2.07 9.17
8/2/2022 1:00:00 PM 24.24 75.632 0.107 7.7 2.01 9.09
8/2/2022 1:15:00 PM 24.56 76.208 0.106 7.77 2.14 9.14
8/2/2022 1:30:00 PM 24.81 76.658 0.107 7.83 2.06 9.15
8/2/2022 1:45:00 PM 25.02 77.036 0.106 7.89 2.04 9.1
8/2/2022 2:00:00 PM 25.04 77.07201 0.106 7.93 2.06 9.1
8/2/2022 2:15:00 PM 25.26 77.468 0.107 7.91 2.08 9.06
8/2/2022 2:30:00 PM 25.48 77.864 0.107 7.92 2.01 8.95
8/2/2022 2:45:00 PM 25.66 78.188 0.107 7.98 2.09 8.92
8/2/2022 3:00:00 PM 25.87 78.566 0.107 7.98 2 8.9
8/2/2022 3:15:00 PM 26.05 78.89 0.107 7.97 2.05 8.85
8/2/2022 3:30:00 PM 26.09 78.962 0.107 7.98 2.01 8.73
8/2/2022 3:45:00 PM 26.07 78.926 0.107 7.96 2.03 8.76
8/2/2022 4:00:00 PM 26.09 78.962 0.107 7.98 2.23 8.68
8/2/2022 4:15:00 PM 26 78.8 0.107 7.9 2.02 8.57
8/2/2022 4:30:00 PM 26.14 79.052 0.107 7.93 2.19 8.6
8/2/2022 4:45:00 PM 26.27 79.286 0.107 7.93 2.05 8.59
8/2/2022 5:00:00 PM 26.11 78.998 0.107 7.92 2.07 8.52
8/2/2022 5:15:00 PM 25.95 78.71 0.107 7.86 2.15 8.45
8/2/2022 5:30:00 PM 25.71 78.278 0.107 7.82 2.01 8.37
8/2/2022 5:45:00 PM 25.53 77.954 0.107 7.79 2.09 8.32
8/2/2022 6:00:00 PM 25.37 77.666 0.107 7.76 2.1 8.21
8/2/2022 6:15:00 PM 25.07 77.126 0.107 7.7 2.01 8.1
8/2/2022 6:30:00 PM 24.92 76.856 0.108 7.65 2.33 8
8/2/2022 6:45:00 PM 24.71 76.478 0.108 7.59 2.07 7.89
8/2/2022 7:00:00 PM 24.56 76.208 0.108 7.53 2.09 7.78
8/2/2022 7:15:00 PM 24.41 75.938 0.108 7.47 2.11 7.7
8/2/2022 7:30:00 PM 24.28 75.704 0.108 7.47 2.19 7.62
8/2/2022 7:45:00 PM 24.13 75.434 0.108 7.44 2.1 7.54
8/2/2022 8:00:00 PM 24 75.2 0.108 7.41 2.24 7.48
8/2/2022 8:15:00 PM 23.86 74.948 0.108 7.38 2.08 7.4
8/2/2022 8:30:00 PM 23.69 74.642 0.109 7.36 2.08 7.34
8/2/2022 8:45:00 PM 23.53 74.354 0.109 7.28 2.18 7.28
8/2/2022 9:00:00 PM 23.38 74.084 0.109 7.32 2.14 7.24
8/2/2022 9:15:00 PM 23.21 73.778 0.109 7.29 2.16 7.18
8/2/2022 9:30:00 PM 23.05 73.49 0.11 7.26 2.28 7.14
8/2/2022 9:45:00 PM 22.88 73.184 0.11 7.25 2.19 7.12
8/2/2022 10:00:00 PM 22.75 72.95 0.11 7.18 2.46 7.1
8/2/2022 10:15:00 PM 22.59 72.662 0.11 7.21 2.25 7.09
8/2/2022 10:30:00 PM 22.42 72.356 0.11 7.15 2.25 7.1
8/2/2022 10:45:00 PM 22.25 72.05 0.111 7.2 2.29 7.11
8/2/2022 11:00:00 PM 22.13 71.834 0.11 7.14 2.38 7.12
8/2/2022 11:15:00 PM 21.94 71.492 0.11 7.15 2.26 7.12
8/2/2022 11:30:00 PM 21.85 71.33 0.11 7.16 2.33 7.14
8/2/2022 11:45:00 PM 21.69 71.042 0.11 7.16 2.27 7.16
8/3/2022 12:00:00 AM 21.54 70.772 0.11 7.1 2.38 7.19
8/3/2022 12:15:00 AM 21.4 70.52 0.11 7.09 2.35 7.21
8/3/2022 12:30:00 AM 21.26 70.268 0.11 7.08 2.87 7.24
8/3/2022 12:45:00 AM 21.12 70.016 0.109 7.08 2.43 7.25
8/3/2022 1:00:00 AM 20.99 69.782 0.109 7.09 2.39 7.28
8/3/2022 1:15:00 AM 20.86 69.548 0.109 7.06 2.71 7.3
8/3/2022 1:30:00 AM 20.77 69.386 0.108 7.1 2.32 7.33
8/3/2022 1:45:00 AM 20.65 69.17 0.108 7.1 2.44 7.35
8/3/2022 2:00:00 AM 20.52 68.936 0.109 7.09 2.48 7.36
8/3/2022 2:15:00 AM 20.41 68.738 0.108 7.08 2.35 7.38
8/3/2022 2:30:00 AM 20.25 68.45 0.109 7.08 2.43 7.41
8/3/2022 2:45:00 AM 20.13 68.234 0.109 7.07 2.43 7.44
8/3/2022 3:00:00 AM 20.05 68.09 0.108 7.01 2.51 7.5
8/3/2022 3:15:00 AM 19.93 67.874 0.109 7.06 2.39 7.51
8/3/2022 3:30:00 AM 19.81 67.658 0.109 7.05 2.52 7.54
8/3/2022 3:45:00 AM 19.7 67.46 0.109 7 2.43 7.56
8/3/2022 4:00:00 AM 19.58 67.244 0.109 7.04 2.54 7.57
8/3/2022 4:15:00 AM 19.51 67.118 0.108 7 2.28 7.6
8/3/2022 4:30:00 AM 19.4 66.92 0.109 7.01 2.33 7.63
8/3/2022 4:45:00 AM 19.32 66.776 0.109 7.05 2.58 7.65
8/3/2022 5:00:00 AM 19.26 66.668 0.109 7.01 2.39 7.68
8/3/2022 5:15:00 AM 19.19 66.542 0.109 7.03 2.48 7.7
8/3/2022 5:30:00 AM 19.13 66.434 0.109 7.01 2.44 7.74
8/3/2022 5:45:00 AM 19.08 66.344 0.109 7.04 2.45 7.76
8/3/2022 6:00:00 AM 19.02 66.236 0.109 7.05 2.36 7.78
8/3/2022 6:15:00 AM 18.95 66.11 0.109 7.05 2.3 7.8
8/3/2022 6:30:00 AM 18.91 66.038 0.109 7.02 2.39 7.83
8/3/2022 6:45:00 AM 18.86 65.948 0.109 7.05 2.3 7.88
8/3/2022 7:00:00 AM 18.82 65.876 0.109 7.04 2.2 7.94
8/3/2022 7:15:00 AM 18.77 65.786 0.109 7.05 2.24 7.99
8/3/2022 7:30:00 AM 18.76 65.768 0.109 7.06 2.3 8.07
8/3/2022 7:45:00 AM 18.73 65.714 0.109 7.08 2.22 8.16
8/3/2022 8:00:00 AM 18.71 65.67799 0.109 7.09 2.21 8.26
8/3/2022 8:15:00 AM 18.71 65.67799 0.109 7.14 2.25 8.39
8/3/2022 8:30:00 AM 18.74 65.732 0.109 7.13 2.17 8.57
8/3/2022 8:45:00 AM 18.84 65.912 0.109 7.17 2.09 8.75
8/3/2022 9:00:00 AM 18.96 66.128 0.108 7.2 2.23 8.82
8/3/2022 9:15:00 AM 19.05 66.29 0.108 7.24 2.23 8.91
8/3/2022 9:30:00 AM 19.22 66.596 0.109 7.26 2.12 8.99
8/3/2022 9:45:00 AM 19.43 66.974 0.108 7.3 2.16 9.08
8/3/2022 10:00:00 AM 19.63 67.334 0.108 7.34 2.39 9.13
8/3/2022 10:15:00 AM 19.88 67.784 0.108 7.36 2.11 9.16
8/3/2022 10:30:00 AM 20.13 68.234 0.108 7.38 2.08 9.19
8/3/2022 10:45:00 AM 20.35 68.63 0.108 7.37 2.07 9.23
8/3/2022 11:00:00 AM 20.67 69.206 0.107 7.45 2.02 9.28
8/3/2022 11:15:00 AM 21.04 69.872 0.107 7.47 2.08 9.3
8/3/2022 11:30:00 AM 21.36 70.448 0.107 7.46 2.06 9.32
8/3/2022 11:45:00 AM 21.68 71.024 0.107 7.55 2.05 9.36
8/3/2022 12:00:00 PM 22.03 71.654 0.107 7.54 2.18 9.35
8/3/2022 12:15:00 PM 22.36 72.248 0.107 7.61 2.16 9.36
8/3/2022 12:30:00 PM 22.7 72.86 0.107 7.61 2.08 9.37
8/3/2022 12:45:00 PM 23.13 73.634 0.107 7.69 2.17 9.34
8/3/2022 1:00:00 PM 23.55 74.39 0.107 7.71 2.03 9.3
8/3/2022 1:15:00 PM 24.05 75.29 0.107 7.74 2.08 9.28
8/3/2022 1:30:00 PM 24.49 76.082 0.107 7.75 2.24 9.23
8/3/2022 1:45:00 PM 24.89 76.802 0.107 7.84 2.14 9.2
8/3/2022 2:00:00 PM 25.24 77.432 0.107 7.82 2.3 9.13
8/3/2022 2:15:00 PM 25.56 78.008 0.107 7.86 2.08 9.04
8/3/2022 2:30:00 PM 25.92 78.656 0.107 7.85 2 8.98
8/3/2022 2:45:00 PM 26.11 78.998 0.108 7.89 2.08 8.98
8/3/2022 3:00:00 PM 26.34 79.412 0.107 7.89 2.24 8.88
8/3/2022 3:15:00 PM 26.49 79.682 0.107 7.95 2.36 8.79
8/3/2022 3:30:00 PM 26.69 80.042 0.107 7.95 2.07 8.73
8/3/2022 3:45:00 PM 26.85 80.33 0.107 7.95 2.12 8.66
8/3/2022 4:00:00 PM 26.94 80.492 0.107 7.89 2.09 8.61
8/3/2022 4:15:00 PM 27.03 80.654 0.108 7.9 2.27 8.52
8/3/2022 4:30:00 PM 27.2 80.96 0.108 7.89 2.32 8.52
8/3/2022 4:45:00 PM 27.29 81.122 0.108 7.89 2.17 8.46
8/3/2022 5:00:00 PM 27.36 81.248 0.108 7.93 2.17 8.45
8/3/2022 5:15:00 PM 27.32 81.176 0.108 7.89 2.24 8.38
8/3/2022 5:30:00 PM 27.23 81.014 0.108 7.83 2.13 8.33
8/3/2022 5:45:00 PM 26.99 80.582 0.108 7.78 2.19 8.22
8/3/2022 6:00:00 PM 26.72 80.096 0.108 7.75 2.19 8.1
8/3/2022 6:15:00 PM 26.41 79.538 0.108 7.65 2.27 8
8/3/2022 6:30:00 PM 26.21 79.17799 0.108 7.64 2.23 7.91
8/3/2022 6:45:00 PM 26.02 78.836 0.108 7.55 2.22 7.81
8/3/2022 7:00:00 PM 25.83 78.494 0.108 7.51 2.38 7.71
8/3/2022 7:15:00 PM 25.65 78.17 0.108 7.5 2.23 7.61
8/3/2022 7:30:00 PM 25.48 77.864 0.109 7.41 2.13 7.48
8/3/2022 7:45:00 PM 25.34 77.612 0.109 7.41 2.07 7.4
8/3/2022 8:00:00 PM 25.21 77.378 0.109 7.38 2.23 7.33
8/3/2022 8:15:00 PM 25.07 77.126 0.109 7.33 2.18 7.23
8/3/2022 8:30:00 PM 24.92 76.856 0.11 7.32 2.4 7.12
8/3/2022 8:45:00 PM 24.81 76.658 0.109 7.25 2.28 7.06
8/3/2022 9:00:00 PM 24.68 76.424 0.11 7.25 2.26 6.98
8/3/2022 9:15:00 PM 24.55 76.19 0.11 7.21 3.73 6.89
8/3/2022 9:30:00 PM 24.43 75.974 0.11 7.23 2.45 6.83
8/3/2022 9:45:00 PM 24.31 75.758 0.111 7.19 2.47 6.78
8/3/2022 10:00:00 PM 24.19 75.542 0.111 7.19 2.33 6.75
8/3/2022 10:15:00 PM 24.09 75.362 0.111 7.13 2.37 6.74
8/3/2022 10:30:00 PM 23.97 75.146 0.111 7.12 2.45 6.7
8/3/2022 10:45:00 PM 23.83 74.894 0.112 7.1 2.45 6.68
8/3/2022 11:00:00 PM 23.74 74.732 0.111 7.14 2.33 6.69
8/3/2022 11:15:00 PM 23.61 74.498 0.112 7.13 2.78 6.69
8/3/2022 11:30:00 PM 23.46 74.228 0.113 7.06 2.37 6.68
8/3/2022 11:45:00 PM 23.38 74.084 0.112 7.08 2.67 6.71
8/4/2022 12:00:00 AM 23.26 73.868 0.112 7.06 2.31 6.71
8/4/2022 12:15:00 AM 23.14 73.652 0.112 7.07 2.31 6.74
8/4/2022 12:30:00 AM 23.07 73.526 0.112 7.1 2.64 6.77
8/4/2022 12:45:00 AM 22.97 73.346 0.111 7.05 2.42 6.77
8/4/2022 1:00:00 AM 22.88 73.184 0.111 7.08 2.3 6.78
8/4/2022 1:15:00 AM 22.79 73.022 0.11 7.04 2.36 6.78
8/4/2022 1:30:00 AM 22.68 72.824 0.11 7.08 2.55 6.79
8/4/2022 1:45:00 AM 22.6 72.68 0.11 7.05 2.4 6.83
8/4/2022 2:00:00 AM 22.5 72.5 0.11 7.03 2.36 6.84
8/4/2022 2:15:00 AM 22.41 72.338 0.11 7.07 2.5 6.87
8/4/2022 2:30:00 AM 22.32 72.176 0.11 7.02 2.38 6.89
8/4/2022 2:45:00 AM 22.28 72.104 0.109 7.08 2.4 6.94
8/4/2022 3:00:00 AM 22.21 71.978 0.109 7.01 2.35 6.96
8/4/2022 3:15:00 AM 22.14 71.852 0.109 7.04 2.35 6.96
8/4/2022 3:30:00 AM 22.05 71.69 0.109 7.01 2.45 6.98
8/4/2022 3:45:00 AM 21.98 71.564 0.11 7.01 2.59 6.98
8/4/2022 4:00:00 AM 21.92 71.456 0.109 7.04 2.6 6.99
8/4/2022 4:15:00 AM 21.83 71.294 0.11 7.04 2.76 7
8/4/2022 4:30:00 AM 21.77 71.186 0.11 6.98 2.26 7.02
8/4/2022 4:45:00 AM 21.71 71.078 0.11 6.99 2.51 7.05
8/4/2022 5:00:00 AM 21.66 70.988 0.11 7.02 2.52 7.08
8/4/2022 5:15:00 AM 21.59 70.862 0.11 7.01 2.51 7.07
8/4/2022 5:30:00 AM 21.55 70.79 0.11 7.03 2.52 7.1
8/4/2022 5:45:00 AM 21.51 70.718 0.11 7.02 2.58 7.11
8/4/2022 6:00:00 AM 21.46 70.628 0.11 7.02 2.41 7.14
8/4/2022 6:15:00 AM 21.42 70.556 0.11 6.97 2.5 7.16
8/4/2022 6:30:00 AM 21.39 70.502 0.11 7.02 2.27 7.2
8/4/2022 6:45:00 AM 21.35 70.43 0.11 7 2.41 7.23
8/4/2022 7:00:00 AM 21.32 70.376 0.11 6.99 2.36 7.3
8/4/2022 7:15:00 AM 21.29 70.32201 0.11 7 2.23 7.39
8/4/2022 7:30:00 AM 21.29 70.32201 0.109 7.03 2.33 7.51
8/4/2022 7:45:00 AM 21.28 70.304 0.109 7.04 2.38 7.63
8/4/2022 8:00:00 AM 21.33 70.394 0.109 7.08 2.32 7.8
8/4/2022 8:15:00 AM 21.38 70.484 0.109 7.07 2.37 7.93
8/4/2022 8:30:00 AM 21.39 70.502 0.108 7.09 2.25 7.99
8/4/2022 8:45:00 AM 21.53 70.754 0.108 7.14 2.28 8.18
8/4/2022 9:00:00 AM 21.62 70.916 0.108 7.18 2.25 8.28
8/4/2022 9:15:00 AM 21.74 71.132 0.108 7.21 2.2 8.39
8/4/2022 9:30:00 AM 21.98 71.564 0.107 7.24 2.24 8.57
8/4/2022 9:45:00 AM 22.11 71.798 0.107 7.26 2.22 8.62
8/4/2022 10:00:00 AM 22.29 72.122 0.107 7.31 2.24 8.67
8/4/2022 10:15:00 AM 22.55 72.59 0.107 7.3 2.22 8.82
8/4/2022 10:30:00 AM 22.75 72.95 0.107 7.34 2.33 8.85
8/4/2022 10:45:00 AM 22.93 73.274 0.106 7.41 2.85 8.92
8/4/2022 11:00:00 AM 23.26 73.868 0.106 7.43 2.22 9
8/4/2022 11:15:00 AM 23.68 74.624 0.105 7.47 2.15 9.05
8/4/2022 11:30:00 AM 23.94 75.092 0.105 7.55 2.21 9.09
8/4/2022 11:45:00 AM 24.32 75.776 0.105 7.59 2.17 9.12
8/4/2022 12:00:00 PM 24.52 76.136 0.105 7.64 2.18 9.12
8/4/2022 12:15:00 PM 24.37 75.866 0.105 7.57 2.78 8.76
8/4/2022 12:30:00 PM 24.22 75.596 0.105 7.51 2.97 8.64
8/4/2022 12:45:00 PM 24.02 75.236 0.107 7.4 2.8 8.36
8/4/2022 1:00:00 PM 24.03 75.254 0.105 7.43 2.31 8.35
8/4/2022 1:15:00 PM 23.97 75.146 0.105 7.44 2.32 8.27
8/4/2022 1:30:00 PM 23.86 74.948 0.107 7.37 2.7 8.18
8/4/2022 1:45:00 PM 23.87 74.966 0.106 7.4 2.25 8.29
8/4/2022 2:00:00 PM 23.96 75.128 0.106 7.47 2.27 8.42
8/4/2022 2:15:00 PM 24.14 75.452 0.106 7.51 2.2 8.55
8/4/2022 2:30:00 PM 24.39 75.902 0.107 7.57 2.29 8.69
8/4/2022 2:45:00 PM 24.53 76.154 0.107 7.59 2.23 8.78
8/4/2022 3:00:00 PM 24.78 76.604 0.107 7.66 2.21 8.93
8/4/2022 3:15:00 PM 25 77 0.108 7.74 2.27 8.97
8/4/2022 3:30:00 PM 25.19 77.342 0.108 7.77 2.28 8.95
8/4/2022 3:45:00 PM 25.13 77.234 0.108 7.74 2.27 8.8
8/4/2022 4:00:00 PM 24.89 76.802 0.109 7.65 2.09 8.59
8/4/2022 4:15:00 PM 24.6 76.28 0.108 7.63 2.29 8.51
8/4/2022 4:30:00 PM 24.37 75.866 0.11 7.54 2.24 8.34
8/4/2022 4:45:00 PM 24.37 75.866 0.108 7.56 2.18 8.52
8/4/2022 5:00:00 PM 24.39 75.902 0.108 7.63 2.15 8.54
8/4/2022 5:15:00 PM 24.72 76.496 0.108 7.61 2.3 8.56
8/4/2022 5:30:00 PM 24.73 76.514 0.108 7.63 2.13 8.5
8/4/2022 5:45:00 PM 24.53 76.154 0.108 7.58 2.18 8.41
8/4/2022 6:00:00 PM 24.42 75.956 0.107 7.56 2.31 8.41
8/4/2022 6:15:00 PM 24.32 75.776 0.107 7.54 2.15 8.38
8/4/2022 6:30:00 PM 24.23 75.614 0.107 7.54 2.21 8.3
8/4/2022 6:45:00 PM 24.15 75.47 0.107 7.52 2.17 8.24
8/4/2022 7:00:00 PM 24.06 75.308 0.108 7.48 2.28 8.15
8/4/2022 7:15:00 PM 23.98 75.164 0.108 7.46 2.19 8.05
8/4/2022 7:30:00 PM 23.9 75.02 0.108 7.41 2.18 7.94
8/4/2022 7:45:00 PM 23.82 74.876 0.109 7.36 3.37 7.85
8/4/2022 8:00:00 PM 23.73 74.714 0.109 7.35 2.08 7.73
8/4/2022 8:15:00 PM 23.64 74.552 0.109 7.34 2.18 7.64
8/4/2022 8:30:00 PM 23.54 74.372 0.11 7.26 2.32 7.5
8/4/2022 8:45:00 PM 23.44 74.192 0.11 7.25 2.4 7.4
8/4/2022 9:00:00 PM 23.37 74.066 0.11 7.23 2.3 7.31
8/4/2022 9:15:00 PM 23.29 73.922 0.11 7.2 2.24 7.25
8/4/2022 9:30:00 PM 23.22 73.796 0.11 7.18 3.49 7.18
8/4/2022 9:45:00 PM 23.12 73.616 0.111 7.17 2.32 7.11
8/4/2022 10:00:00 PM 23.04 73.472 0.111 7.12 2.29 7.05
8/4/2022 10:15:00 PM 22.96 73.328 0.111 7.11 2.2 7
8/4/2022 10:30:00 PM 22.9 73.22 0.111 7.11 2.31 6.99
8/4/2022 10:45:00 PM 22.86 73.148 0.111 7.12 2.2 6.98
8/4/2022 11:00:00 PM 22.8 73.04 0.111 7.06 2.39 6.96
8/4/2022 11:15:00 PM 22.74 72.932 0.111 7.05 2.28 6.95
8/4/2022 11:30:00 PM 22.68 72.824 0.11 7.04 2.15 6.93
8/4/2022 11:45:00 PM 22.62 72.716 0.11 7.02 2.32 6.91
8/5/2022 12:00:00 AM 22.56 72.608 0.109 7 2.19 6.91
8/5/2022 12:15:00 AM 22.51 72.518 0.108 7.02 2.28 6.96
8/5/2022 12:30:00 AM 22.45 72.41 0.107 7.01 2.31 6.96
8/5/2022 12:45:00 AM 22.42 72.356 0.106 7.01 2.26 7.02
8/5/2022 1:00:00 AM 22.41 72.338 0.105 7.01 2.41 7.08
8/5/2022 1:15:00 AM 22.36 72.248 0.104 7.05 2.47 7.11
8/5/2022 1:30:00 AM 22.29 72.122 0.104 7.05 2.29 7.11
8/5/2022 1:45:00 AM 22.21 71.978 0.103 7.05 2.37 7.15
8/5/2022 2:00:00 AM 22.17 71.906 0.104 7.02 2.22 7.16
8/5/2022 2:15:00 AM 22.15 71.87 0.103 7 6.35 7.15
8/5/2022 2:30:00 AM 22.12 71.816 0.103 7.04 2.5 7.18
8/5/2022 2:45:00 AM 22.09 71.762 0.103 7.04 2.31 7.15
8/5/2022 3:00:00 AM 22.06 71.708 0.102 7.03 2.41 7.17
8/5/2022 3:15:00 AM 22.03 71.654 0.102 6.98 2.28 7.17
8/5/2022 3:30:00 AM 21.99 71.582 0.102 6.99 2.33 7.19
8/5/2022 3:45:00 AM 21.94 71.492 0.102 7 2.36 7.23
8/5/2022 4:00:00 AM 21.9 71.42 0.102 7.02 2.3 7.2
8/5/2022 4:15:00 AM 21.87 71.366 0.102 7.02 2.42 7.23
8/5/2022 4:30:00 AM 21.83 71.294 0.102 7.03 2.2 7.23
8/5/2022 4:45:00 AM 21.77 71.186 0.102 7.02 2.16 7.25
8/5/2022 5:00:00 AM 21.71 71.078 0.102 7.01 2.26 7.26
8/5/2022 5:15:00 AM 21.69 71.042 0.104 6.99 3.01 7.27
8/5/2022 5:30:00 AM 21.65 70.97 0.104 6.98 2.4 7.27
8/5/2022 5:45:00 AM 21.61 70.898 0.105 7.01 2.28 7.26
8/5/2022 6:00:00 AM 21.59 70.862 0.104 6.97 2.34 7.29
8/5/2022 6:15:00 AM 21.54 70.772 0.105 7.02 2.27 7.31
8/5/2022 6:30:00 AM 21.52 70.736 0.104 7.01 2.22 7.36
8/5/2022 6:45:00 AM 21.49 70.682 0.103 7 2.55 7.39
8/5/2022 7:00:00 AM 21.44 70.592 0.104 7.01 2.65 7.4
8/5/2022 7:15:00 AM 21.44 70.592 0.103 7.04 2.53 7.46
8/5/2022 7:30:00 AM 21.43 70.574 0.103 7.02 3 7.53
8/5/2022 7:45:00 AM 21.44 70.592 0.102 7.05 2.59 7.63
8/5/2022 8:00:00 AM 21.44 70.592 0.101 7.05 2.32 7.75
8/5/2022 8:15:00 AM 21.49 70.682 0.1 7.09 2.39 7.9
8/5/2022 8:30:00 AM 21.55 70.79 0.099 7.1 2.37 8.03
8/5/2022 8:45:00 AM 21.59 70.862 0.098 7.13 2.37 8.1
8/5/2022 9:00:00 AM 21.63 70.934 0.098 7.1 2.27 8.15
8/5/2022 9:15:00 AM 21.69 71.042 0.098 7.15 2.25 8.24
8/5/2022 9:30:00 AM 21.75 71.15 0.098 7.15 2.22 8.32
8/5/2022 9:45:00 AM 21.79 71.222 0.098 7.17 2.13 8.32
8/5/2022 10:00:00 AM 21.85 71.33 0.098 7.19 2.26 8.36
8/5/2022 10:15:00 AM 21.89 71.402 0.097 7.2 2.16 8.38
8/5/2022 10:30:00 AM 22.01 71.618 0.098 7.19 2.16 8.47
8/5/2022 10:45:00 AM 22.12 71.816 0.097 7.23 2.15 8.53
8/5/2022 11:00:00 AM 22.27 72.086 0.097 7.24 2.23 8.63
8/5/2022 11:15:00 AM 22.46 72.42799 0.097 7.28 2.18 8.72
8/5/2022 11:30:00 AM 22.67 72.806 0.098 7.26 2.16 8.74
8/5/2022 11:45:00 AM 22.82 73.076 0.097 7.31 2.09 8.75
8/5/2022 12:00:00 PM 22.95 73.31 0.097 7.34 2.09 8.79
8/5/2022 12:15:00 PM 23.05 73.49 0.098 7.36 2.18 8.82
8/5/2022 12:30:00 PM 23.22 73.796 0.098 7.34 2.1 8.87
8/5/2022 12:45:00 PM 23.57 74.426 0.098 7.43 2.1 8.94
8/5/2022 1:00:00 PM 23.74 74.732 0.099 7.39 2.1 8.89
8/5/2022 1:15:00 PM 24.2 75.56 0.099 7.43 2.05 8.92
8/5/2022 1:30:00 PM 24.74 76.532 0.099 7.45 2.17 8.89
8/5/2022 1:45:00 PM 25.42 77.756 0.1 7.48 2.03 8.81
8/5/2022 2:00:00 PM 25.83 78.494 0.1 7.46 1.99 8.68
8/5/2022 2:15:00 PM 26.29 79.32201 0.1 7.54 1.97 8.63
8/5/2022 2:30:00 PM 26.58 79.844 0.1 7.49 2.13 8.53
8/5/2022 2:45:00 PM 26.92 80.456 0.1 7.49 2.03 8.46
8/5/2022 3:00:00 PM 27.11 80.798 0.1 7.52 2.04 8.44
8/5/2022 3:15:00 PM 27.19 80.942 0.1 7.51 1.93 8.35
8/5/2022 3:30:00 PM 27.33 81.194 0.1 7.54 1.99 8.31
8/5/2022 3:45:00 PM 27.35 81.23 0.1 7.56 1.99 8.23
8/5/2022 4:00:00 PM 27.37 81.266 0.1 7.5 2.04 8.21
8/5/2022 4:15:00 PM 27.47 81.446 0.1 7.58 1.98 8.16
8/5/2022 4:30:00 PM 27.44 81.392 0.1 7.55 2.01 8.14
8/5/2022 4:45:00 PM 27.5 81.5 0.1 7.58 1.98 8.15
8/5/2022 5:00:00 PM 27.44 81.392 0.1 7.58 2.07 8.05
8/5/2022 5:15:00 PM 27.34 81.212 0.1 7.51 1.98 8.01
8/5/2022 5:30:00 PM 27.24 81.032 0.1 7.5 2.11 7.95
8/5/2022 5:45:00 PM 26.9 80.42 0.1 7.54 2.02 7.94
8/5/2022 6:00:00 PM 26.52 79.736 0.1 7.47 2.3 7.81
8/5/2022 6:15:00 PM 26.23 79.214 0.1 7.44 2.03 7.75
8/5/2022 6:30:00 PM 25.92 78.656 0.101 7.41 2.5 7.63
8/5/2022 6:45:00 PM 25.63 78.134 0.102 7.32 2.66 7.48
8/5/2022 7:00:00 PM 25.34 77.612 0.1 7.26 2.48 7.3
8/5/2022 7:15:00 PM 25.03 77.054 0.098 7.21 2.92 7.15
8/5/2022 7:30:00 PM 24.92 76.856 0.152 7.19 4.45 7.15
8/5/2022 7:45:00 PM 24.79 76.622 0.175 7.13 4.7 7.04
8/5/2022 8:00:00 PM 24.74 76.532 0.132 7.17 3.49 6.98
8/5/2022 8:15:00 PM 24.64 76.352 0.116 7.1 2.44 6.91
8/5/2022 8:30:00 PM 24.53 76.154 0.111 7.13 2.73 6.86
8/5/2022 8:45:00 PM 24.36 75.848 0.131 7.06 2.99 6.82
8/5/2022 9:00:00 PM 24.25 75.65 0.171 7.09 4.29 6.85
8/5/2022 9:15:00 PM 24.22 75.596 0.129 7.07 3.91 6.89
8/5/2022 9:30:00 PM 24.19 75.542 0.127 7.1 6.43 7.03
8/5/2022 9:45:00 PM 24.34 75.812 0.098 7.2 12.44 7.22
8/5/2022 10:00:00 PM 24.37 75.866 0.087 7.15 14.71 7.36
8/5/2022 10:15:00 PM 24.31 75.758 0.084 7.2 12.49 7.44
8/5/2022 10:30:00 PM 24.24 75.632 0.083 7.2 9.61 7.46
8/5/2022 10:45:00 PM 24.16 75.488 0.082 7.13 9.22 7.48
8/5/2022 11:00:00 PM 24.05 75.29 0.082 7.17 8.76 7.49
8/5/2022 11:15:00 PM 23.93 75.074 0.081 7.13 8.4 7.51
8/5/2022 11:30:00 PM 23.81 74.858 0.081 7.13 7.66 7.52
8/5/2022 11:45:00 PM 23.71 74.67799 0.081 7.16 7.55 7.53
8/6/2022 12:00:00 AM 23.62 74.516 0.081 7.11 7.5 7.54
8/6/2022 12:15:00 AM 23.54 74.372 0.08 7.11 7.79 7.55
8/6/2022 12:30:00 AM 23.44 74.192 0.079 7.08 10.04 7.57
8/6/2022 12:45:00 AM 23.32 73.976 0.077 7.12 14.46 7.61
8/6/2022 1:00:00 AM 23.21 73.778 0.076 7.08 20.99 7.63
8/6/2022 1:15:00 AM 23.09 73.562 0.076 7.1 30.51 7.66
8/6/2022 1:30:00 AM 22.97 73.346 0.076 7.04 36.16 7.68
8/6/2022 1:45:00 AM 22.84 73.112 0.076 7.04 36.01 7.7
8/6/2022 2:00:00 AM 22.72 72.896 0.077 7.07 33.1 7.73
8/6/2022 2:15:00 AM 22.61 72.698 0.077 7.05 29.75 7.75
8/6/2022 2:30:00 AM 22.51 72.518 0.077 6.99 27.51 7.76
8/6/2022 2:45:00 AM 22.43 72.374 0.077 7 27.02 7.77
8/6/2022 3:00:00 AM 22.35 72.23 0.078 7.03 27.32 7.79
8/6/2022 3:15:00 AM 22.28 72.104 0.078 6.97 28.33 7.79
8/6/2022 3:30:00 AM 22.2 71.96 0.078 7.04 29.97 7.81
8/6/2022 3:45:00 AM 22.13 71.834 0.079 6.97 33.42 7.81
8/6/2022 4:00:00 AM 22.06 71.708 0.079 6.97 33.07 7.83
8/6/2022 4:15:00 AM 21.99 71.582 0.079 6.96 34.62 7.84
8/6/2022 4:30:00 AM 21.92 71.456 0.079 6.95 33.59 7.85
8/6/2022 4:45:00 AM 21.85 71.33 0.079 7 33.25 7.87
8/6/2022 5:00:00 AM 21.79 71.222 0.079 6.95 31.68 7.88
8/6/2022 5:15:00 AM 21.73 71.114 0.079 6.95 31.14 7.89
8/6/2022 5:30:00 AM 21.67 71.006 0.079 6.99 30.6 7.9
8/6/2022 5:45:00 AM 21.61 70.898 0.079 6.93 29.22 7.91
8/6/2022 6:00:00 AM 21.56 70.808 0.08 6.98 27.92 7.91
8/6/2022 6:15:00 AM 21.51 70.718 0.08 6.97 25.89 7.92
8/6/2022 6:30:00 AM 21.46 70.628 0.08 6.94 25.26 7.94
8/6/2022 6:45:00 AM 21.43 70.574 0.081 6.94 24.23 7.96
8/6/2022 7:00:00 AM 21.41 70.538 0.082 7 22.85 8
8/6/2022 7:15:00 AM 21.41 70.538 0.082 6.99 21.86 8.06
8/6/2022 7:30:00 AM 21.38 70.484 0.083 7.03 20.75 8.08
8/6/2022 7:45:00 AM 21.36 70.448 0.083 7 20.04 8.11
8/6/2022 8:00:00 AM 21.33 70.394 0.083 7.05 19.5 8.13
8/6/2022 8:15:00 AM 21.3 70.34 0.083 7.02 19.25 8.16
8/6/2022 8:30:00 AM 21.32 70.376 0.084 7.08 18.19 8.23
8/6/2022 8:45:00 AM 21.34 70.412 0.09 7.07 17.18 8.29
8/6/2022 9:00:00 AM 21.37 70.466 0.095 7.12 16.44 8.36
8/6/2022 9:15:00 AM 21.41 70.538 0.098 7.15 15.5 8.44
8/6/2022 9:30:00 AM 21.45 70.61 0.1 7.18 15.01 8.51
8/6/2022 9:45:00 AM 21.56 70.808 0.099 7.19 14.7 8.61
8/6/2022 10:00:00 AM 21.65 70.97 0.1 7.25 14.54 8.71
8/6/2022 10:15:00 AM 21.79 71.222 0.1 7.28 13.64 8.82
8/6/2022 10:30:00 AM 21.94 71.492 0.101 7.31 13.42 8.9
8/6/2022 10:45:00 AM 22.02 71.636 0.101 7.36 12.44 8.91
8/6/2022 11:00:00 AM 22.1 71.78 0.101 7.39 12.29 8.94
8/6/2022 11:15:00 AM 22.22 71.996 0.101 7.41 11.56 8.97
8/6/2022 11:30:00 AM 22.39 72.302 0.1 7.44 11.18 9.03
8/6/2022 11:45:00 AM 22.58 72.644 0.1 7.48 10.65 9.08
8/6/2022 12:00:00 PM 22.68 72.824 0.1 7.53 10.35 9.1
8/6/2022 12:15:00 PM 22.85 73.13 0.1 7.54 9.93 9.14
8/6/2022 12:30:00 PM 23.14 73.652 0.1 7.59 9.23 9.17
8/6/2022 12:45:00 PM 23.61 74.498 0.099 7.63 9.14 9.19
8/6/2022 1:00:00 PM 23.94 75.092 0.099 7.66 8.9 9.18
8/6/2022 1:15:00 PM 24.3 75.74 0.099 7.71 8.62 9.16
8/6/2022 1:30:00 PM 24.59 76.262 0.099 7.72 8.3 9.14
8/6/2022 1:45:00 PM 24.54 76.172 0.099 7.76 8.23 9.11
8/6/2022 2:00:00 PM 24.84 76.712 0.099 7.77 7.86 9.1
8/6/2022 2:15:00 PM 25.16 77.288 0.099 7.8 7.39 9.08
8/6/2022 2:30:00 PM 25.36 77.648 0.099 7.83 7.3 9.06
8/6/2022 2:45:00 PM 25.5 77.9 0.099 7.85 7.21 8.99
8/6/2022 3:00:00 PM 25.39 77.702 0.099 7.85 6.92 8.95
8/6/2022 3:15:00 PM 25.62 78.116 0.099 7.87 6.61 8.91
8/6/2022 3:30:00 PM 25.78 78.404 0.099 7.87 6.43 8.87
8/6/2022 3:45:00 PM 25.89 78.602 0.099 7.86 6.26 8.83
8/6/2022 4:00:00 PM 26.17 79.106 0.099 7.87 6.27 8.76
8/6/2022 4:15:00 PM 25.95 78.71 0.099 7.85 5.88 8.68
8/6/2022 4:30:00 PM 26.09 78.962 0.099 7.78 6.05 8.58
8/6/2022 4:45:00 PM 26.26 79.268 0.099 7.79 5.7 8.55
8/6/2022 5:00:00 PM 26.28 79.304 0.099 7.79 5.61 8.5
8/6/2022 5:15:00 PM 26.02 78.836 0.099 7.7 5.48 8.38
8/6/2022 5:30:00 PM 26 78.8 0.099 7.69 5.37 8.31
8/6/2022 5:45:00 PM 25.97 78.746 0.099 7.67 5.24 8.29
8/6/2022 6:00:00 PM 25.9 78.62 0.1 7.62 4.98 8.16
8/6/2022 6:15:00 PM 25.82 78.476 0.101 7.57 4.99 8.09
8/6/2022 6:30:00 PM 25.74 78.332 0.1 7.54 4.95 7.99
8/6/2022 6:45:00 PM 25.65 78.17 0.101 7.5 4.83 7.88
8/6/2022 7:00:00 PM 25.58 78.044 0.101 7.43 4.8 7.79
8/6/2022 7:15:00 PM 25.5 77.9 0.101 7.44 4.55 7.73
8/6/2022 7:30:00 PM 25.41 77.738 0.101 7.37 4.58 7.64
8/6/2022 7:45:00 PM 25.3 77.54 0.102 7.36 4.46 7.55
8/6/2022 8:00:00 PM 25.17 77.306 0.102 7.31 4.48 7.49
8/6/2022 8:15:00 PM 25.08 77.144 0.102 7.32 4.37 7.43
8/6/2022 8:30:00 PM 24.98 76.964 0.103 7.3 4.48 7.38
8/6/2022 8:45:00 PM 24.89 76.802 0.102 7.28 4.49 7.34
8/6/2022 9:00:00 PM 24.79 76.622 0.102 7.27 4.58 7.3
8/6/2022 9:15:00 PM 24.71 76.478 0.102 7.19 4.35 7.28
8/6/2022 9:30:00 PM 24.63 76.334 0.102 7.2 4.24 7.26
8/6/2022 9:45:00 PM 24.54 76.172 0.102 7.18 4.44 7.25
8/6/2022 10:00:00 PM 24.48 76.064 0.102 7.21 4.36 7.24
8/6/2022 10:15:00 PM 24.41 75.938 0.102 7.15 4.08 7.24
8/6/2022 10:30:00 PM 24.34 75.812 0.101 7.19 4.1 7.23
8/6/2022 10:45:00 PM 24.27 75.686 0.101 7.13 4.7 7.23
8/6/2022 11:00:00 PM 24.21 75.578 0.101 7.18 4.03 7.24
8/6/2022 11:15:00 PM 24.16 75.488 0.101 7.12 3.92 7.24
8/6/2022 11:30:00 PM 24.1 75.38 0.101 7.15 4.07 7.25
8/6/2022 11:45:00 PM 24.05 75.29 0.101 7.14 3.97 7.26
8/7/2022 12:00:00 AM 24.01 75.218 0.101 7.14 4.03 7.26
8/7/2022 12:15:00 AM 23.96 75.128 0.101 7.11 3.77 7.28
8/7/2022 12:30:00 AM 23.91 75.038 0.101 7.16 3.89 7.3
8/7/2022 12:45:00 AM 23.87 74.966 0.101 7.1 3.76 7.31
8/7/2022 1:00:00 AM 23.82 74.876 0.1 7.13 3.85 7.32
8/7/2022 1:15:00 AM 23.79 74.82201 0.1 7.11 3.69 7.32
8/7/2022 1:30:00 AM 23.75 74.75 0.1 7.12 3.68 7.32
8/7/2022 1:45:00 AM 23.71 74.67799 0.1 7.12 3.62 7.33
8/7/2022 2:00:00 AM 23.66 74.588 0.1 7.12 3.63 7.33
8/7/2022 2:15:00 AM 23.62 74.516 0.1 7.13 3.65 7.35
8/7/2022 2:30:00 AM 23.58 74.444 0.1 7.13 3.8 7.36
8/7/2022 2:45:00 AM 23.53 74.354 0.1 7.11 3.67 7.36
8/7/2022 3:00:00 AM 23.48 74.264 0.1 7.13 3.6 7.37
8/7/2022 3:15:00 AM 23.44 74.192 0.1 7.12 3.47 7.37
8/7/2022 3:30:00 AM 23.39 74.102 0.1 7.12 3.46 7.39
8/7/2022 3:45:00 AM 23.33 73.994 0.1 7.11 4.61 7.41
8/7/2022 4:00:00 AM 23.27 73.886 0.1 7.12 3.39 7.41
8/7/2022 4:15:00 AM 23.21 73.778 0.1 7.12 3.55 7.42
8/7/2022 4:30:00 AM 23.16 73.688 0.1 7.13 3.34 7.43
8/7/2022 4:45:00 AM 23.11 73.598 0.1 7.14 3.48 7.45
8/7/2022 5:00:00 AM 23.06 73.508 0.1 7.09 3.36 7.46
8/7/2022 5:15:00 AM 23 73.4 0.1 7.09 3.45 7.46
8/7/2022 5:30:00 AM 22.95 73.31 0.1 7.1 3.4 7.48
8/7/2022 5:45:00 AM 22.9 73.22 0.099 7.08 3.44 7.49
8/7/2022 6:00:00 AM 22.86 73.148 0.1 7.09 3.38 7.51
8/7/2022 6:15:00 AM 22.81 73.058 0.099 7.09 3.35 7.52
8/7/2022 6:30:00 AM 22.76 72.968 0.099 7.12 3.4 7.53
8/7/2022 6:45:00 AM 22.73 72.914 0.099 7.11 3.36 7.57
8/7/2022 7:00:00 AM 22.7 72.86 0.099 7.12 3.5 7.6
8/7/2022 7:15:00 AM 22.68 72.824 0.097 7.12 3.59 7.66
8/7/2022 7:30:00 AM 22.66 72.788 0.096 7.12 3.35 7.71
8/7/2022 7:45:00 AM 22.65 72.77 0.096 7.12 3.35 7.76
8/7/2022 8:00:00 AM 22.65 72.77 0.095 7.13 3.2 7.83
8/7/2022 8:15:00 AM 22.66 72.788 0.095 7.13 3.26 7.91
8/7/2022 8:30:00 AM 22.67 72.806 0.094 7.16 3.13 7.95
8/7/2022 8:45:00 AM 22.66 72.788 0.094 7.16 3.16 7.98
8/7/2022 9:00:00 AM 22.67 72.806 0.093 7.18 3.09 8.02
8/7/2022 9:15:00 AM 22.67 72.806 0.093 7.19 3.03 8.06
8/7/2022 9:30:00 AM 22.75 72.95 0.092 7.23 3.03 8.21
8/7/2022 9:45:00 AM 22.86 73.148 0.092 7.23 2.96 8.33
8/7/2022 10:00:00 AM 22.95 73.31 0.092 7.25 2.89 8.42
8/7/2022 10:15:00 AM 23 73.4 0.092 7.28 2.92 8.53
8/7/2022 10:30:00 AM 23.13 73.634 0.092 7.34 2.88 8.66
8/7/2022 10:45:00 AM 23.15 73.67 0.092 7.35 2.84 8.6
8/7/2022 11:00:00 AM 23.24 73.832 0.092 7.34 2.73 8.7
8/7/2022 11:15:00 AM 23.46 74.228 0.092 7.42 2.89 8.84
8/7/2022 11:30:00 AM 23.94 75.092 0.092 7.45 2.98 8.92
8/7/2022 11:45:00 AM 23.99 75.182 0.092 7.5 2.83 8.84
8/7/2022 12:00:00 PM 24.12 75.416 0.092 7.46 2.9 8.86
8/7/2022 12:15:00 PM 24.35 75.83 0.092 7.51 2.86 8.82
8/7/2022 12:30:00 PM 24.74 76.532 0.092 7.54 2.94 8.88
8/7/2022 12:45:00 PM 25.18 77.324 0.093 7.58 2.86 8.91
8/7/2022 1:00:00 PM 25.26 77.468 0.093 7.62 2.76 8.82
8/7/2022 1:15:00 PM 25.79 78.422 0.092 7.69 2.8 8.88
8/7/2022 1:30:00 PM 26.42 79.556 0.092 7.73 2.85 8.92
8/7/2022 1:45:00 PM 26.87 80.366 0.092 7.83 2.92 8.93
8/7/2022 2:00:00 PM 26.85 80.33 0.092 7.86 2.84 8.87
8/7/2022 2:15:00 PM 27.38 81.284 0.091 7.89 2.94 8.84
8/7/2022 2:30:00 PM 27.77 81.986 0.091 7.97 2.81 8.81
8/7/2022 2:45:00 PM 27.93 82.274 0.091 7.96 2.89 8.75
8/7/2022 3:00:00 PM 28.15 82.67 0.091 8.02 2.98 8.72
8/7/2022 3:15:00 PM 28.12 82.616 0.091 8.02 2.85 8.62
8/7/2022 3:30:00 PM 28.27 82.886 0.091 8.04 2.75 8.63
8/7/2022 3:45:00 PM 27.92 82.256 0.091 8.01 2.81 8.53
8/7/2022 4:00:00 PM 27.89 82.202 0.09 8.04 2.79 8.53
8/7/2022 4:15:00 PM 27.94 82.292 0.09 8.05 2.65 8.48
8/7/2022 4:30:00 PM 28.16 82.688 0.09 8.08 2.74 8.47
8/7/2022 4:45:00 PM 28.21 82.778 0.09 8.05 2.72 8.42
8/7/2022 5:00:00 PM 28.18 82.724 0.09 8.05 2.78 8.37
8/7/2022 5:15:00 PM 28.16 82.688 0.091 8.01 2.62 8.29
8/7/2022 5:30:00 PM 27.81 82.058 0.091 7.92 2.77 8.16
8/7/2022 5:45:00 PM 27.73 81.914 0.091 7.85 2.82 8.12
8/7/2022 6:00:00 PM 27.52 81.536 0.09 7.82 2.63 8.04
8/7/2022 6:15:00 PM 27.41 81.338 0.091 7.73 2.65 7.96
8/7/2022 6:30:00 PM 27.32 81.176 0.091 7.69 2.6 7.92
8/7/2022 6:45:00 PM 27.2 80.96 0.091 7.65 2.63 7.86
8/7/2022 7:00:00 PM 27.09 80.762 0.091 7.6 2.64 7.79
8/7/2022 7:15:00 PM 26.99 80.582 0.092 7.55 2.72 7.73
8/7/2022 7:30:00 PM 26.92 80.456 0.092 7.52 2.72 7.7
8/7/2022 7:45:00 PM 26.82 80.276 0.092 7.48 2.68 7.63
8/7/2022 8:00:00 PM 26.69 80.042 0.093 7.44 2.79 7.52
8/7/2022 8:15:00 PM 26.55 79.79 0.093 7.4 2.76 7.41
8/7/2022 8:30:00 PM 26.4 79.52 0.093 7.36 2.69 7.3
8/7/2022 8:45:00 PM 26.28 79.304 0.094 7.35 2.8 7.22
8/7/2022 9:00:00 PM 26.15 79.07 0.094 7.31 2.86 7.14
8/7/2022 9:15:00 PM 26.01 78.818 0.094 7.3 2.78 7.08
8/7/2022 9:30:00 PM 25.88 78.584 0.095 7.24 2.81 7.04
8/7/2022 9:45:00 PM 25.76 78.368 0.095 7.26 2.85 7.02
8/7/2022 10:00:00 PM 25.64 78.152 0.095 7.23 3.04 6.99
8/7/2022 10:15:00 PM 25.52 77.936 0.095 7.18 2.86 6.97
8/7/2022 10:30:00 PM 25.41 77.738 0.095 7.22 2.87 6.97
8/7/2022 10:45:00 PM 25.3 77.54 0.095 7.16 2.82 6.96
8/7/2022 11:00:00 PM 25.19 77.342 0.095 7.17 2.84 6.96
8/7/2022 11:15:00 PM 25.1 77.18 0.095 7.18 2.76 6.97
8/7/2022 11:30:00 PM 25.01 77.018 0.095 7.13 2.92 6.98
8/7/2022 11:45:00 PM 24.9 76.82 0.095 7.12 2.68 6.97
8/8/2022 12:00:00 AM 24.81 76.658 0.095 7.11 2.76 6.98
8/8/2022 12:15:00 AM 24.73 76.514 0.095 7.11 2.76 6.99
8/8/2022 12:30:00 AM 24.65 76.37 0.095 7.11 2.71 7
8/8/2022 12:45:00 AM 24.58 76.244 0.096 7.13 2.68 7.01
8/8/2022 1:00:00 AM 24.52 76.136 0.096 7.13 2.71 7.03
8/8/2022 1:15:00 AM 24.45 76.01 0.096 7.14 2.79 7.03
8/8/2022 1:30:00 AM 24.4 75.92 0.095 7.12 2.74 7.05
8/8/2022 1:45:00 AM 24.32 75.776 0.096 7.14 2.66 7.07
8/8/2022 2:00:00 AM 24.28 75.704 0.096 7.1 2.7 7.08
8/8/2022 2:15:00 AM 24.22 75.596 0.096 7.12 2.68 7.08
8/8/2022 2:30:00 AM 24.17 75.506 0.095 7.06 2.77 7.08
8/8/2022 2:45:00 AM 24.13 75.434 0.095 7.11 3.05 7.09
8/8/2022 3:00:00 AM 24.08 75.344 0.096 7.12 2.89 7.11
8/8/2022 3:15:00 AM 24.04 75.272 0.096 7.08 2.78 7.13
8/8/2022 3:30:00 AM 23.97 75.146 0.096 7.11 2.88 7.13
8/8/2022 3:45:00 AM 23.92 75.056 0.096 7.07 2.78 7.15
8/8/2022 4:00:00 AM 23.87 74.966 0.096 7.1 2.82 7.14
8/8/2022 4:15:00 AM 23.84 74.912 0.096 7.07 2.87 7.15
8/8/2022 4:30:00 AM 23.79 74.82201 0.096 7.08 2.84 7.15
8/8/2022 4:45:00 AM 23.73 74.714 0.096 7.07 2.88 7.15
8/8/2022 5:00:00 AM 23.69 74.642 0.096 7.11 2.84 7.17
8/8/2022 5:15:00 AM 23.64 74.552 0.097 7.06 2.93 7.18
8/8/2022 5:30:00 AM 23.58 74.444 0.097 7.07 2.82 7.2
8/8/2022 5:45:00 AM 23.54 74.372 0.098 7.07 2.97 7.21
8/8/2022 6:00:00 AM 23.47 74.246 0.098 7.09 2.87 7.22
8/8/2022 6:15:00 AM 23.43 74.174 0.098 7.06 2.86 7.22
8/8/2022 6:30:00 AM 23.39 74.102 0.098 7.09 2.93 7.24
8/8/2022 6:45:00 AM 23.35 74.03 0.099 7.06 2.93 7.25
8/8/2022 7:00:00 AM 23.31 73.958 0.1 7.08 2.74 7.3
8/8/2022 7:15:00 AM 23.29 73.922 0.1 7.09 2.76 7.34
8/8/2022 7:30:00 AM 23.27 73.886 0.099 7.09 2.65 7.41
8/8/2022 7:45:00 AM 23.26 73.868 0.099 7.1 2.71 7.46
8/8/2022 8:00:00 AM 23.26 73.868 0.099 7.09 2.69 7.53
8/8/2022 8:15:00 AM 23.27 73.886 0.099 7.13 2.57 7.59
8/8/2022 8:30:00 AM 23.28 73.904 0.099 7.09 2.69 7.64
8/8/2022 8:45:00 AM 23.31 73.958 0.098 7.13 2.67 7.72
8/8/2022 9:00:00 AM 23.36 74.048 0.098 7.16 2.54 7.88
8/8/2022 9:15:00 AM 23.43 74.174 0.097 7.18 2.6 8
8/8/2022 9:30:00 AM 23.51 74.318 0.097 7.19 2.63 8.09
8/8/2022 9:45:00 AM 23.55 74.39 0.097 7.21 2.51 8.1
8/8/2022 10:00:00 AM 23.62 74.516 0.097 7.24 2.43 8.2
8/8/2022 10:15:00 AM 23.68 74.624 0.096 7.25 2.47 8.29
8/8/2022 10:30:00 AM 23.78 74.804 0.096 7.3 2.4 8.34
8/8/2022 10:45:00 AM 23.84 74.912 0.096 7.34 2.44 8.41
8/8/2022 11:00:00 AM 23.87 74.966 0.096 7.31 2.43 8.41
8/8/2022 11:15:00 AM 24.15 75.47 0.096 7.38 2.38 8.6
8/8/2022 11:30:00 AM 24.27 75.686 0.095 7.44 2.46 8.67
8/8/2022 11:45:00 AM 24.48 76.064 0.095 7.47 2.49 8.77
8/8/2022 12:00:00 PM 24.67 76.406 0.095 7.49 2.32 8.79
8/8/2022 12:15:00 PM 24.71 76.478 0.095 7.52 2.28 8.74
8/8/2022 12:30:00 PM 24.72 76.496 0.096 7.55 2.39 8.79
8/8/2022 12:45:00 PM 24.79 76.622 0.096 7.61 2.33 8.85
8/8/2022 1:00:00 PM 24.87 76.766 0.096 7.68 2.32 8.88
8/8/2022 1:15:00 PM 24.9 76.82 0.096 7.66 2.37 8.83
8/8/2022 1:30:00 PM 24.95 76.91 0.096 7.71 2.26 8.81
8/8/2022 1:45:00 PM 24.95 76.91 0.096 7.63 2.33 8.66
8/8/2022 2:00:00 PM 24.94 76.892 0.097 7.61 2.21 8.56
8/8/2022 2:15:00 PM 24.89 76.802 0.097 7.59 2.28 8.5
8/8/2022 2:30:00 PM 24.85 76.73 0.097 7.56 2.27 8.4
8/8/2022 2:45:00 PM 24.79 76.622 0.097 7.55 2.31 8.36
8/8/2022 3:00:00 PM 24.78 76.604 0.097 7.55 2.31 8.4
8/8/2022 3:15:00 PM 24.82 76.676 0.097 7.57 2.28 8.41
8/8/2022 3:30:00 PM 24.89 76.802 0.097 7.59 2.26 8.5
8/8/2022 3:45:00 PM 24.96 76.92799 0.097 7.65 2.3 8.54
8/8/2022 4:00:00 PM 25.1 77.18 0.097 7.62 2.36 8.6
8/8/2022 4:15:00 PM 25.2 77.36 0.096 7.7 2.3 8.61
8/8/2022 4:30:00 PM 25.27 77.486 0.096 7.75 2.32 8.69
8/8/2022 4:45:00 PM 25.26 77.468 0.097 7.76 2.24 8.56
8/8/2022 5:00:00 PM 25.32 77.576 0.096 7.75 2.33 8.58
8/8/2022 5:15:00 PM 25.64 78.152 0.096 7.8 2.31 8.59
8/8/2022 5:30:00 PM 25.72 78.296 0.096 7.81 2.3 8.52
8/8/2022 5:45:00 PM 25.65 78.17 0.096 7.77 2.34 8.44
8/8/2022 6:00:00 PM 25.52 77.936 0.096 7.69 2.33 8.28
8/8/2022 6:15:00 PM 25.39 77.702 0.096 7.67 2.34 8.25
8/8/2022 6:30:00 PM 25.31 77.558 0.096 7.59 2.29 8.14
8/8/2022 6:45:00 PM 25.27 77.486 0.096 7.57 2.33 8.11
8/8/2022 7:00:00 PM 25.24 77.432 0.096 7.53 2.34 8.04
8/8/2022 7:15:00 PM 25.2 77.36 0.096 7.49 2.31 7.94
8/8/2022 7:30:00 PM 25.13 77.234 0.096 7.48 2.35 7.83
8/8/2022 7:45:00 PM 25.07 77.126 0.096 7.43 2.36 7.73
8/8/2022 8:00:00 PM 24.97 76.946 0.097 7.38 2.26 7.62
8/8/2022 8:15:00 PM 24.88 76.784 0.097 7.36 2.31 7.49
8/8/2022 8:30:00 PM 24.78 76.604 0.098 7.3 2.29 7.37
8/8/2022 8:45:00 PM 24.7 76.46 0.098 7.28 2.42 7.31
8/8/2022 9:00:00 PM 24.61 76.298 0.099 7.25 2.44 7.21
8/8/2022 9:15:00 PM 24.54 76.172 0.099 7.24 2.42 7.16
8/8/2022 9:30:00 PM 24.44 75.992 0.1 7.24 2.34 7.09
8/8/2022 9:45:00 PM 24.36 75.848 0.1 7.19 2.4 7.03
8/8/2022 10:00:00 PM 24.29 75.722 0.1 7.19 2.48 7.06
8/8/2022 10:15:00 PM 24.22 75.596 0.1 7.16 2.46 7.02
8/8/2022 10:30:00 PM 24.14 75.452 0.101 7.17 2.48 7
8/8/2022 10:45:00 PM 24.07 75.326 0.101 7.17 2.39 7
8/8/2022 11:00:00 PM 24.02 75.236 0.1 7.16 2.45 7.02
8/8/2022 11:15:00 PM 23.93 75.074 0.1 7.14 2.39 7
8/8/2022 11:30:00 PM 23.87 74.966 0.1 7.15 2.55 7.01
8/8/2022 11:45:00 PM 23.83 74.894 0.1 7.15 2.46 7.02
8/9/2022 12:00:00 AM 23.79 74.82201 0.1 7.12 2.4 7.03
8/9/2022 12:15:00 AM 23.75 74.75 0.1 7.12 2.51 7.04
8/9/2022 12:30:00 AM 23.71 74.67799 0.1 7.11 2.5 7.04
8/9/2022 12:45:00 AM 23.66 74.588 0.101 7.1 2.67 7.03
8/9/2022 1:00:00 AM 23.62 74.516 0.1 7.1 2.43 7.06
8/9/2022 1:15:00 AM 23.59 74.462 0.1 7.1 2.55 7.05
8/9/2022 1:30:00 AM 23.54 74.372 0.1 7.12 2.76 7.07
8/9/2022 1:45:00 AM 23.51 74.318 0.1 7.12 2.66 7.09
8/9/2022 2:00:00 AM 23.48 74.264 0.1 7.12 2.56 7.1
8/9/2022 2:15:00 AM 23.44 74.192 0.101 7.08 2.63 7.08
8/9/2022 2:30:00 AM 23.41 74.138 0.101 7.1 2.54 7.08
8/9/2022 2:45:00 AM 23.38 74.084 0.101 7.09 2.57 7.1
8/9/2022 3:00:00 AM 23.34 74.012 0.101 7.07 2.46 7.1
8/9/2022 3:15:00 AM 23.31 73.958 0.101 7.07 2.58 7.11
8/9/2022 3:30:00 AM 23.29 73.922 0.101 7.07 2.61 7.11
8/9/2022 3:45:00 AM 23.27 73.886 0.101 7.08 2.55 7.11
8/9/2022 4:00:00 AM 23.23 73.814 0.101 7.07 2.55 7.11
8/9/2022 4:15:00 AM 23.21 73.778 0.101 7.05 2.58 7.1
8/9/2022 4:30:00 AM 23.19 73.742 0.101 7.05 2.62 7.12
8/9/2022 4:45:00 AM 23.16 73.688 0.101 7.05 2.47 7.11
8/9/2022 5:00:00 AM 23.14 73.652 0.102 7.05 3.56 7.12
8/9/2022 5:15:00 AM 23.12 73.616 0.101 7.06 2.55 7.14
8/9/2022 5:30:00 AM 23.1 73.58 0.102 7.06 2.69 7.11
8/9/2022 5:45:00 AM 23.08 73.544 0.102 7.05 2.53 7.14
8/9/2022 6:00:00 AM 23.05 73.49 0.102 7.04 2.59 7.14
8/9/2022 6:15:00 AM 23.04 73.472 0.102 7.05 2.5 7.16
8/9/2022 6:30:00 AM 23.03 73.454 0.102 7.05 2.47 7.15
8/9/2022 6:45:00 AM 23.01 73.418 0.102 7.06 2.54 7.16
8/9/2022 7:00:00 AM 23.01 73.418 0.102 7.05 2.51 7.19
8/9/2022 7:15:00 AM 23 73.4 0.102 7.08 2.53 7.24
8/9/2022 7:30:00 AM 23 73.4 0.102 7.07 2.47 7.28
8/9/2022 7:45:00 AM 23.01 73.418 0.102 7.12 2.52 7.36
8/9/2022 8:00:00 AM 23.07 73.526 0.102 7.11 2.47 7.55
8/9/2022 8:15:00 AM 23.1 73.58 0.102 7.13 2.4 7.59
8/9/2022 8:30:00 AM 23.12 73.616 0.101 7.14 2.42 7.64
8/9/2022 8:45:00 AM 23.16 73.688 0.101 7.16 2.43 7.77
8/9/2022 9:00:00 AM 23.16 73.688 0.101 7.16 2.45 7.71
8/9/2022 9:15:00 AM 23.07 73.526 0.101 7.17 2.29 7.73
8/9/2022 9:30:00 AM 23.04 73.472 0.101 7.2 2.28 7.82
8/9/2022 9:45:00 AM 23.01 73.418 0.101 7.23 2.27 7.89
8/9/2022 10:00:00 AM 22.99 73.382 0.1 7.23 2.24 7.97
8/9/2022 10:15:00 AM 23.06 73.508 0.1 7.26 2.33 8.15
8/9/2022 10:30:00 AM 23.14 73.652 0.1 7.28 2.29 8.3
8/9/2022 10:45:00 AM 23.18 73.724 0.1 7.29 2.28 8.34
8/9/2022 11:00:00 AM 23.27 73.886 0.099 7.32 2.32 8.47
8/9/2022 11:15:00 AM 23.27 73.886 0.099 7.34 2.24 8.44
8/9/2022 11:30:00 AM 23.33 73.994 0.1 7.37 2.22 8.53
8/9/2022 11:45:00 AM 23.37 74.066 0.1 7.34 2.27 8.53
8/9/2022 12:00:00 PM 23.4 74.12 0.1 7.39 2.19 8.58
8/9/2022 12:15:00 PM 23.5 74.3 0.1 7.39 2.32 8.67
8/9/2022 12:30:00 PM 23.56 74.408 0.099 7.43 2.13 8.68
8/9/2022 12:45:00 PM 23.6 74.48 0.1 7.45 2.12 8.73
8/9/2022 1:00:00 PM 23.71 74.67799 0.1 7.46 2.35 8.81
8/9/2022 1:15:00 PM 23.85 74.93 0.1 7.54 2.2 8.89
8/9/2022 1:30:00 PM 24.16 75.488 0.1 7.58 2.14 8.94
8/9/2022 1:45:00 PM 24.32 75.776 0.1 7.63 2.22 8.88
8/9/2022 2:00:00 PM 24.4 75.92 0.099 7.6 2.18 8.88
8/9/2022 2:15:00 PM 24.5 76.1 0.1 7.66 2.12 8.91
8/9/2022 2:30:00 PM 24.59 76.262 0.099 7.74 2.14 8.92
8/9/2022 2:45:00 PM 24.72 76.496 0.099 7.75 2.16 8.93
8/9/2022 3:00:00 PM 24.82 76.676 0.099 7.8 2.17 8.91
8/9/2022 3:15:00 PM 24.92 76.856 0.099 7.83 2.31 8.94
8/9/2022 3:30:00 PM 24.85 76.73 0.099 7.83 2.27 8.78
8/9/2022 3:45:00 PM 24.83 76.694 0.099 7.77 2.14 8.72
8/9/2022 4:00:00 PM 24.79 76.622 0.099 7.83 12.61 8.7
8/9/2022 4:15:00 PM 24.79 76.622 0.099 7.8 2.12 8.71
8/9/2022 4:30:00 PM 24.84 76.712 0.099 7.85 2.19 8.72
8/9/2022 4:45:00 PM 24.94 76.892 0.099 7.84 2.2 8.66
8/9/2022 5:00:00 PM 25 77 0.099 7.81 2.16 8.61
8/9/2022 5:15:00 PM 24.99 76.982 0.099 7.86 2.25 8.57
8/9/2022 5:30:00 PM 24.96 76.92799 0.099 7.78 2.1 8.55
8/9/2022 5:45:00 PM 24.96 76.92799 0.099 7.85 2.13 8.53
8/9/2022 6:00:00 PM 24.96 76.92799 0.099 7.76 2.23 8.42
8/9/2022 6:15:00 PM 24.84 76.712 0.099 7.74 2.21 8.31
8/9/2022 6:30:00 PM 24.73 76.514 0.099 7.65 2.15 8.24
8/9/2022 6:45:00 PM 24.57 76.226 0.1 7.57 2.18 8.06
8/9/2022 7:00:00 PM 24.49 76.082 0.1 7.52 3.94 8.01
8/9/2022 7:15:00 PM 24.39 75.902 0.1 7.5 2.19 7.88
8/9/2022 7:30:00 PM 24.26 75.668 0.101 7.44 2.18 7.77
8/9/2022 7:45:00 PM 24.13 75.434 0.101 7.39 2.2 7.67
8/9/2022 8:00:00 PM 24 75.2 0.101 7.4 2.21 7.59
8/9/2022 8:15:00 PM 23.9 75.02 0.101 7.34 2.39 7.47
8/9/2022 8:30:00 PM 23.79 74.82201 0.101 7.31 2.34 7.42
8/9/2022 8:45:00 PM 23.69 74.642 0.102 7.29 2.34 7.36
8/9/2022 9:00:00 PM 23.58 74.444 0.102 7.27 2.22 7.29
8/9/2022 9:15:00 PM 23.53 74.354 0.102 7.24 2.55 7.25
8/9/2022 9:30:00 PM 23.45 74.21 0.102 7.21 2.39 7.19
8/9/2022 9:45:00 PM 23.35 74.03 0.102 7.22 2.3 7.17
8/9/2022 10:00:00 PM 23.26 73.868 0.103 7.19 2.24 7.16
8/9/2022 10:15:00 PM 23.18 73.724 0.103 7.21 2.34 7.14
8/9/2022 10:30:00 PM 23.08 73.544 0.103 7.16 2.34 7.13
8/9/2022 10:45:00 PM 22.98 73.364 0.103 7.14 2.33 7.12
8/9/2022 11:00:00 PM 22.92 73.256 0.103 7.15 2.4 7.15
8/9/2022 11:15:00 PM 22.83 73.094 0.103 7.16 2.59 7.14
8/9/2022 11:30:00 PM 22.76 72.968 0.102 7.12 2.23 7.15
8/9/2022 11:45:00 PM 22.69 72.842 0.102 7.12 2.39 7.18
8/10/2022 12:00:00 AM 22.62 72.716 0.102 7.12 2.42 7.2
8/10/2022 12:15:00 AM 22.53 72.554 0.102 7.1 2.63 7.19
8/10/2022 12:30:00 AM 22.43 72.374 0.101 7.1 2.29 7.21
8/10/2022 12:45:00 AM 22.32 72.176 0.101 7.09 2.67 7.22
8/10/2022 1:00:00 AM 22.25 72.05 0.101 7.11 2.4 7.22
8/10/2022 1:15:00 AM 22.16 71.888 0.101 7.09 2.41 7.23
8/10/2022 1:30:00 AM 22.11 71.798 0.101 7.11 2.23 7.25
8/10/2022 1:45:00 AM 22.05 71.69 0.101 7.05 2.76 7.24
8/10/2022 2:00:00 AM 22 71.6 0.101 7.11 2.5 7.27
8/10/2022 2:15:00 AM 21.91 71.438 0.101 7.05 2.54 7.3
8/10/2022 2:30:00 AM 21.83 71.294 0.101 7.06 2.45 7.3
8/10/2022 2:45:00 AM 21.72 71.096 0.101 7.07 2.31 7.32
8/10/2022 3:00:00 AM 21.63 70.934 0.101 7.05 2.33 7.33
8/10/2022 3:15:00 AM 21.54 70.772 0.102 7.08 2.36 7.34
8/10/2022 3:30:00 AM 21.43 70.574 0.102 7.08 2.3 7.36
8/10/2022 3:45:00 AM 21.33 70.394 0.102 7.03 2.43 7.38
8/10/2022 4:00:00 AM 21.25 70.25 0.102 7.05 2.48 7.4
8/10/2022 4:15:00 AM 21.18 70.124 0.102 7.06 2.4 7.43
8/10/2022 4:30:00 AM 21.08 69.944 0.102 7.06 2.5 7.43
8/10/2022 4:45:00 AM 21 69.8 0.102 7.04 2.69 7.45
8/10/2022 5:00:00 AM 20.91 69.638 0.102 7.02 2.44 7.47
8/10/2022 5:15:00 AM 20.82 69.476 0.102 7.05 2.4 7.5
8/10/2022 5:30:00 AM 20.71 69.278 0.102 7.03 2.49 7.52
8/10/2022 5:45:00 AM 20.62 69.116 0.102 7.03 2.42 7.55
8/10/2022 6:00:00 AM 20.55 68.99 0.102 7.06 2.49 7.55
8/10/2022 6:15:00 AM 20.48 68.864 0.102 7.03 2.52 7.56
8/10/2022 6:30:00 AM 20.42 68.756 0.103 7.02 2.67 7.59
8/10/2022 6:45:00 AM 20.37 68.666 0.102 7.06 2.59 7.65
8/10/2022 7:00:00 AM 20.32 68.576 0.102 7.06 2.42 7.71
8/10/2022 7:15:00 AM 20.26 68.468 0.102 7.05 2.58 7.8
8/10/2022 7:30:00 AM 20.26 68.468 0.102 7.1 2.38 7.9
8/10/2022 7:45:00 AM 20.25 68.45 0.102 7.08 2.35 8.01
8/10/2022 8:00:00 AM 20.24 68.432 0.101 7.13 2.7 8.14
8/10/2022 8:15:00 AM 20.33 68.594 0.101 7.15 2.37 8.28
8/10/2022 8:30:00 AM 20.46 68.828 0.1 7.19 2.33 8.37
8/10/2022 8:45:00 AM 20.52 68.936 0.101 7.2 2.31 8.44
8/10/2022 9:00:00 AM 20.58 69.044 0.101 7.2 2.36 8.52
8/10/2022 9:15:00 AM 20.67 69.206 0.1 7.23 2.27 8.59
8/10/2022 9:30:00 AM 20.83 69.494 0.101 7.27 2.31 8.63
8/10/2022 9:45:00 AM 20.98 69.764 0.1 7.31 2.2 8.7
8/10/2022 10:00:00 AM 21.14 70.052 0.1 7.31 2.23 8.74
8/10/2022 10:15:00 AM 21.33 70.394 0.1 7.34 2.3 8.83
8/10/2022 10:30:00 AM 21.51 70.718 0.1 7.39 2.14 8.91
8/10/2022 10:45:00 AM 21.83 71.294 0.1 7.39 2.33 9
8/10/2022 11:00:00 AM 22.11 71.798 0.099 7.42 2.2 8.99
8/10/2022 11:15:00 AM 22.25 72.05 0.099 7.44 2.13 9.02
8/10/2022 11:30:00 AM 22.58 72.644 0.099 7.49 2.21 9.14
8/10/2022 11:45:00 AM 22.76 72.968 0.099 7.56 2.16 9.24
8/10/2022 12:00:00 PM 23.03 73.454 0.099 7.61 2.26 9.26
8/10/2022 12:15:00 PM 23.25 73.85 0.098 7.64 2.14 9.22
8/10/2022 12:30:00 PM 23.43 74.174 0.098 7.68 2.09 9.23
8/10/2022 12:45:00 PM 23.59 74.462 0.098 7.76 2.08 9.24
8/10/2022 1:00:00 PM 23.72 74.696 0.099 7.81 2.14 9.24
8/10/2022 1:15:00 PM 23.93 75.074 0.099 7.86 2.25 9.27
8/10/2022 1:30:00 PM 24.26 75.668 0.099 7.97 2.19 9.28
8/10/2022 1:45:00 PM 24.7 76.46 0.099 8.01 2.17 9.17
8/10/2022 2:00:00 PM 24.97 76.946 0.099 8 2.3 9.08
8/10/2022 2:15:00 PM 25.34 77.612 0.099 7.96 2.13 8.99
8/10/2022 2:30:00 PM 25.59 78.062 0.1 7.94 2.16 8.85
8/10/2022 2:45:00 PM 25.81 78.458 0.099 7.93 2.14 8.76
8/10/2022 3:00:00 PM 25.89 78.602 0.099 7.96 2.15 8.76
8/10/2022 3:15:00 PM 25.97 78.746 0.099 7.92 2.05 8.67
8/10/2022 3:30:00 PM 25.93 78.674 0.099 7.93 2.05 8.56
8/10/2022 3:45:00 PM 26.04 78.872 0.1 7.88 2.1 8.47
8/10/2022 4:00:00 PM 26.2 79.16 0.1 7.81 2.05 8.42
8/10/2022 4:15:00 PM 26.29 79.32201 0.1 7.82 2.13 8.38
8/10/2022 4:30:00 PM 26.46 79.628 0.1 7.81 2.11 8.33
8/10/2022 4:45:00 PM 26.5 79.7 0.1 7.81 2.06 8.29
8/10/2022 5:00:00 PM 26.5 79.7 0.1 7.78 2.01 8.25
8/10/2022 5:15:00 PM 26.34 79.412 0.101 7.75 6.16 8.17
8/10/2022 5:30:00 PM 25.98 78.764 0.101 7.72 2.07 8.12
8/10/2022 5:45:00 PM 25.8 78.44 0.101 7.68 2.01 8.12
8/10/2022 6:00:00 PM 25.6 78.08 0.101 7.67 2.07 8.09
8/10/2022 6:15:00 PM 25.37 77.666 0.101 7.64 2.09 8.06
8/10/2022 6:30:00 PM 25.16 77.288 0.101 7.58 2.12 7.91
8/10/2022 6:45:00 PM 24.97 76.946 0.101 7.54 2.16 7.83
8/10/2022 7:00:00 PM 24.78 76.604 0.101 7.51 2.14 7.75
8/10/2022 7:15:00 PM 24.57 76.226 0.102 7.47 2.2 7.67
8/10/2022 7:30:00 PM 24.43 75.974 0.102 7.47 2.33 7.58
8/10/2022 7:45:00 PM 24.26 75.668 0.102 7.43 2.19 7.48
8/10/2022 8:00:00 PM 24.11 75.398 0.102 7.43 2.35 7.42
8/10/2022 8:15:00 PM 23.94 75.092 0.102 7.36 2.29 7.33
8/10/2022 8:30:00 PM 23.8 74.84 0.103 7.3 2.37 7.26
8/10/2022 8:45:00 PM 23.64 74.552 0.103 7.33 2.44 7.21
8/10/2022 9:00:00 PM 23.47 74.246 0.103 7.25 2.32 7.16
8/10/2022 9:15:00 PM 23.43 74.174 0.102 7.31 2.44 7.17
8/10/2022 9:30:00 PM 23.25 73.85 0.103 7.27 2.33 7.12
8/10/2022 9:45:00 PM 23.15 73.67 0.103 7.24 2.33 7.08
8/10/2022 10:00:00 PM 23.04 73.472 0.103 7.24 2.31 7.07
8/10/2022 10:15:00 PM 22.96 73.328 0.103 7.2 2.4 7.06
8/10/2022 10:30:00 PM 22.75 72.95 0.104 7.21 2.26 7.04
8/10/2022 10:45:00 PM 22.61 72.698 0.104 7.21 2.42 7.06
8/10/2022 11:00:00 PM 22.5 72.5 0.104 7.15 2.28 7.08
8/10/2022 11:15:00 PM 22.35 72.23 0.105 7.15 2.32 7.08
8/10/2022 11:30:00 PM 22.24 72.032 0.104 7.14 2.32 7.08
8/10/2022 11:45:00 PM 22.12 71.816 0.104 7.17 2.25 7.08
8/11/2022 12:00:00 AM 21.97 71.546 0.105 7.11 2.35 7.09
8/11/2022 12:15:00 AM 21.86 71.348 0.104 7.12 2.44 7.12
8/11/2022 12:30:00 AM 21.77 71.186 0.104 7.12 2.33 7.14
8/11/2022 12:45:00 AM 21.66 70.988 0.104 7.13 2.4 7.17
8/11/2022 1:00:00 AM 21.52 70.736 0.103 7.1 2.37 7.19
8/11/2022 1:15:00 AM 21.4 70.52 0.103 7.1 2.32 7.2
8/11/2022 1:30:00 AM 21.27 70.286 0.103 7.11 2.35 7.21
8/11/2022 1:45:00 AM 21.18 70.124 0.103 7.08 2.34 7.25
8/11/2022 2:00:00 AM 21.06 69.908 0.103 7.1 2.32 7.24
8/11/2022 2:15:00 AM 20.99 69.782 0.102 7.03 2.33 7.27
8/11/2022 2:30:00 AM 20.93 69.674 0.102 7.09 2.36 7.29
8/11/2022 2:45:00 AM 20.86 69.548 0.102 7.04 2.34 7.32
8/11/2022 3:00:00 AM 20.82 69.476 0.102 7.08 2.42 7.34
8/11/2022 3:15:00 AM 20.73 69.314 0.102 7.03 2.42 7.35
8/11/2022 3:30:00 AM 20.65 69.17 0.103 7.04 2.36 7.36
8/11/2022 3:45:00 AM 20.61 69.098 0.103 7.02 2.35 7.37
8/11/2022 4:00:00 AM 20.54 68.972 0.103 7.03 2.51 7.41
8/11/2022 4:15:00 AM 20.46 68.828 0.103 7.03 2.43 7.42
8/11/2022 4:30:00 AM 20.39 68.702 0.103 7.02 2.35 7.44
8/11/2022 4:45:00 AM 20.28 68.504 0.104 7.04 2.31 7.44
8/11/2022 5:00:00 AM 20.23 68.414 0.103 7.02 3.52 7.46
8/11/2022 5:15:00 AM 20.09 68.162 0.105 7.03 2.3 7.47
8/11/2022 5:30:00 AM 20.01 68.018 0.106 7.01 2.52 7.5
8/11/2022 5:45:00 AM 19.94 67.892 0.107 7.04 2.9 7.52
8/11/2022 6:00:00 AM 19.86 67.748 0.107 7 2.44 7.53
8/11/2022 6:15:00 AM 19.8 67.64 0.108 7.02 2.95 7.56
8/11/2022 6:30:00 AM 19.72 67.496 0.107 7.01 2.38 7.58
8/11/2022 6:45:00 AM 19.66 67.388 0.107 7.04 2.26 7.64
8/11/2022 7:00:00 AM 19.59 67.262 0.107 7.02 2.38 7.69
8/11/2022 7:15:00 AM 19.56 67.208 0.107 7.07 2.3 7.76
8/11/2022 7:30:00 AM 19.53 67.154 0.107 7.05 2.36 7.86
8/11/2022 7:45:00 AM 19.55 67.19 0.106 7.12 2.46 8.01
8/11/2022 8:00:00 AM 19.57 67.226 0.107 7.14 2.43 8.17
8/11/2022 8:15:00 AM 19.6 67.28 0.106 7.14 2.42 8.29
8/11/2022 8:30:00 AM 19.73 67.514 0.105 7.16 2.41 8.46
8/11/2022 8:45:00 AM 19.84 67.712 0.104 7.19 2.4 8.58
8/11/2022 9:00:00 AM 19.88 67.784 0.104 7.25 2.56 8.71
8/11/2022 9:15:00 AM 19.96 67.92799 0.102 7.25 2.42 8.82
8/11/2022 9:30:00 AM 19.98 67.964 0.102 7.29 4.28 8.89
8/11/2022 9:45:00 AM 20.09 68.162 0.102 7.32 2.39 9.01
8/11/2022 10:00:00 AM 20.16 68.288 0.102 7.38 2.37 9.12
8/11/2022 10:15:00 AM 20.38 68.684 0.101 7.39 2.26 9.21
8/11/2022 10:30:00 AM 20.6 69.08 0.101 7.43 2.33 9.31
8/11/2022 10:45:00 AM 20.72 69.296 0.1 7.48 2.31 9.34
8/11/2022 11:00:00 AM 21.08 69.944 0.1 7.54 2.36 9.45
8/11/2022 11:15:00 AM 21.27 70.286 0.099 7.63 2.42 9.5
8/11/2022 11:30:00 AM 21.54 70.772 0.098 7.67 2.34 9.53
8/11/2022 11:45:00 AM 21.71 71.078 0.098 7.73 2.32 9.55
8/11/2022 12:00:00 PM 21.96 71.528 0.097 7.73 2.3 9.53
8/11/2022 12:15:00 PM 22.24 72.032 0.098 7.78 2.25 9.5
8/11/2022 12:30:00 PM 22.56 72.608 0.098 7.84 2.23 9.51
8/11/2022 12:45:00 PM 22.9 73.22 0.098 7.89 2.5 9.52
8/11/2022 1:00:00 PM 23.22 73.796 0.098 7.97 2.28 9.53
8/11/2022 1:15:00 PM 23.46 74.228 0.098 8.02 2.3 9.5
8/11/2022 1:30:00 PM 23.85 74.93 0.097 8.06 2.44 9.46
8/11/2022 1:45:00 PM 24.1 75.38 0.098 8.1 2.29 9.38
8/11/2022 2:00:00 PM 24.18 75.524 0.099 8.09 2.33 9.25
8/11/2022 2:15:00 PM 24.45 76.01 0.099 8.11 2.19 9.27
8/11/2022 2:30:00 PM 24.56 76.208 0.099 8.18 2.25 9.19
8/11/2022 2:45:00 PM 24.87 76.766 0.099 8.17 2.35 9.13
8/11/2022 3:00:00 PM 24.98 76.964 0.099 8.18 2.33 9.05
8/11/2022 3:15:00 PM 25.09 77.162 0.099 8.21 2.26 9.04
8/11/2022 3:30:00 PM 25.21 77.378 0.099 8.2 2.33 8.94
8/11/2022 3:45:00 PM 25.29 77.522 0.1 8.16 2.42 8.8
8/11/2022 4:00:00 PM 25.43 77.774 0.1 8.14 2.26 8.8
8/11/2022 4:15:00 PM 25.49 77.882 0.099 8.11 2.24 8.74
8/11/2022 4:30:00 PM 25.54 77.972 0.1 8.11 2.31 8.67
8/11/2022 4:45:00 PM 25.54 77.972 0.1 8.14 3.3 8.7
8/11/2022 5:00:00 PM 25.45 77.81 0.1 8.11 2.29 8.63
8/11/2022 5:15:00 PM 25.41 77.738 0.1 8.04 2.32 8.6
8/11/2022 5:30:00 PM 25.28 77.504 0.1 8.08 2.14 8.56
8/11/2022 5:45:00 PM 24.97 76.946 0.1 8.02 2.35 8.51
8/11/2022 6:00:00 PM 24.7 76.46 0.1 7.96 2.46 8.46
8/11/2022 6:15:00 PM 24.3 75.74 0.1 7.84 2.24 8.36
8/11/2022 6:30:00 PM 24.11 75.398 0.1 7.83 2.4 8.27
8/11/2022 6:45:00 PM 23.98 75.164 0.1 7.73 2.23 8.22
8/11/2022 7:00:00 PM 23.79 74.82201 0.1 7.68 2.43 8.08
8/11/2022 7:15:00 PM 23.6 74.48 0.101 7.63 2.24 7.94
8/11/2022 7:30:00 PM 23.46 74.228 0.101 7.54 2.33 7.86
8/11/2022 7:45:00 PM 23.32 73.976 0.101 7.54 2.35 7.79
8/11/2022 8:00:00 PM 23.12 73.616 0.101 7.47 2.35 7.7
8/11/2022 8:15:00 PM 22.96 73.328 0.101 7.45 2.27 7.63
8/11/2022 8:30:00 PM 22.77 72.986 0.101 7.4 2.39 7.55
8/11/2022 8:45:00 PM 22.61 72.698 0.101 7.41 2.4 7.5
8/11/2022 9:00:00 PM 22.45 72.41 0.101 7.34 2.4 7.45
8/11/2022 9:15:00 PM 22.31 72.158 0.101 7.36 2.5 7.42
8/11/2022 9:30:00 PM 22.14 71.852 0.102 7.3 2.5 7.37
8/11/2022 9:45:00 PM 22.03 71.654 0.101 7.32 2.62 7.36
8/11/2022 10:00:00 PM 21.88 71.384 0.102 7.27 2.57 7.35
8/11/2022 10:15:00 PM 21.74 71.132 0.102 7.3 2.42 7.34
8/11/2022 10:30:00 PM 21.62 70.916 0.102 7.25 2.38 7.35
8/11/2022 10:45:00 PM 21.49 70.682 0.102 7.22 2.41 7.35
8/11/2022 11:00:00 PM 21.36 70.448 0.102 7.22 2.53 7.36
8/11/2022 11:15:00 PM 21.2 70.16 0.103 7.23 2.36 7.35
8/11/2022 11:30:00 PM 21.07 69.926 0.103 7.22 2.43 7.36
8/11/2022 11:45:00 PM 20.94 69.692 0.103 7.21 2.35 7.37
8/12/2022 12:00:00 AM 20.82 69.476 0.102 7.17 2.42 7.39
8/12/2022 12:15:00 AM 20.69 69.242 0.102 7.17 2.48 7.41
8/12/2022 12:30:00 AM 20.54 68.972 0.102 7.2 2.52 7.42
8/12/2022 12:45:00 AM 20.41 68.738 0.102 7.18 2.42 7.46
8/12/2022 1:00:00 AM 20.29 68.522 0.102 7.18 2.44 7.49
8/12/2022 1:15:00 AM 20.2 68.36 0.102 7.16 2.46 7.53
8/12/2022 1:30:00 AM 20.06 68.108 0.102 7.15 2.42 7.54
8/12/2022 1:45:00 AM 19.94 67.892 0.102 7.1 2.51 7.56
8/12/2022 2:00:00 AM 19.86 67.748 0.101 7.12 2.41 7.58
8/12/2022 2:15:00 AM 19.78 67.604 0.101 7.14 2.4 7.61
8/12/2022 2:30:00 AM 19.66 67.388 0.101 7.12 2.47 7.62
8/12/2022 2:45:00 AM 19.54 67.172 0.1 7.11 2.63 7.64
8/12/2022 3:00:00 AM 19.45 67.01 0.1 7.07 2.5 7.66
8/12/2022 3:15:00 AM 19.33 66.794 0.1 7.07 2.63 7.68
8/12/2022 3:30:00 AM 19.24 66.632 0.1 7.1 2.5 7.7
8/12/2022 3:45:00 AM 19.14 66.452 0.1 7.07 2.5 7.74
8/12/2022 4:00:00 AM 19.06 66.308 0.101 7.1 2.51 7.77
8/12/2022 4:15:00 AM 18.93 66.074 0.101 7.1 2.58 7.78
8/12/2022 4:30:00 AM 18.84 65.912 0.101 7.06 2.47 7.81
8/12/2022 4:45:00 AM 18.73 65.714 0.101 7.07 2.56 7.82
8/12/2022 5:00:00 AM 18.63 65.534 0.101 7.07 2.43 7.84
8/12/2022 5:15:00 AM 18.54 65.372 0.101 7.06 2.46 7.87
8/12/2022 5:30:00 AM 18.45 65.21 0.101 7.05 2.58 7.91
8/12/2022 5:45:00 AM 18.35 65.03 0.101 7.05 2.6 7.93
8/12/2022 6:00:00 AM 18.27 64.886 0.101 7.1 2.53 7.96
8/12/2022 6:15:00 AM 18.2 64.76 0.101 7.09 2.53 8
8/12/2022 6:30:00 AM 18.11 64.598 0.101 7.1 2.75 8.03
8/12/2022 6:45:00 AM 18.04 64.472 0.101 7.1 2.52 8.08
8/12/2022 7:00:00 AM 17.98 64.364 0.101 7.08 2.45 8.15
8/12/2022 7:15:00 AM 17.9 64.22 0.101 7.08 2.46 8.21
8/12/2022 7:30:00 AM 17.86 64.148 0.101 7.11 2.56 8.31
8/12/2022 7:45:00 AM 17.89 64.202 0.101 7.13 2.46 8.5
8/12/2022 8:00:00 AM 17.94 64.292 0.101 7.14 2.39 8.59
8/12/2022 8:15:00 AM 17.95 64.31 0.101 7.18 2.37 8.66
8/12/2022 8:30:00 AM 17.99 64.382 0.1 7.18 2.35 8.74
8/12/2022 8:45:00 AM 18.03 64.454 0.101 7.19 2.33 8.8
8/12/2022 9:00:00 AM 18.1 64.58 0.101 7.25 2.34 8.87
8/12/2022 9:15:00 AM 18.17 64.706 0.101 7.25 2.3 8.94
8/12/2022 9:30:00 AM 18.29 64.922 0.1 7.26 2.48 8.99
8/12/2022 9:45:00 AM 18.5 65.3 0.1 7.29 2.28 9.09
8/12/2022 10:00:00 AM 18.67 65.606 0.1 7.32 2.31 9.13
8/12/2022 10:15:00 AM 18.85 65.93 0.1 7.33 2.38 9.17
8/12/2022 10:30:00 AM 19.05 66.29 0.099 7.38 2.4 9.26
8/12/2022 10:45:00 AM 19.28 66.704 0.099 7.42 2.23 9.31
8/12/2022 11:00:00 AM 19.48 67.064 0.099 7.42 2.26 9.33
8/12/2022 11:15:00 AM 19.87 67.766 0.099 7.44 2.33 9.37
8/12/2022 11:30:00 AM 20.15 68.27 0.098 7.52 2.21 9.41
8/12/2022 11:45:00 AM 20.44 68.792 0.098 7.51 2.28 9.44
8/12/2022 12:00:00 PM 20.69 69.242 0.098 7.55 2.23 9.48
8/12/2022 12:15:00 PM 21.06 69.908 0.098 7.59 2.22 9.51
8/12/2022 12:30:00 PM 21.41 70.538 0.097 7.65 2.35 9.49
8/12/2022 12:45:00 PM 21.69 71.042 0.097 7.68 2.37 9.44
8/12/2022 1:00:00 PM 22.08 71.744 0.097 7.68 2.24 9.47
8/12/2022 1:15:00 PM 22.55 72.59 0.097 7.75 2.35 9.41
8/12/2022 1:30:00 PM 22.93 73.274 0.097 7.8 2.35 9.44
8/12/2022 1:45:00 PM 23.31 73.958 0.097 7.82 2.27 9.35
8/12/2022 2:00:00 PM 23.68 74.624 0.097 7.85 2.34 9.34
8/12/2022 2:15:00 PM 23.88 74.984 0.098 7.89 2.29 9.3
8/12/2022 2:30:00 PM 24.29 75.722 0.098 7.93 2.31 9.24
8/12/2022 2:45:00 PM 24.46 76.028 0.098 7.94 2.25 9.2
8/12/2022 3:00:00 PM 24.5 76.1 0.098 8 2.26 9.17
8/12/2022 3:15:00 PM 24.58 76.244 0.099 8 2.34 9.15
8/12/2022 3:30:00 PM 24.65 76.37 0.099 8.04 2.18 9.12
8/12/2022 3:45:00 PM 24.75 76.55 0.099 8.01 2.17 9.09
8/12/2022 4:00:00 PM 24.8 76.64 0.099 8.06 2.24 9.02
8/12/2022 4:15:00 PM 24.86 76.748 0.099 8.03 2.25 9
8/12/2022 4:30:00 PM 24.95 76.91 0.099 8.08 2.22 8.98
8/12/2022 4:45:00 PM 25.01 77.018 0.1 8.08 2.26 8.97
8/12/2022 5:00:00 PM 25.05 77.09 0.1 8.03 2.4 8.89
8/12/2022 5:15:00 PM 25.04 77.07201 0.1 8.02 2.31 8.88
8/12/2022 5:30:00 PM 24.9 76.82 0.1 8.07 2.24 8.88
8/12/2022 5:45:00 PM 24.67 76.406 0.1 8.03 2.31 8.8
8/12/2022 6:00:00 PM 24.28 75.704 0.1 7.93 2.25 8.68
8/12/2022 6:15:00 PM 23.78 74.804 0.1 7.83 2.27 8.51
8/12/2022 6:30:00 PM 23.53 74.354 0.101 7.75 2.4 8.39
8/12/2022 6:45:00 PM 23.32 73.976 0.101 7.69 2.37 8.32
8/12/2022 7:00:00 PM 23.06 73.508 0.101 7.57 2.47 8.19
8/12/2022 7:15:00 PM 22.83 73.094 0.101 7.59 2.39 8.08
8/12/2022 7:30:00 PM 22.64 72.752 0.101 7.5 2.32 7.96
8/12/2022 7:45:00 PM 22.41 72.338 0.101 7.51 2.31 7.93
8/12/2022 8:00:00 PM 22.18 71.924 0.102 7.45 2.25 7.86
8/12/2022 8:15:00 PM 21.97 71.546 0.102 7.42 2.52 7.81
8/12/2022 8:30:00 PM 21.75 71.15 0.102 7.4 2.33 7.76
8/12/2022 8:45:00 PM 21.56 70.808 0.102 7.38 2.57 7.7
8/12/2022 9:00:00 PM 21.39 70.502 0.102 7.35 2.39 7.66
8/12/2022 9:15:00 PM 21.23 70.214 0.102 7.37 2.53 7.63
8/12/2022 9:30:00 PM 21.08 69.944 0.103 7.33 2.48 7.62
8/12/2022 9:45:00 PM 20.93 69.674 0.103 7.3 2.52 7.61
8/12/2022 10:00:00 PM 20.77 69.386 0.103 7.28 2.43 7.6
8/12/2022 10:15:00 PM 20.6 69.08 0.103 7.27 2.43 7.6
8/12/2022 10:30:00 PM 20.45 68.81 0.103 7.3 2.48 7.59
8/12/2022 10:45:00 PM 20.32 68.576 0.103 7.23 2.57 7.59
8/12/2022 11:00:00 PM 20.16 68.288 0.103 7.26 2.4 7.6
8/12/2022 11:15:00 PM 20.01 68.018 0.103 7.22 2.57 7.61
8/12/2022 11:30:00 PM 19.86 67.748 0.103 7.24 2.35 7.62
8/12/2022 11:45:00 PM 19.71 67.478 0.103 7.19 2.38 7.64
8/13/2022 12:00:00 AM 19.56 67.208 0.103 7.24 2.47 7.67
8/13/2022 12:15:00 AM 19.4 66.92 0.103 7.21 2.4 7.68
8/13/2022 12:30:00 AM 19.26 66.668 0.103 7.15 2.39 7.71
8/13/2022 12:45:00 AM 19.12 66.416 0.103 7.19 2.52 7.73
8/13/2022 1:00:00 AM 18.97 66.146 0.103 7.2 2.46 7.76
8/13/2022 1:15:00 AM 18.83 65.894 0.103 7.13 2.38 7.8
8/13/2022 1:30:00 AM 18.68 65.624 0.103 7.19 2.39 7.82
8/13/2022 1:45:00 AM 18.56 65.408 0.103 7.12 2.67 7.86
8/13/2022 2:00:00 AM 18.43 65.174 0.102 7.14 2.44 7.89
8/13/2022 2:15:00 AM 18.31 64.958 0.102 7.15 2.43 7.92
8/13/2022 2:30:00 AM 18.18 64.724 0.102 7.12 2.4 7.94
8/13/2022 2:45:00 AM 18.03 64.454 0.102 7.16 2.42 7.96
8/13/2022 3:00:00 AM 17.89 64.202 0.102 7.15 2.51 7.99
8/13/2022 3:15:00 AM 17.76 63.968 0.102 7.16 2.44 8.03
8/13/2022 3:30:00 AM 17.65 63.77 0.102 7.08 2.34 8.06
8/13/2022 3:45:00 AM 17.53 63.554 0.101 7.15 2.39 8.09
8/13/2022 4:00:00 AM 17.41 63.338 0.101 7.08 2.48 8.13
8/13/2022 4:15:00 AM 17.3 63.14 0.101 7.09 2.32 8.17
8/13/2022 4:30:00 AM 17.18 62.924 0.101 7.11 2.42 8.2
8/13/2022 4:45:00 AM 17.05 62.69 0.101 7.09 2.34 8.23
8/13/2022 5:00:00 AM 16.94 62.492 0.101 7.09 2.37 8.26
8/13/2022 5:15:00 AM 16.84 62.312 0.101 7.1 2.56 8.29
8/13/2022 5:30:00 AM 16.75 62.15 0.101 7.14 2.54 8.32
8/13/2022 5:45:00 AM 16.63 61.934 0.101 7.09 2.36 8.33
8/13/2022 6:00:00 AM 16.56 61.808 0.101 7.1 2.7 8.36
8/13/2022 6:15:00 AM 16.48 61.664 0.101 7.12 2.51 8.4
8/13/2022 6:30:00 AM 16.39 61.502 0.101 7.1 2.36 8.44
8/13/2022 6:45:00 AM 16.31 61.358 0.101 7.1 2.44 8.48
8/13/2022 7:00:00 AM 16.24 61.232 0.101 7.11 2.43 8.55
8/13/2022 7:15:00 AM 16.15 61.07 0.101 7.13 2.43 8.63
8/13/2022 7:30:00 AM 16.09 60.962 0.101 7.13 2.25 8.72
8/13/2022 7:45:00 AM 16.05 60.89 0.101 7.17 2.35 8.85
8/13/2022 8:00:00 AM 16.08 60.944 0.1 7.21 2.46 9.03
8/13/2022 8:15:00 AM 16.12 61.016 0.1 7.2 2.35 9.12
8/13/2022 8:30:00 AM 16.13 61.034 0.1 7.24 2.24 9.19
8/13/2022 8:45:00 AM 16.14 61.052 0.1 7.22 2.23 9.26
8/13/2022 9:00:00 AM 16.18 61.124 0.1 7.25 2.27 9.33
8/13/2022 9:15:00 AM 16.25 61.25 0.1 7.31 2.25 9.39
8/13/2022 9:30:00 AM 16.34 61.412 0.1 7.29 2.29 9.45
8/13/2022 9:45:00 AM 16.55 61.79 0.099 7.33 2.29 9.51
8/13/2022 10:00:00 AM 16.74 62.132 0.099 7.34 2.22 9.55
8/13/2022 10:15:00 AM 16.96 62.528 0.099 7.37 2.17 9.57
8/13/2022 10:30:00 AM 17.22 62.996 0.099 7.38 2.16 9.6
8/13/2022 10:45:00 AM 17.52 63.536 0.099 7.42 2.22 9.64
8/13/2022 11:00:00 AM 17.77 63.986 0.098 7.46 2.23 9.66
8/13/2022 11:15:00 AM 18.16 64.688 0.098 7.43 2.24 9.68
8/13/2022 11:30:00 AM 18.56 65.408 0.098 7.5 2.2 9.7
8/13/2022 11:45:00 AM 18.89 66.002 0.098 7.5 2.26 9.71
8/13/2022 12:00:00 PM 19.2 66.56 0.097 7.55 2.25 9.74
8/13/2022 12:15:00 PM 19.57 67.226 0.097 7.54 5.07 9.74
8/13/2022 12:30:00 PM 19.93 67.874 0.097 7.58 2.23 9.73
8/13/2022 12:45:00 PM 20.21 68.378 0.097 7.61 2.24 9.7
8/13/2022 1:00:00 PM 20.47 68.846 0.096 7.64 2.21 9.68
8/13/2022 1:15:00 PM 21.02 69.836 0.096 7.67 2.18 9.67
8/13/2022 1:30:00 PM 21.46 70.628 0.096 7.74 2.15 9.63
8/13/2022 1:45:00 PM 21.87 71.366 0.096 7.71 3.35 9.56
8/13/2022 2:00:00 PM 22.18 71.924 0.096 7.76 3.19 9.51
8/13/2022 2:15:00 PM 22.59 72.662 0.096 7.78 2.12 9.48
8/13/2022 2:30:00 PM 23.04 73.472 0.096 7.82 2.21 9.47
8/13/2022 2:45:00 PM 23.36 74.048 0.096 7.85 2.23 9.41
8/13/2022 3:00:00 PM 23.62 74.516 0.096 7.86 2.26 9.36
8/13/2022 3:15:00 PM 23.84 74.912 0.097 7.9 2.28 9.31
8/13/2022 3:30:00 PM 23.85 74.93 0.097 7.9 2.26 9.19
8/13/2022 3:45:00 PM 23.88 74.984 0.097 7.88 2.14 9.12
8/13/2022 4:00:00 PM 24.1 75.38 0.098 7.89 3.7 9.09
8/13/2022 4:15:00 PM 24.15 75.47 0.098 7.89 2.22 9.04
8/13/2022 4:30:00 PM 24.35 75.83 0.098 7.96 2.27 9.03
8/13/2022 4:45:00 PM 24.33 75.794 0.098 7.94 2.54 9.04
8/13/2022 5:00:00 PM 24.39 75.902 0.098 8 2.33 9.08
8/13/2022 5:15:00 PM 24.33 75.794 0.099 8.01 2.28 9.03
8/13/2022 5:30:00 PM 24.29 75.722 0.099 7.99 2.23 8.96
8/13/2022 5:45:00 PM 24.27 75.686 0.099 8.02 2.28 8.97
8/13/2022 6:00:00 PM 24.02 75.236 0.099 7.95 2.2 8.9
8/13/2022 6:15:00 PM 23.76 74.768 0.099 7.9 2.24 8.83
8/13/2022 6:30:00 PM 23.57 74.426 0.1 7.88 2.36 8.8
8/13/2022 6:45:00 PM 23.36 74.048 0.1 7.82 2.29 8.74
8/13/2022 7:00:00 PM 23.14 73.652 0.1 7.75 2.22 8.63
8/13/2022 7:15:00 PM 22.91 73.238 0.1 7.69 2.34 8.51
8/13/2022 7:30:00 PM 22.71 72.878 0.1 7.68 2.4 8.41
8/13/2022 7:45:00 PM 22.52 72.536 0.101 7.61 2.49 8.31
8/13/2022 8:00:00 PM 22.33 72.194 0.101 7.58 2.35 8.19
8/13/2022 8:15:00 PM 22.13 71.834 0.101 7.5 2.41 8.08
8/13/2022 8:30:00 PM 21.93 71.474 0.101 7.47 2.44 7.97
8/13/2022 8:45:00 PM 21.74 71.132 0.101 7.48 2.47 7.87
8/13/2022 9:00:00 PM 21.59 70.862 0.102 7.39 2.44 7.79
8/13/2022 9:15:00 PM 21.47 70.646 0.102 7.37 2.71 7.7
8/13/2022 9:30:00 PM 21.34 70.412 0.102 7.34 2.57 7.61
8/13/2022 9:45:00 PM 21.2 70.16 0.102 7.36 2.52 7.56
8/13/2022 10:00:00 PM 21.06 69.908 0.102 7.3 2.5 7.53
8/13/2022 10:15:00 PM 20.96 69.728 0.102 7.28 2.55 7.49
8/13/2022 10:30:00 PM 20.83 69.494 0.102 7.28 2.44 7.47
8/13/2022 10:45:00 PM 20.71 69.278 0.102 7.28 2.59 7.46
8/13/2022 11:00:00 PM 20.59 69.062 0.102 7.23 3.16 7.45
8/13/2022 11:15:00 PM 20.45 68.81 0.102 7.22 2.57 7.42
8/13/2022 11:30:00 PM 20.34 68.612 0.103 7.25 2.41 7.4
8/13/2022 11:45:00 PM 20.22 68.396 0.103 7.24 2.7 7.4
8/14/2022 12:00:00 AM 20.09 68.162 0.103 7.23 2.42 7.43
8/14/2022 12:15:00 AM 19.95 67.91 0.103 7.17 2.42 7.43
8/14/2022 12:30:00 AM 19.83 67.694 0.103 7.17 2.82 7.42
8/14/2022 12:45:00 AM 19.73 67.514 0.104 7.16 2.38 7.46
8/14/2022 1:00:00 AM 19.63 67.334 0.104 7.17 2.37 7.45
8/14/2022 1:15:00 AM 19.53 67.154 0.104 7.2 2.48 7.49
8/14/2022 1:30:00 AM 19.44 66.992 0.104 7.14 2.4 7.49
8/14/2022 1:45:00 AM 19.35 66.83 0.104 7.18 2.44 7.5
8/14/2022 2:00:00 AM 19.27 66.686 0.104 7.12 2.67 7.5
8/14/2022 2:15:00 AM 19.19 66.542 0.103 7.12 2.56 7.52
8/14/2022 2:30:00 AM 19.11 66.398 0.103 7.11 2.4 7.57
8/14/2022 2:45:00 AM 19.02 66.236 0.103 7.12 2.55 7.53
8/14/2022 3:00:00 AM 18.94 66.092 0.103 7.11 3.02 7.58
8/14/2022 3:15:00 AM 18.81 65.858 0.105 7.1 2.41 7.56
8/14/2022 3:30:00 AM 18.68 65.624 0.105 7.05 8.03 7.5
8/14/2022 3:45:00 AM 18.62 65.516 0.107 7.05 2.22 7.51
8/14/2022 4:00:00 AM 18.54 65.372 0.106 7.09 2.28 7.51
8/14/2022 4:15:00 AM 18.52 65.336 0.105 7.05 2.38 7.6
8/14/2022 4:30:00 AM 18.47 65.246 0.104 7.1 2.34 7.66
8/14/2022 4:45:00 AM 18.41 65.138 0.104 7.06 2.71 7.7
8/14/2022 5:00:00 AM 18.37 65.066 0.103 7.09 2.39 7.7
8/14/2022 5:15:00 AM 18.27 64.886 0.104 7.07 2.51 7.65
8/14/2022 5:30:00 AM 18.18 64.724 0.106 7.06 2.3 7.62
8/14/2022 5:45:00 AM 18.12 64.616 0.104 7.02 2.7 7.6
8/14/2022 6:00:00 AM 18.08 64.544 0.107 7.02 2.66 7.65
8/14/2022 6:15:00 AM 18.02 64.436 0.105 7.05 2.89 7.63
8/14/2022 6:30:00 AM 17.97 64.346 0.105 7.05 2.32 7.67
8/14/2022 6:45:00 AM 17.93 64.274 0.105 7.06 2.46 7.74
8/14/2022 7:00:00 AM 17.92 64.256 0.102 7.09 2.49 7.84
8/14/2022 7:15:00 AM 17.87 64.166 0.103 7.07 2.64 7.91
8/14/2022 7:30:00 AM 17.85 64.13 0.104 7.11 2.57 8
8/14/2022 7:45:00 AM 17.85 64.13 0.104 7.07 2.34 8.13
8/14/2022 8:00:00 AM 17.9 64.22 0.104 7.15 2.78 8.33
8/14/2022 8:15:00 AM 17.94 64.292 0.104 7.16 2.33 8.53
8/14/2022 8:30:00 AM 17.98 64.364 0.105 7.2 2.28 8.65
8/14/2022 8:45:00 AM 18.11 64.598 0.106 7.22 2.43 8.78
8/14/2022 9:00:00 AM 18.19 64.742 0.106 7.24 2.43 8.93
8/14/2022 9:15:00 AM 18.17 64.706 0.107 7.27 2.38 9
8/14/2022 9:30:00 AM 18.16 64.688 0.107 7.28 2.4 9.03
8/14/2022 9:45:00 AM 18.33 64.994 0.107 7.3 2.33 9.03
8/14/2022 10:00:00 AM 18.38 65.084 0.105 7.35 2.22 9.19
8/14/2022 10:15:00 AM 18.55 65.39 0.105 7.35 2.41 9.21
8/14/2022 10:30:00 AM 18.72 65.696 0.105 7.35 2.34 9.23
8/14/2022 10:45:00 AM 18.95 66.11 0.104 7.39 2.33 9.32
8/14/2022 11:00:00 AM 19.22 66.596 0.103 7.41 2.55 9.37
8/14/2022 11:15:00 AM 19.48 67.064 0.103 7.46 2.38 9.45
8/14/2022 11:30:00 AM 19.91 67.838 0.102 7.5 2.19 9.43
8/14/2022 11:45:00 AM 20.23 68.414 0.103 7.5 2.2 9.42
8/14/2022 12:00:00 PM 20.41 68.738 0.101 7.49 2.21 9.42
8/14/2022 12:15:00 PM 20.67 69.206 0.101 7.56 2.34 9.46
8/14/2022 12:30:00 PM 20.99 69.782 0.1 7.56 2.18 9.48
8/14/2022 12:45:00 PM 21.09 69.962 0.1 7.63 2.25 9.53
8/14/2022 1:00:00 PM 21.31 70.358 0.099 7.69 2.31 9.6
8/14/2022 1:15:00 PM 21.44 70.592 0.1 7.63 2.14 9.45
8/14/2022 1:30:00 PM 21.68 71.024 0.099 7.72 2.19 9.49
8/14/2022 1:45:00 PM 21.9 71.42 0.099 7.75 2.27 9.49
8/14/2022 2:00:00 PM 22.26 72.068 0.099 7.82 2.29 9.54
8/14/2022 2:15:00 PM 22.61 72.698 0.098 7.92 2.3 9.61
8/14/2022 2:30:00 PM 22.73 72.914 0.1 7.92 2.17 9.52
8/14/2022 2:45:00 PM 23.04 73.472 0.099 7.99 2.33 9.51
8/14/2022 3:00:00 PM 23.05 73.49 0.099 7.99 2.19 9.44
8/14/2022 3:15:00 PM 23.05 73.49 0.098 8.1 2.29 9.42
8/14/2022 3:30:00 PM 23.09 73.562 0.098 8.17 2.36 9.43
8/14/2022 3:45:00 PM 23.16 73.688 0.099 8.13 2.53 9.41
8/14/2022 4:00:00 PM 23.29 73.922 0.099 8.22 2.21 9.47
8/14/2022 4:15:00 PM 23.35 74.03 0.1 8.15 2.21 9.29
8/14/2022 4:30:00 PM 23.44 74.192 0.1 8.18 2.24 9.23
8/14/2022 4:45:00 PM 23.49 74.282 0.101 8.06 2.1 9.15
8/14/2022 5:00:00 PM 23.67 74.606 0.1 8.19 2.1 9.2
8/14/2022 5:15:00 PM 23.8 74.84 0.1 8.09 2.48 9.04
8/14/2022 5:30:00 PM 23.8 74.84 0.1 7.95 2.21 8.9
8/14/2022 5:45:00 PM 23.85 74.93 0.1 8.03 2.4 8.91
8/14/2022 6:00:00 PM 23.72 74.696 0.1 7.95 2.3 8.8
8/14/2022 6:15:00 PM 23.49 74.282 0.1 7.84 2.35 8.61
8/14/2022 6:30:00 PM 23.3 73.94 0.101 7.73 2.15 8.47
8/14/2022 6:45:00 PM 23.14 73.652 0.102 7.67 2.38 8.34
8/14/2022 7:00:00 PM 22.8 73.04 0.104 7.56 2.35 8.05
8/14/2022 7:15:00 PM 22.62 72.716 0.104 7.48 2.21 7.93
8/14/2022 7:30:00 PM 22.48 72.464 0.104 7.46 2.24 7.82
8/14/2022 7:45:00 PM 22.38 72.284 0.103 7.43 2.3 7.77
8/14/2022 8:00:00 PM 22.28 72.104 0.103 7.42 2.31 7.68
8/14/2022 8:15:00 PM 22.16 71.888 0.104 7.38 2.53 7.6
8/14/2022 8:30:00 PM 22.03 71.654 0.104 7.34 2.38 7.48
8/14/2022 8:45:00 PM 21.88 71.384 0.105 7.29 2.35 7.36
8/14/2022 9:00:00 PM 21.77 71.186 0.106 7.27 2.55 7.24
8/14/2022 9:15:00 PM 21.67 71.006 0.106 7.29 2.34 7.21
8/14/2022 9:30:00 PM 21.54 70.772 0.107 7.2 2.37 7.09
8/14/2022 9:45:00 PM 21.42 70.556 0.108 7.21 2.34 7.06
8/14/2022 10:00:00 PM 21.31 70.358 0.109 7.15 2.41 6.97
8/14/2022 10:15:00 PM 21.23 70.214 0.108 7.2 2.83 6.99
8/14/2022 10:30:00 PM 21.14 70.052 0.108 7.17 2.67 6.94
8/14/2022 10:45:00 PM 21.06 69.908 0.108 7.15 2.61 6.96
8/14/2022 11:00:00 PM 21.01 69.818 0.108 7.13 2.31 7.01
8/14/2022 11:15:00 PM 20.9 69.62 0.109 7.15 2.42 6.93
8/14/2022 11:30:00 PM 20.86 69.548 0.108 7.11 2.57 6.93
8/14/2022 11:45:00 PM 20.77 69.386 0.108 7.14 2.68 6.98
8/15/2022 12:00:00 AM 20.65 69.17 0.111 7.13 2.51 6.92
8/15/2022 12:15:00 AM 20.59 69.062 0.109 7.15 2.73 7
8/15/2022 12:30:00 AM 20.52 68.936 0.109 7.1 2.51 6.98
8/15/2022 12:45:00 AM 20.47 68.846 0.109 7.13 2.69 7.05
8/15/2022 1:00:00 AM 20.38 68.684 0.11 7.11 2.37 7.02
8/15/2022 1:15:00 AM 20.33 68.594 0.109 7.07 2.55 7.01
8/15/2022 1:30:00 AM 20.26 68.468 0.11 7.06 2.46 6.99
8/15/2022 1:45:00 AM 20.19 68.342 0.111 7.08 4.09 7.01
8/15/2022 2:00:00 AM 20.12 68.216 0.111 7.09 2.57 6.98
8/15/2022 2:15:00 AM 20.05 68.09 0.111 7.03 2.52 7.02
8/15/2022 2:30:00 AM 19.98 67.964 0.111 7.07 2.34 6.97
8/15/2022 2:45:00 AM 19.96 67.92799 0.109 7.04 2.64 7.04
8/15/2022 3:00:00 AM 19.9 67.82 0.111 7.04 2.43 7.01
8/15/2022 3:15:00 AM 19.85 67.73 0.11 7.01 2.57 6.97
8/15/2022 3:30:00 AM 19.8 67.64 0.109 7.06 2.64 7.04
8/15/2022 3:45:00 AM 19.75 67.55 0.109 7.01 2.76 7.06
8/15/2022 4:00:00 AM 19.69 67.442 0.11 7.04 2.44 7
8/15/2022 4:15:00 AM 19.64 67.352 0.109 7 2.42 7.01
8/15/2022 4:30:00 AM 19.62 67.316 0.108 7.04 2.47 7.06
8/15/2022 4:45:00 AM 19.55 67.19 0.108 7.01 2.38 7.06
8/15/2022 5:00:00 AM 19.54 67.172 0.107 7.04 2.46 7.18
8/15/2022 5:15:00 AM 19.48 67.064 0.107 7.03 2.66 7.17
8/15/2022 5:30:00 AM 19.43 66.974 0.105 7.06 2.82 7.23
8/15/2022 5:45:00 AM 19.36 66.848 0.106 7.01 2.57 7.24
8/15/2022 6:00:00 AM 19.36 66.848 0.103 7.06 2.61 7.39
8/15/2022 6:15:00 AM 19.29 66.722 0.104 7.07 2.67 7.39
8/15/2022 6:30:00 AM 19.24 66.632 0.103 7.1 2.58 7.44
8/15/2022 6:45:00 AM 19.18 66.524 0.103 7.11 2.78 7.47
8/15/2022 7:00:00 AM 19.14 66.452 0.103 7.09 2.6 7.57
8/15/2022 7:15:00 AM 19.11 66.398 0.102 7.08 2.5 7.64
8/15/2022 7:30:00 AM 19.08 66.344 0.102 7.14 2.47 7.72
8/15/2022 7:45:00 AM 19.08 66.344 0.102 7.11 2.48 7.86
8/15/2022 8:00:00 AM 19.09 66.362 0.102 7.16 2.55 8.01
8/15/2022 8:15:00 AM 19.11 66.398 0.102 7.18 2.39 8.15
8/15/2022 8:30:00 AM 19.11 66.398 0.102 7.17 2.48 8.26
8/15/2022 8:45:00 AM 19.12 66.416 0.102 7.2 2.44 8.34
8/15/2022 9:00:00 AM 19.18 66.524 0.101 7.23 2.45 8.49
8/15/2022 9:15:00 AM 19.28 66.704 0.101 7.24 2.46 8.66
8/15/2022 9:30:00 AM 19.39 66.902 0.101 7.29 2.49 8.8
8/15/2022 9:45:00 AM 19.51 67.118 0.101 7.28 3.32 8.95
8/15/2022 10:00:00 AM 19.62 67.316 0.1 7.32 2.44 9.05
8/15/2022 10:15:00 AM 19.68 67.424 0.1 7.33 2.4 9.1
8/15/2022 10:30:00 AM 19.69 67.442 0.1 7.35 2.54 9.05
8/15/2022 10:45:00 AM 19.71 67.478 0.1 7.37 2.41 9.05
8/15/2022 11:00:00 AM 19.72 67.496 0.1 7.37 2.26 9.11
8/15/2022 11:15:00 AM 19.7 67.46 0.1 7.41 2.35 9.08
8/15/2022 11:30:00 AM 19.69 67.442 0.1 7.39 2.3 9.08
8/15/2022 11:45:00 AM 19.63 67.334 0.103 7.39 2.25 9.03
8/15/2022 12:00:00 PM 19.62 67.316 0.1 7.41 2.32 9.01
8/15/2022 12:15:00 PM 19.58 67.244 0.1 7.37 2.97 8.92
8/15/2022 12:30:00 PM 19.56 67.208 0.101 7.41 2.2 8.93
8/15/2022 12:45:00 PM 19.57 67.226 0.1 7.38 2.23 8.98
8/15/2022 1:00:00 PM 19.63 67.334 0.1 7.4 2.33 9.09
8/15/2022 1:15:00 PM 19.74 67.532 0.1 7.43 2.46 9.19
8/15/2022 1:30:00 PM 19.79 67.622 0.1 7.42 2.54 9.14
8/15/2022 1:45:00 PM 19.89 67.802 0.099 7.44 2.2 9.21
8/15/2022 2:00:00 PM 20.04 68.07201 0.099 7.53 2.42 9.42
8/15/2022 2:15:00 PM 20.13 68.234 0.101 7.56 2.33 9.43
8/15/2022 2:30:00 PM 20.19 68.342 0.099 7.53 2.22 9.42
8/15/2022 2:45:00 PM 20.2 68.36 0.1 7.53 2.28 9.37
8/15/2022 3:00:00 PM 20.28 68.504 0.099 7.62 2.48 9.54
8/15/2022 3:15:00 PM 20.42 68.756 0.098 7.74 2.36 9.68
8/15/2022 3:30:00 PM 20.53 68.954 0.099 7.79 2.3 9.7
8/15/2022 3:45:00 PM 20.66 69.188 0.099 7.83 2.32 9.74
8/15/2022 4:00:00 PM 20.77 69.386 0.099 7.83 2.15 9.72
8/15/2022 4:15:00 PM 20.78 69.404 0.099 7.83 2.33 9.61
8/15/2022 4:30:00 PM 20.84 69.512 0.099 7.94 2.25 9.68
8/15/2022 4:45:00 PM 20.9 69.62 0.1 7.92 2.33 9.72
8/15/2022 5:00:00 PM 20.85 69.53 0.1 7.94 2.25 9.57
8/15/2022 5:15:00 PM 20.8 69.44 0.1 7.91 2.22 9.53
8/15/2022 5:30:00 PM 20.72 69.296 0.101 7.87 2.29 9.38
8/15/2022 5:45:00 PM 20.65 69.17 0.101 7.79 2.18 9.31
8/15/2022 6:00:00 PM 20.58 69.044 0.102 7.75 2.22 9.23
8/15/2022 6:15:00 PM 20.52 68.936 0.102 7.7 2.17 9.08
8/15/2022 6:30:00 PM 20.44 68.792 0.102 7.67 2.13 8.97
8/15/2022 6:45:00 PM 20.39 68.702 0.102 7.61 2.19 8.88
8/15/2022 7:00:00 PM 20.3 68.54 0.102 7.58 2.11 8.74
8/15/2022 7:15:00 PM 20.26 68.468 0.103 7.55 2.26 8.65
8/15/2022 7:30:00 PM 20.2 68.36 0.103 7.49 2.24 8.55
8/15/2022 7:45:00 PM 20.14 68.252 0.103 7.45 2.28 8.43
8/15/2022 8:00:00 PM 20.06 68.108 0.103 7.42 2.45 8.33
8/15/2022 8:15:00 PM 19.97 67.946 0.104 7.39 2.35 8.22
8/15/2022 8:30:00 PM 19.9 67.82 0.104 7.38 3.06 8.14
8/15/2022 8:45:00 PM 19.84 67.712 0.104 7.34 2.33 8.06
8/15/2022 9:00:00 PM 19.78 67.604 0.104 7.33 2.46 8
8/15/2022 9:15:00 PM 19.71 67.478 0.104 7.3 2.39 7.96
8/15/2022 9:30:00 PM 19.64 67.352 0.105 7.3 2.48 7.89
8/15/2022 9:45:00 PM 19.57 67.226 0.105 7.27 3.02 7.85
8/15/2022 10:00:00 PM 19.5 67.1 0.105 7.26 2.48 7.81
8/15/2022 10:15:00 PM 19.42 66.956 0.105 7.24 2.38 7.8
8/15/2022 10:30:00 PM 19.35 66.83 0.105 7.25 2.44 7.77
8/15/2022 10:45:00 PM 19.29 66.722 0.105 7.22 2.35 7.76
8/15/2022 11:00:00 PM 19.22 66.596 0.106 7.21 2.36 7.76
8/15/2022 11:15:00 PM 19.15 66.47 0.106 7.24 2.37 7.74
8/15/2022 11:30:00 PM 19.08 66.344 0.106 7.19 2.37 7.71
8/15/2022 11:45:00 PM 19.02 66.236 0.106 7.21 2.47 7.74
8/16/2022 12:00:00 AM 18.95 66.11 0.106 7.17 2.4 7.73
8/16/2022 12:15:00 AM 18.88 65.984 0.106 7.22 2.56 7.75
8/16/2022 12:30:00 AM 18.81 65.858 0.107 7.16 2.45 7.74
8/16/2022 12:45:00 AM 18.76 65.768 0.106 7.16 2.78 7.75
8/16/2022 1:00:00 AM 18.7 65.66 0.106 7.16 2.4 7.75
8/16/2022 1:15:00 AM 18.65 65.57 0.106 7.15 2.46 7.78
8/16/2022 1:30:00 AM 18.6 65.48 0.106 7.15 2.48 7.79
8/16/2022 1:45:00 AM 18.56 65.408 0.106 7.16 2.4 7.79
8/16/2022 2:00:00 AM 18.51 65.318 0.106 7.14 2.47 7.8
8/16/2022 2:15:00 AM 18.47 65.246 0.105 7.18 2.44 7.8
8/16/2022 2:30:00 AM 18.44 65.192 0.105 7.13 2.48 7.81
8/16/2022 2:45:00 AM 18.4 65.12 0.105 7.17 2.46 7.83
8/16/2022 3:00:00 AM 18.36 65.048 0.104 7.13 2.75 7.83
8/16/2022 3:15:00 AM 18.33 64.994 0.104 7.12 2.6 7.81
8/16/2022 3:30:00 AM 18.28 64.904 0.104 7.11 3.58 7.81
8/16/2022 3:45:00 AM 18.13 64.634 0.12 6.98 3.21 7.43
8/16/2022 4:00:00 AM 18.16 64.688 0.104 7.06 2.99 7.72
8/16/2022 4:15:00 AM 18.13 64.634 0.102 7.08 2.78 7.77
8/16/2022 4:30:00 AM 18.12 64.616 0.101 7.08 2.91 7.84
8/16/2022 4:45:00 AM 18.13 64.634 0.101 7.12 2.67 7.8
8/16/2022 5:00:00 AM 18.11 64.598 0.1 7.11 3.26 7.83
8/16/2022 5:15:00 AM 18.07 64.526 0.1 7.09 3.28 7.84
8/16/2022 5:30:00 AM 18.02 64.436 0.102 7.07 3.12 7.75
8/16/2022 5:45:00 AM 18 64.4 0.101 7.04 3.27 7.79
8/16/2022 6:00:00 AM 18 64.4 0.109 7.04 3.19 7.79
8/16/2022 6:15:00 AM 17.98 64.364 0.116 7.08 3.12 7.78
8/16/2022 6:30:00 AM 17.98 64.364 0.108 7.07 2.79 7.79
8/16/2022 6:45:00 AM 17.95 64.31 0.107 7.08 3.05 7.81
8/16/2022 7:00:00 AM 17.94 64.292 0.104 7.06 3.12 7.83
8/16/2022 7:15:00 AM 17.93 64.274 0.103 7.1 3.22 7.89
8/16/2022 7:30:00 AM 17.93 64.274 0.103 7.09 2.92 7.93
8/16/2022 7:45:00 AM 17.91 64.238 0.105 7.05 2.93 7.91
8/16/2022 8:00:00 AM 17.94 64.292 0.104 7.1 2.62 8.06
8/16/2022 8:15:00 AM 17.96 64.328 0.109 7.08 2.56 8.16
8/16/2022 8:30:00 AM 18 64.4 0.105 7.09 2.54 8.18
8/16/2022 8:45:00 AM 18.03 64.454 0.105 7.17 2.45 8.42
8/16/2022 9:00:00 AM 18.09 64.562 0.102 7.13 2.67 8.54
8/16/2022 9:15:00 AM 18.14 64.652 0.102 7.17 2.78 8.65
8/16/2022 9:30:00 AM 18.2 64.76 0.101 7.24 2.51 8.8
8/16/2022 9:45:00 AM 18.22 64.796 0.103 7.21 2.49 8.8
8/16/2022 10:00:00 AM 18.26 64.868 0.102 7.28 2.43 8.9
8/16/2022 10:15:00 AM 18.3 64.94 0.102 7.28 2.39 8.95
8/16/2022 10:30:00 AM 18.33 64.994 0.101 7.3 2.53 9.02
8/16/2022 10:45:00 AM 18.36 65.048 0.102 7.26 2.51 9.02
8/16/2022 11:00:00 AM 18.42 65.156 0.101 7.31 2.45 9.11
8/16/2022 11:15:00 AM 18.51 65.318 0.1 7.32 2.38 9.22
8/16/2022 11:30:00 AM 18.65 65.57 0.1 7.37 2.37 9.37
8/16/2022 11:45:00 AM 18.77 65.786 0.1 7.4 2.27 9.43
8/16/2022 12:00:00 PM 18.87 65.966 0.103 7.4 2.49 9.42
8/16/2022 12:15:00 PM 18.96 66.128 0.101 7.5 2.3 9.55
8/16/2022 12:30:00 PM 19.02 66.236 0.1 7.44 2.92 9.52
8/16/2022 12:45:00 PM 19.05 66.29 0.102 7.51 2.27 9.53
8/16/2022 1:00:00 PM 19.18 66.524 0.101 7.51 2.37 9.66
8/16/2022 1:15:00 PM 19.33 66.794 0.101 7.51 2.35 9.63
8/16/2022 1:30:00 PM 19.55 67.19 0.103 7.56 2.38 9.69
8/16/2022 1:45:00 PM 20.08 68.144 0.104 7.59 2.29 9.66
8/16/2022 2:00:00 PM 20.52 68.936 0.105 7.57 2.32 9.62
8/16/2022 2:15:00 PM 20.9 69.62 0.105 7.56 2.26 9.59
8/16/2022 2:30:00 PM 21.25 70.25 0.105 7.6 2.45 9.58
8/16/2022 2:45:00 PM 21.6 70.88 0.106 7.53 2.2 9.44
8/16/2022 3:00:00 PM 21.84 71.312 0.104 7.56 2.34 9.4
8/16/2022 3:15:00 PM 21.74 71.132 0.106 7.56 2.54 9.24
8/16/2022 3:30:00 PM 21.43 70.574 0.105 7.47 3.99 8.93
8/16/2022 3:45:00 PM 21.26 70.268 0.466 8.01 205.39 8.45
8/16/2022 4:00:00 PM 21.07 69.926 0.179 7.81 25.11 8.54
8/16/2022 4:15:00 PM 20.99 69.782 0.121 7.67 4.82 8.85
8/16/2022 4:30:00 PM 20.94 69.692 0.107 7.65 3.05 8.86
8/16/2022 4:45:00 PM 20.91 69.638 0.108 7.51 2.71 8.69
8/16/2022 5:00:00 PM 20.89 69.602 0.111 7.38 2.72 8.46
8/16/2022 5:15:00 PM 21.11 69.998 0.106 7.42 4.56 8.63
8/16/2022 5:30:00 PM 21.2 70.16 0.104 7.4 4.18 8.7
8/16/2022 5:45:00 PM 21.07 69.926 0.103 7.46 6.23 8.89
8/16/2022 6:00:00 PM 20.9 69.62 0.101 7.5 4.77 8.85
8/16/2022 6:15:00 PM 19.33 66.794 0.132 8.04 138.09 9.08
8/16/2022 6:30:00 PM 19.91 67.838 0.097 7.7 12.18 8.77
8/16/2022 6:45:00 PM 19.59 67.262 0.096 7.59 12.14 8.72
8/16/2022 7:00:00 PM 19.46 67.028 0.094 7.5 12.2 8.63
8/16/2022 7:15:00 PM 19.28 66.704 0.1 7.45 12.52 8.6
8/16/2022 7:30:00 PM 19.08 66.344 0.098 7.39 17.24 8.59
8/16/2022 7:45:00 PM 18.98 66.164 0.098 7.34 23.75 8.59
8/16/2022 8:00:00 PM 18.63 65.534 0.1 7.31 19.55 8.64
8/16/2022 8:15:00 PM 18.35 65.03 0.097 7.26 17.79 8.67
8/16/2022 8:30:00 PM 18.16 64.688 0.097 7.23 18.07 8.69
8/16/2022 8:45:00 PM 17.96 64.328 0.095 7.19 21.23 8.73
8/16/2022 9:00:00 PM 17.67 63.806 0.09 7.14 26.46 8.79
8/16/2022 9:15:00 PM 17.34 63.212 0.085 7.06 28.88 8.86
8/16/2022 9:30:00 PM 17.03 62.654 0.082 7.01 27.74 8.93
8/16/2022 9:45:00 PM 16.81 62.258 0.082 6.98 26.73 8.98
8/16/2022 10:00:00 PM 16.71 62.078 0.083 6.97 26.2 8.99
8/16/2022 10:15:00 PM 16.7 62.06 0.084 6.96 25.12 8.99
8/16/2022 10:30:00 PM 16.73 62.114 0.085 6.99 24.17 8.97
8/16/2022 10:45:00 PM 16.77 62.186 0.086 7 23.04 8.96
8/16/2022 11:00:00 PM 16.81 62.258 0.087 7.01 22.02 8.96
8/16/2022 11:15:00 PM 16.83 62.294 0.087 7.03 22.5 8.95
8/16/2022 11:30:00 PM 16.85 62.33 0.088 7.05 23.98 8.95
8/16/2022 11:45:00 PM 16.87 62.366 0.088 7.05 28.42 8.94
8/17/2022 12:00:00 AM 16.9 62.42 0.088 7.06 34.23 8.93
8/17/2022 12:15:00 AM 16.91 62.438 0.088 7.06 44.45 8.94
8/17/2022 12:30:00 AM 16.92 62.456 0.085 7.01 58.92 8.95
8/17/2022 12:45:00 AM 16.93 62.474 0.086 7.06 76.06 8.95
8/17/2022 1:00:00 AM 16.96 62.528 0.087 7.06 83.63 8.94
8/17/2022 1:15:00 AM 16.99 62.582 0.088 7.03 76.96 8.94
8/17/2022 1:30:00 AM 17.02 62.636 0.088 7.04 66.92 8.94
8/17/2022 1:45:00 AM 17.02 62.636 0.087 7.08 56.53 8.93
8/17/2022 2:00:00 AM 17.01 62.618 0.087 7.07 47.81 8.95
8/17/2022 2:15:00 AM 17.01 62.618 0.087 7.09 40.72 8.95
8/17/2022 2:30:00 AM 17 62.6 0.087 7.06 37.64 8.94
8/17/2022 2:45:00 AM 17 62.6 0.087 7.06 34.74 8.94
8/17/2022 3:00:00 AM 17 62.6 0.086 7.11 32.69 8.94
8/17/2022 3:15:00 AM 17 62.6 0.086 7.1 30.23 8.94
8/17/2022 3:30:00 AM 17 62.6 0.086 7.08 29.22 8.94
8/17/2022 3:45:00 AM 16.99 62.582 0.086 7.08 27.35 8.94
8/17/2022 4:00:00 AM 16.98 62.564 0.086 7.08 25.78 8.94
8/17/2022 4:15:00 AM 16.97 62.546 0.086 7.08 26.51 8.94
8/17/2022 4:30:00 AM 16.95 62.51 0.085 7.09 25.49 8.94
8/17/2022 4:45:00 AM 16.93 62.474 0.085 7.08 24.96 8.94
8/17/2022 5:00:00 AM 16.92 62.456 0.084 7.09 25.37 8.94
8/17/2022 5:15:00 AM 16.9 62.42 0.085 7.08 24.62 8.95
8/17/2022 5:30:00 AM 16.88 62.384 0.084 7.09 24.88 8.95
8/17/2022 5:45:00 AM 16.87 62.366 0.084 7.09 24.56 8.96
8/17/2022 6:00:00 AM 16.85 62.33 0.085 7.12 25.07 8.95
8/17/2022 6:15:00 AM 16.83 62.294 0.084 7.12 25.42 8.95
8/17/2022 6:30:00 AM 16.81 62.258 0.083 7.09 25.5 8.95
8/17/2022 6:45:00 AM 16.8 62.24 0.083 7.08 26.43 8.95
8/17/2022 7:00:00 AM 16.78 62.204 0.083 7.12 26.98 8.96
8/17/2022 7:15:00 AM 16.77 62.186 0.083 7.09 27.82 8.96
8/17/2022 7:30:00 AM 16.77 62.186 0.083 7.11 28.36 8.98
8/17/2022 7:45:00 AM 16.77 62.186 0.083 7.1 30.24 9
8/17/2022 8:00:00 AM 16.77 62.186 0.083 7.1 30.97 9.02
8/17/2022 8:15:00 AM 16.78 62.204 0.083 7.11 29.45 9.06
8/17/2022 8:30:00 AM 16.8 62.24 0.083 7.13 30.49 9.09
8/17/2022 8:45:00 AM 16.83 62.294 0.083 7.15 30.75 9.12
8/17/2022 9:00:00 AM 16.86 62.348 0.083 7.14 30.87 9.15
8/17/2022 9:15:00 AM 16.91 62.438 0.083 7.16 30.12 9.2
8/17/2022 9:30:00 AM 16.97 62.546 0.083 7.21 30.37 9.25
8/17/2022 9:45:00 AM 17.03 62.654 0.083 7.2 29.49 9.31
8/17/2022 10:00:00 AM 17.12 62.816 0.083 7.25 28.67 9.35
8/17/2022 10:15:00 AM 17.33 63.194 0.083 7.23 28.92 9.43
8/17/2022 10:30:00 AM 17.53 63.554 0.084 7.25 27.02 9.48
8/17/2022 10:45:00 AM 17.68 63.824 0.084 7.28 27.48 9.54
8/17/2022 11:00:00 AM 17.82 64.076 0.084 7.35 25.53 9.59
8/17/2022 11:15:00 AM 17.96 64.328 0.084 7.32 24.98 9.62
8/17/2022 11:30:00 AM 18.08 64.544 0.084 7.36 24.73 9.65
8/17/2022 11:45:00 AM 18.22 64.796 0.084 7.39 24.91 9.66
8/17/2022 12:00:00 PM 18.32 64.976 0.085 7.41 23.5 9.68
8/17/2022 12:15:00 PM 18.44 65.192 0.085 7.44 22.22 9.68
8/17/2022 12:30:00 PM 18.55 65.39 0.085 7.47 21.93 9.69
8/17/2022 12:45:00 PM 18.83 65.894 0.085 7.48 21.86 9.72
8/17/2022 1:00:00 PM 19.13 66.434 0.085 7.5 21.38 9.74
8/17/2022 1:15:00 PM 19.3 66.74 0.085 7.57 20.77 9.76
8/17/2022 1:30:00 PM 19.5 67.1 0.085 7.57 20.02 9.75
8/17/2022 1:45:00 PM 20.03 68.054 0.085 7.6 18.68 9.73
8/17/2022 2:00:00 PM 20.54 68.972 0.086 7.62 18.45 9.7
8/17/2022 2:15:00 PM 20.56 69.008 0.085 7.65 18.67 9.62
8/17/2022 2:30:00 PM 20.69 69.242 0.086 7.64 17.4 9.6
8/17/2022 2:45:00 PM 20.43 68.774 0.086 7.66 17.2 9.46
8/17/2022 3:00:00 PM 20.2 68.36 0.086 7.63 16.28 9.32
8/17/2022 3:15:00 PM 20.02 68.036 0.087 7.59 15.89 9.16
8/17/2022 3:30:00 PM 19.89 67.802 0.087 7.52 15.34 9.02
8/17/2022 3:45:00 PM 19.67 67.406 0.085 7.46 16.53 8.91
8/17/2022 4:00:00 PM 19.62 67.316 0.111 7.49 24.07 8.8
8/17/2022 4:15:00 PM 19.51 67.118 0.11 7.44 23.42 8.74
8/17/2022 4:30:00 PM 19.42 66.956 0.1 7.4 17.53 8.68
8/17/2022 4:45:00 PM 19.28 66.704 0.115 7.42 39.84 8.7
8/17/2022 5:00:00 PM 19.22 66.596 0.098 7.38 24.21 8.67
8/17/2022 5:15:00 PM 19.18 66.524 0.095 7.35 18.48 8.65
8/17/2022 5:30:00 PM 19.16 66.488 0.093 7.33 14.63 8.64
8/17/2022 5:45:00 PM 19.2 66.56 0.076 7.25 68.62 8.67
8/17/2022 6:00:00 PM 18.9 66.02 0.068 7.14 103.08 8.71
8/17/2022 6:15:00 PM 18.5 65.3 0.063 6.98 135.77 8.78
8/17/2022 6:30:00 PM 18.12 64.616 0.058 6.93 251.55 8.85
8/17/2022 6:45:00 PM 17.68 63.824 0.055 6.83 351.12 8.93
8/17/2022 7:00:00 PM 17.34 63.212 0.054 6.83 274.18 9.02
8/17/2022 7:15:00 PM 17.21 62.978 0.06 6.85 189.68 9.06
8/17/2022 7:30:00 PM 17.12 62.816 0.067 6.88 142.51 9.08
8/17/2022 7:45:00 PM 17.06 62.708 0.07 6.92 118.37 9.09
8/17/2022 8:00:00 PM 17.05 62.69 0.071 6.89 103.32 9.1
8/17/2022 8:15:00 PM 17.05 62.69 0.072 6.91 91.62 9.11
8/17/2022 8:30:00 PM 17.05 62.69 0.074 6.88 87.15 9.1
8/17/2022 8:45:00 PM 17.01 62.618 0.074 6.91 94.62 9.11
8/17/2022 9:00:00 PM 16.97 62.546 0.075 6.9 105.01 9.12
8/17/2022 9:15:00 PM 16.93 62.474 0.076 6.91 108.37 9.13
8/17/2022 9:30:00 PM 16.9 62.42 0.076 6.91 109.27 9.14
8/17/2022 9:45:00 PM 16.88 62.384 0.077 6.92 99.09 9.14
8/17/2022 10:00:00 PM 16.85 62.33 0.078 6.96 86.6 9.15
8/17/2022 10:15:00 PM 16.81 62.258 0.078 6.98 76.88 9.16
8/17/2022 10:30:00 PM 16.77 62.186 0.078 6.97 69.03 9.17
8/17/2022 10:45:00 PM 16.73 62.114 0.077 7 64.55 9.17
8/17/2022 11:00:00 PM 16.68 62.024 0.077 6.97 61.02 9.18
8/17/2022 11:15:00 PM 16.64 61.952 0.077 6.97 58.28 9.19
8/17/2022 11:30:00 PM 16.6 61.88 0.077 6.99 54.38 9.2
8/17/2022 11:45:00 PM 16.56 61.808 0.076 6.99 51.64 9.21
8/18/2022 12:00:00 AM 16.51 61.718 0.076 7.02 48.46 9.21
8/18/2022 12:15:00 AM 16.46 61.628 0.075 7 48.06 9.22
8/18/2022 12:30:00 AM 16.43 61.574 0.075 7.01 45.52 9.23
8/18/2022 12:45:00 AM 16.39 61.502 0.075 7.01 44.6 9.24
8/18/2022 1:00:00 AM 16.35 61.43 0.075 7 42.51 9.24
8/18/2022 1:15:00 AM 16.32 61.376 0.075 7 40.79 9.25
8/18/2022 1:30:00 AM 16.28 61.304 0.076 7.03 39.43 9.26
8/18/2022 1:45:00 AM 16.25 61.25 0.076 7.04 37 9.27
8/18/2022 2:00:00 AM 16.22 61.196 0.077 7.05 36.31 9.27
8/18/2022 2:15:00 AM 16.19 61.142 0.077 7.05 34.96 9.27
8/18/2022 2:30:00 AM 16.16 61.088 0.077 7.06 33.98 9.28
8/18/2022 2:45:00 AM 16.13 61.034 0.077 7.06 32.49 9.29
8/18/2022 3:00:00 AM 16.09 60.962 0.077 7.05 32.57 9.29
8/18/2022 3:15:00 AM 16.06 60.908 0.077 7.06 31.69 9.3
8/18/2022 3:30:00 AM 16.02 60.836 0.077 7.05 30.89 9.31
8/18/2022 3:45:00 AM 15.98 60.764 0.077 7.06 30.18 9.32
8/18/2022 4:00:00 AM 15.94 60.692 0.077 7.08 29.16 9.32
8/18/2022 4:15:00 AM 15.9 60.62 0.076 7.09 28.33 9.34
8/18/2022 4:30:00 AM 15.86 60.548 0.076 7.05 28.14 9.34
8/18/2022 4:45:00 AM 15.82 60.476 0.076 7.06 27.69 9.35
8/18/2022 5:00:00 AM 15.79 60.422 0.077 7.04 26.79 9.35
8/18/2022 5:15:00 AM 15.75 60.35 0.077 7.05 25.75 9.36
8/18/2022 5:30:00 AM 15.71 60.278 0.077 7.04 24.97 9.37
8/18/2022 5:45:00 AM 15.67 60.206 0.077 7.04 23.64 9.38
8/18/2022 6:00:00 AM 15.63 60.134 0.078 7.04 23.26 9.39
8/18/2022 6:15:00 AM 15.6 60.08 0.078 7.04 21.38 9.39
8/18/2022 6:30:00 AM 15.56 60.008 0.078 7.04 22.07 9.4
8/18/2022 6:45:00 AM 15.52 59.936 0.079 7.05 21.02 9.41
8/18/2022 7:00:00 AM 15.48 59.864 0.078 7.05 20.41 9.42
8/18/2022 7:15:00 AM 15.45 59.81 0.079 7.07 19.38 9.44
8/18/2022 7:30:00 AM 15.42 59.756 0.079 7.07 18.84 9.47
8/18/2022 7:45:00 AM 15.39 59.702 0.079 7.09 17.92 9.5
8/18/2022 8:00:00 AM 15.38 59.684 0.08 7.08 17.18 9.53
8/18/2022 8:15:00 AM 15.37 59.666 0.081 7.1 16.46 9.57
8/18/2022 8:30:00 AM 15.38 59.684 0.081 7.13 16.21 9.62
8/18/2022 8:45:00 AM 15.41 59.738 0.082 7.15 15.65 9.68
8/18/2022 9:00:00 AM 15.44 59.792 0.082 7.15 14.77 9.73
8/18/2022 9:15:00 AM 15.48 59.864 0.083 7.19 14.45 9.79
8/18/2022 9:30:00 AM 15.53 59.954 0.083 7.2 13.95 9.84
8/18/2022 9:45:00 AM 15.59 60.062 0.083 7.24 13.28 9.87
8/18/2022 10:00:00 AM 15.68 60.224 0.083 7.25 13.22 9.92
8/18/2022 10:15:00 AM 15.81 60.458 0.084 7.28 12.6 9.94
8/18/2022 10:30:00 AM 16 60.8 0.084 7.3 12.4 9.94
8/18/2022 10:45:00 AM 16.22 61.196 0.084 7.31 12.14 9.93
8/18/2022 11:00:00 AM 16.46 61.628 0.084 7.33 11.53 9.92
8/18/2022 11:15:00 AM 16.71 62.078 0.084 7.32 11.43 9.92
8/18/2022 11:30:00 AM 16.98 62.564 0.085 7.36 10.98 9.91
8/18/2022 11:45:00 AM 17.24 63.032 0.085 7.4 10.76 9.9
8/18/2022 12:00:00 PM 17.51 63.518 0.084 7.39 10.6 9.89
8/18/2022 12:15:00 PM 17.79 64.022 0.084 7.43 10.42 9.88
8/18/2022 12:30:00 PM 18.09 64.562 0.085 7.44 10.13 9.86
8/18/2022 12:45:00 PM 18.43 65.174 0.085 7.47 10.1 9.84
8/18/2022 1:00:00 PM 18.52 65.336 0.084 7.51 9.68 9.79
8/18/2022 1:15:00 PM 18.67 65.606 0.084 7.5 9.64 9.74
8/18/2022 1:30:00 PM 19.05 66.29 0.085 7.51 9.77 9.74
8/18/2022 1:45:00 PM 19 66.2 0.084 7.54 9.37 9.68
8/18/2022 2:00:00 PM 19.24 66.632 0.084 7.53 9.23 9.66
8/18/2022 2:15:00 PM 19.63 67.334 0.084 7.56 9.38 9.66
8/18/2022 2:30:00 PM 19.65 67.37 0.083 7.59 9.13 9.63
8/18/2022 2:45:00 PM 19.5 67.1 0.084 7.58 9.01 9.56
8/18/2022 3:00:00 PM 19.72 67.496 0.084 7.58 8.88 9.54
8/18/2022 3:15:00 PM 19.93 67.874 0.084 7.6 8.56 9.53
8/18/2022 3:30:00 PM 20.03 68.054 0.084 7.61 8.83 9.5
8/18/2022 3:45:00 PM 20.17 68.306 0.084 7.62 8.64 9.47
8/18/2022 4:00:00 PM 20.19 68.342 0.084 7.62 8.37 9.42
8/18/2022 4:15:00 PM 20.28 68.504 0.084 7.59 8.37 9.38
8/18/2022 4:30:00 PM 20.34 68.612 0.084 7.62 8.28 9.33
8/18/2022 4:45:00 PM 20.39 68.702 0.084 7.58 8.08 9.3
8/18/2022 5:00:00 PM 20.36 68.648 0.084 7.57 8.2 9.25
8/18/2022 5:15:00 PM 20.34 68.612 0.084 7.56 8.05 9.21
8/18/2022 5:30:00 PM 20.23 68.414 0.084 7.55 7.86 9.1
8/18/2022 5:45:00 PM 20.18 68.324 0.084 7.52 7.87 9.01
8/18/2022 6:00:00 PM 20.17 68.306 0.084 7.49 7.71 8.95
8/18/2022 6:15:00 PM 20.13 68.234 0.084 7.44 7.66 8.92
8/18/2022 6:30:00 PM 20.09 68.162 0.084 7.43 7.63 8.88
8/18/2022 6:45:00 PM 20.06 68.108 0.084 7.42 7.44 8.84
8/18/2022 7:00:00 PM 20.01 68.018 0.084 7.39 7.44 8.79
8/18/2022 7:15:00 PM 19.96 67.92799 0.084 7.4 7.31 8.73
8/18/2022 7:30:00 PM 19.9 67.82 0.084 7.38 7.29 8.68
8/18/2022 7:45:00 PM 19.83 67.694 0.085 7.33 7.07 8.63
8/18/2022 8:00:00 PM 19.75 67.55 0.085 7.32 7.03 8.58
8/18/2022 8:15:00 PM 19.68 67.424 0.084 7.3 7.16 8.55
8/18/2022 8:30:00 PM 19.6 67.28 0.084 7.28 7.3 8.52
8/18/2022 8:45:00 PM 19.53 67.154 0.084 7.27 7.42 8.5
8/18/2022 9:00:00 PM 19.46 67.028 0.083 7.26 7.5 8.48
8/18/2022 9:15:00 PM 19.39 66.902 0.083 7.24 7.54 8.48
8/18/2022 9:30:00 PM 19.33 66.794 0.083 7.24 7.54 8.47
8/18/2022 9:45:00 PM 19.25 66.65 0.083 7.24 7.62 8.48
8/18/2022 10:00:00 PM 19.16 66.488 0.083 7.26 7.61 8.49
8/18/2022 10:15:00 PM 19.07 66.326 0.083 7.23 7.45 8.49
8/18/2022 10:30:00 PM 18.99 66.182 0.083 7.2 7.4 8.51
8/18/2022 10:45:00 PM 18.91 66.038 0.084 7.19 7.2 8.52
8/18/2022 11:00:00 PM 18.84 65.912 0.084 7.19 7.12 8.53
8/18/2022 11:15:00 PM 18.78 65.804 0.085 7.2 7.09 8.55
8/18/2022 11:30:00 PM 18.72 65.696 0.085 7.21 7.13 8.56
8/18/2022 11:45:00 PM 18.65 65.57 0.085 7.17 6.9 8.57
8/19/2022 12:00:00 AM 18.59 65.462 0.086 7.17 6.95 8.58
8/19/2022 12:15:00 AM 18.53 65.354 0.086 7.21 6.76 8.6
8/19/2022 12:30:00 AM 18.47 65.246 0.086 7.16 6.99 8.61
8/19/2022 12:45:00 AM 18.41 65.138 0.086 7.16 6.83 8.63
8/19/2022 1:00:00 AM 18.34 65.012 0.085 7.21 6.66 8.64
8/19/2022 1:15:00 AM 18.28 64.904 0.085 7.15 6.58 8.65
8/19/2022 1:30:00 AM 18.21 64.778 0.085 7.16 6.54 8.66
8/19/2022 1:45:00 AM 18.16 64.688 0.086 7.17 6.52 8.68
8/19/2022 2:00:00 AM 18.11 64.598 0.086 7.19 6.66 8.69
8/19/2022 2:15:00 AM 18.05 64.49 0.086 7.15 6.47 8.7
8/19/2022 2:30:00 AM 18 64.4 0.086 7.15 6.37 8.72
8/19/2022 2:45:00 AM 17.94 64.292 0.086 7.16 6.21 8.73
8/19/2022 3:00:00 AM 17.88 64.184 0.085 7.15 6.34 8.74
8/19/2022 3:15:00 AM 17.83 64.094 0.085 7.16 6.32 8.75
8/19/2022 3:30:00 AM 17.77 63.986 0.085 7.15 6.45 8.76
8/19/2022 3:45:00 AM 17.71 63.878 0.085 7.19 6.36 8.78
8/19/2022 4:00:00 AM 17.66 63.788 0.085 7.17 6.33 8.78
8/19/2022 4:15:00 AM 17.6 63.68 0.085 7.15 6.24 8.79
8/19/2022 4:30:00 AM 17.55 63.59 0.085 7.14 6.02 8.81
8/19/2022 4:45:00 AM 17.51 63.518 0.085 7.19 6.01 8.82
8/19/2022 5:00:00 AM 17.46 63.428 0.085 7.14 6.69 8.83
8/19/2022 5:15:00 AM 17.41 63.338 0.086 7.15 6.04 8.84
8/19/2022 5:30:00 AM 17.36 63.248 0.086 7.13 5.96 8.85
8/19/2022 5:45:00 AM 17.31 63.158 0.086 7.14 6.41 8.86
8/19/2022 6:00:00 AM 17.26 63.068 0.086 7.16 5.99 8.88
8/19/2022 6:15:00 AM 17.22 62.996 0.086 7.14 6.17 8.89
8/19/2022 6:30:00 AM 17.18 62.924 0.087 7.13 6.63 8.9
8/19/2022 6:45:00 AM 17.14 62.852 0.087 7.15 5.77 8.92
8/19/2022 7:00:00 AM 17.1 62.78 0.087 7.14 5.5 8.95
8/19/2022 7:15:00 AM 17.06 62.708 0.087 7.2 5.5 8.97
8/19/2022 7:30:00 AM 17.04 62.672 0.087 7.13 5.39 9.02
8/19/2022 7:45:00 AM 17.02 62.636 0.087 7.2 5.64 9.07
8/19/2022 8:00:00 AM 17 62.6 0.087 7.16 5.39 9.12
8/19/2022 8:15:00 AM 16.99 62.582 0.087 7.22 5.23 9.17
8/19/2022 8:30:00 AM 16.99 62.582 0.087 7.19 5.19 9.24
8/19/2022 8:45:00 AM 17.01 62.618 0.087 7.21 5.09 9.32
8/19/2022 9:00:00 AM 17.04 62.672 0.087 7.27 5.06 9.41
8/19/2022 9:15:00 AM 17.09 62.762 0.087 7.26 4.89 9.5
8/19/2022 9:30:00 AM 17.14 62.852 0.087 7.27 4.92 9.59
8/19/2022 9:45:00 AM 17.23 63.014 0.087 7.29 4.86 9.69
8/19/2022 10:00:00 AM 17.28 63.104 0.087 7.32 4.87 9.75
8/19/2022 10:15:00 AM 17.39 63.302 0.087 7.35 4.91 9.76
8/19/2022 10:30:00 AM 17.68 63.824 0.087 7.39 4.63 9.78
8/19/2022 10:45:00 AM 17.99 64.382 0.087 7.38 4.71 9.78
8/19/2022 11:00:00 AM 18.31 64.958 0.087 7.41 4.71 9.78
8/19/2022 11:15:00 AM 18.65 65.57 0.087 7.44 4.65 9.79
8/19/2022 11:30:00 AM 18.98 66.164 0.088 7.45 4.87 9.79
8/19/2022 11:45:00 AM 19.35 66.83 0.087 7.49 4.7 9.78
8/19/2022 12:00:00 PM 19.72 67.496 0.087 7.53 4.54 9.78
8/19/2022 12:15:00 PM 20.06 68.108 0.087 7.55 4.68 9.76
8/19/2022 12:30:00 PM 20.4 68.72 0.087 7.57 4.54 9.75
8/19/2022 12:45:00 PM 20.72 69.296 0.087 7.63 4.58 9.73
8/19/2022 1:00:00 PM 20.86 69.548 0.087 7.63 4.51 9.7
8/19/2022 1:15:00 PM 20.88 69.584 0.087 7.68 4.53 9.67
8/19/2022 1:30:00 PM 21.11 69.998 0.087 7.68 4.53 9.67
8/19/2022 1:45:00 PM 21.45 70.61 0.087 7.75 4.42 9.65
8/19/2022 2:00:00 PM 21.1 69.98 0.087 7.71 4.43 9.55
8/19/2022 2:15:00 PM 21.15 70.07 0.087 7.77 4.36 9.54
8/19/2022 2:30:00 PM 20.87 69.566 0.087 7.68 4.29 9.44
8/19/2022 2:45:00 PM 20.94 69.692 0.087 7.7 4.41 9.45
8/19/2022 3:00:00 PM 21.09 69.962 0.087 7.69 4.26 9.4
8/19/2022 3:15:00 PM 21.75 71.15 0.087 7.73 4.42 9.44
8/19/2022 3:30:00 PM 22.16 71.888 0.086 7.81 4.27 9.43
8/19/2022 3:45:00 PM 22.38 72.284 0.087 7.84 4.22 9.42
8/19/2022 4:00:00 PM 22.29 72.122 0.087 7.84 4.26 9.34
8/19/2022 4:15:00 PM 22.51 72.518 0.087 7.84 4.3 9.33
8/19/2022 4:30:00 PM 22.66 72.788 0.087 7.86 4.26 9.28
8/19/2022 4:45:00 PM 22.68 72.824 0.087 7.83 4.35 9.24
8/19/2022 5:00:00 PM 22.66 72.788 0.088 7.82 4.22 9.17
8/19/2022 5:15:00 PM 22.51 72.518 0.088 7.79 4.14 9.07
8/19/2022 5:30:00 PM 22.42 72.356 0.088 7.76 4.14 9
8/19/2022 5:45:00 PM 22.31 72.158 0.088 7.69 4.16 8.92
8/19/2022 6:00:00 PM 22.19 71.942 0.088 7.66 4.14 8.85
8/19/2022 6:15:00 PM 22.08 71.744 0.089 7.61 4.13 8.8
8/19/2022 6:30:00 PM 21.94 71.492 0.088 7.58 4.18 8.73
8/19/2022 6:45:00 PM 21.83 71.294 0.089 7.53 4.2 8.64
8/19/2022 7:00:00 PM 21.74 71.132 0.089 7.49 4.16 8.57
8/19/2022 7:15:00 PM 21.64 70.952 0.089 7.48 4.11 8.51
8/19/2022 7:30:00 PM 21.54 70.772 0.089 7.45 4.1 8.44
8/19/2022 7:45:00 PM 21.44 70.592 0.09 7.46 4.08 8.38
8/19/2022 8:00:00 PM 21.33 70.394 0.09 7.38 4.15 8.32
8/19/2022 8:15:00 PM 21.22 70.196 0.09 7.35 4.19 8.26
8/19/2022 8:30:00 PM 21.11 69.998 0.091 7.35 4.09 8.21
8/19/2022 8:45:00 PM 21 69.8 0.091 7.31 4.23 8.18
8/19/2022 9:00:00 PM 20.9 69.62 0.091 7.34 4.25 8.15
8/19/2022 9:15:00 PM 20.8 69.44 0.091 7.27 4.85 8.14
8/19/2022 9:30:00 PM 20.69 69.242 0.09 7.3 4.46 8.12
8/19/2022 9:45:00 PM 20.6 69.08 0.091 7.23 4.33 8.11
8/19/2022 10:00:00 PM 20.51 68.918 0.091 7.25 4.29 8.11
8/19/2022 10:15:00 PM 20.42 68.756 0.09 7.21 4.25 8.12
8/19/2022 10:30:00 PM 20.35 68.63 0.091 7.2 4.31 8.12
8/19/2022 10:45:00 PM 20.27 68.486 0.09 7.19 4.76 8.13
8/19/2022 11:00:00 PM 20.19 68.342 0.09 7.18 4.51 8.14
8/19/2022 11:15:00 PM 20.11 68.198 0.09 7.18 4.17 8.15
8/19/2022 11:30:00 PM 20.03 68.054 0.09 7.21 4.35 8.16
8/19/2022 11:45:00 PM 19.96 67.92799 0.09 7.18 4.2 8.17
8/20/2022 12:00:00 AM 19.88 67.784 0.091 7.15 4.12 8.18
8/20/2022 12:15:00 AM 19.83 67.694 0.091 7.15 4.43 8.19
8/20/2022 12:30:00 AM 19.77 67.586 0.091 7.16 4.38 8.2
8/20/2022 12:45:00 AM 19.71 67.478 0.091 7.15 4.16 8.21
8/20/2022 1:00:00 AM 19.64 67.352 0.091 7.16 4.24 8.21
8/20/2022 1:15:00 AM 19.57 67.226 0.092 7.16 4.61 8.23
8/20/2022 1:30:00 AM 19.51 67.118 0.092 7.14 4.14 8.23
8/20/2022 1:45:00 AM 19.47 67.046 0.092 7.18 4.15 8.25
8/20/2022 2:00:00 AM 19.41 66.938 0.092 7.15 4.02 8.27
8/20/2022 2:15:00 AM 19.36 66.848 0.093 7.19 4.16 8.28
8/20/2022 2:30:00 AM 19.31 66.758 0.093 7.13 4.12 8.29
8/20/2022 2:45:00 AM 19.25 66.65 0.093 7.16 4.07 8.31
8/20/2022 3:00:00 AM 19.2 66.56 0.093 7.13 4.2 8.33
8/20/2022 3:15:00 AM 19.15 66.47 0.093 7.14 4.03 8.35
8/20/2022 3:30:00 AM 19.1 66.38 0.093 7.14 4.08 8.36
8/20/2022 3:45:00 AM 19.04 66.272 0.093 7.15 4.16 8.37
8/20/2022 4:00:00 AM 18.99 66.182 0.093 7.13 4.08 8.38
8/20/2022 4:15:00 AM 18.94 66.092 0.093 7.15 4.13 8.4
8/20/2022 4:30:00 AM 18.88 65.984 0.094 7.14 3.98 8.41
8/20/2022 4:45:00 AM 18.83 65.894 0.094 7.12 4.02 8.41
8/20/2022 5:00:00 AM 18.78 65.804 0.094 7.15 4.07 8.44
8/20/2022 5:15:00 AM 18.72 65.696 0.094 7.16 4.04 8.45
8/20/2022 5:30:00 AM 18.67 65.606 0.094 7.12 4.01 8.46
8/20/2022 5:45:00 AM 18.62 65.516 0.094 7.14 4.13 8.47
8/20/2022 6:00:00 AM 18.57 65.426 0.094 7.13 4.05 8.48
8/20/2022 6:15:00 AM 18.53 65.354 0.094 7.13 4.05 8.5
8/20/2022 6:30:00 AM 18.48 65.264 0.095 7.14 3.95 8.5
8/20/2022 6:45:00 AM 18.43 65.174 0.095 7.16 3.96 8.52
8/20/2022 7:00:00 AM 18.39 65.102 0.096 7.12 3.87 8.55
8/20/2022 7:15:00 AM 18.35 65.03 0.096 7.14 3.86 8.59
8/20/2022 7:30:00 AM 18.33 64.994 0.095 7.15 3.82 8.66
8/20/2022 7:45:00 AM 18.31 64.958 0.095 7.17 3.74 8.7
8/20/2022 8:00:00 AM 18.3 64.94 0.095 7.16 3.74 8.77
8/20/2022 8:15:00 AM 18.29 64.922 0.094 7.19 3.77 8.85
8/20/2022 8:30:00 AM 18.3 64.94 0.094 7.21 3.83 8.96
8/20/2022 8:45:00 AM 18.35 65.03 0.093 7.24 3.71 9.1
8/20/2022 9:00:00 AM 18.41 65.138 0.093 7.26 3.72 9.23
8/20/2022 9:15:00 AM 18.46 65.228 0.093 7.29 3.61 9.28
8/20/2022 9:30:00 AM 18.54 65.372 0.093 7.33 3.56 9.34
8/20/2022 9:45:00 AM 18.64 65.552 0.093 7.29 3.54 9.38
8/20/2022 10:00:00 AM 18.82 65.876 0.093 7.32 3.54 9.42
8/20/2022 10:15:00 AM 19.13 66.434 0.093 7.37 3.57 9.59
8/20/2022 10:30:00 AM 19.35 66.83 0.093 7.4 3.52 9.63
8/20/2022 10:45:00 AM 19.5 67.1 0.093 7.49 3.43 9.69
8/20/2022 11:00:00 AM 19.66 67.388 0.093 7.5 3.51 9.73
8/20/2022 11:15:00 AM 19.82 67.676 0.093 7.57 3.48 9.76
8/20/2022 11:30:00 AM 20.05 68.09 0.093 7.6 3.46 9.81
8/20/2022 11:45:00 AM 20.32 68.576 0.093 7.66 3.43 9.8
8/20/2022 12:00:00 PM 20.65 69.17 0.093 7.67 3.39 9.8
8/20/2022 12:15:00 PM -99999.99 -179968 -99999.99 -99999.99 -99999.99 -99999.99
8/20/2022 12:30:00 PM -99999.99 -179968 -99999.99 -99999.99 -99999.99 -99999.99
8/20/2022 12:45:00 PM -99999.99 -179968 -99999.99 -99999.99 -99999.99 -99999.99
8/20/2022 1:00:00 PM -99999.99 -179968 -99999.99 -99999.99 -99999.99 -99999.99
8/20/2022 1:15:00 PM -99999.99 -179968 -99999.99 -99999.99 -99999.99 -99999.99
8/20/2022 1:30:00 PM -99999.99 -179968 -99999.99 -99999.99 -99999.99 -99999.99
8/20/2022 1:45:00 PM -99999.99 -179968 -99999.99 -99999.99 -99999.99 -99999.99
8/20/2022 2:00:00 PM -99999.99 -179968 -99999.99 -99999.99 -99999.99 -99999.99
8/20/2022 2:15:00 PM 22.32 72.176 0.092 7.94 3.27 9.47
8/20/2022 2:30:00 PM 22.29 72.122 0.092 7.92 3.25 9.44
8/20/2022 2:45:00 PM 22.31 72.158 0.092 7.98 3.26 9.47
8/20/2022 3:00:00 PM 22.38 72.284 0.092 8.01 3.3 9.47
8/20/2022 3:15:00 PM 22.54 72.57201 0.092 8.07 3.25 9.5
8/20/2022 3:30:00 PM 22.73 72.914 0.092 8.1 3.3 9.5
8/20/2022 3:45:00 PM 22.73 72.914 0.091 8.15 7.99 9.46
8/20/2022 4:00:00 PM 23.05 73.49 0.092 8.17 3.28 9.47
8/20/2022 4:15:00 PM 23.36 74.048 0.092 8.2 3.23 9.42
8/20/2022 4:30:00 PM 23.29 73.922 0.092 8.21 3.34 9.3
8/20/2022 4:45:00 PM 23.04 73.472 0.092 8.12 3.28 9.19
8/20/2022 5:00:00 PM 23.08 73.544 0.091 8.1 3.67 9.21
8/20/2022 5:15:00 PM 23.24 73.832 0.092 8.09 3.4 9.15
8/20/2022 5:30:00 PM 23.27 73.886 0.092 8.06 3.42 9.13
8/20/2022 5:45:00 PM 23.24 73.832 0.092 8.04 3.34 9.04
8/20/2022 6:00:00 PM 23.09 73.562 0.092 7.92 3.28 8.9
8/20/2022 6:15:00 PM 22.96 73.328 0.093 7.83 3.34 8.79
8/20/2022 6:30:00 PM 22.83 73.094 0.093 7.76 3.39 8.7
8/20/2022 6:45:00 PM 22.73 72.914 0.093 7.69 3.34 8.61
8/20/2022 7:00:00 PM 22.65 72.77 0.093 7.63 3.44 8.53
8/20/2022 7:15:00 PM 22.56 72.608 0.093 7.57 3.34 8.44
8/20/2022 7:30:00 PM 22.48 72.464 0.093 7.54 3.39 8.35
8/20/2022 7:45:00 PM 22.4 72.32 0.093 7.5 3.34 8.26
8/20/2022 8:00:00 PM 22.31 72.158 0.094 7.45 3.3 8.18
8/20/2022 8:15:00 PM 22.21 71.978 0.094 7.41 3.47 8.1
8/20/2022 8:30:00 PM 22.1 71.78 0.095 7.37 3.32 8.02
8/20/2022 8:45:00 PM 21.99 71.582 0.095 7.35 3.31 7.98
8/20/2022 9:00:00 PM 21.89 71.402 0.095 7.33 3.41 7.93
8/20/2022 9:15:00 PM 21.79 71.222 0.095 7.32 3.38 7.91
8/20/2022 9:30:00 PM 21.7 71.06 0.095 7.28 3.44 7.88
8/20/2022 9:45:00 PM 21.61 70.898 0.095 7.28 3.66 7.87
8/20/2022 10:00:00 PM 21.52 70.736 0.095 7.28 3.54 7.87
8/20/2022 10:15:00 PM 21.44 70.592 0.095 7.24 3.49 7.86
8/20/2022 10:30:00 PM 21.36 70.448 0.095 7.27 3.59 7.86
8/20/2022 10:45:00 PM 21.27 70.286 0.095 7.21 3.53 7.86
8/20/2022 11:00:00 PM 21.17 70.106 0.095 7.22 3.5 7.86
8/20/2022 11:15:00 PM 21.11 69.998 0.095 7.23 3.57 7.87
8/20/2022 11:30:00 PM 21.04 69.872 0.095 7.2 3.56 7.87
8/20/2022 11:45:00 PM 20.97 69.746 0.095 7.22 3.53 7.88
8/21/2022 12:00:00 AM 20.9 69.62 0.095 7.2 3.61 7.88
8/21/2022 12:15:00 AM 20.82 69.476 0.095 7.21 3.55 7.9
8/21/2022 12:30:00 AM 20.74 69.332 0.096 7.16 3.7 7.9
8/21/2022 12:45:00 AM 20.67 69.206 0.096 7.2 3.64 7.91
8/21/2022 1:00:00 AM 20.6 69.08 0.096 7.18 3.61 7.93
8/21/2022 1:15:00 AM 20.54 68.972 0.096 7.17 3.49 7.93
8/21/2022 1:30:00 AM 20.48 68.864 0.097 7.14 3.45 7.94
8/21/2022 1:45:00 AM 20.42 68.756 0.097 7.16 3.49 7.95
8/21/2022 2:00:00 AM 20.35 68.63 0.097 7.19 3.53 7.96
8/21/2022 2:15:00 AM 20.31 68.558 0.097 7.15 3.52 7.97
8/21/2022 2:30:00 AM 20.26 68.468 0.097 7.16 3.37 7.98
8/21/2022 2:45:00 AM 20.21 68.378 0.097 7.13 3.48 7.99
8/21/2022 3:00:00 AM 20.16 68.288 0.097 7.17 3.4 7.98
8/21/2022 3:15:00 AM 20.1 68.18 0.096 7.12 5.45 8.02
8/21/2022 3:30:00 AM 20.06 68.108 0.096 7.18 3.97 8.03
8/21/2022 3:45:00 AM 20.05 68.09 0.096 7.16 3.67 8.03
8/21/2022 4:00:00 AM 20.01 68.018 0.097 7.18 3.58 8.03
8/21/2022 4:15:00 AM 19.97 67.946 0.097 7.15 3.68 8.03
8/21/2022 4:30:00 AM 19.94 67.892 0.097 7.13 3.65 8.04
8/21/2022 4:45:00 AM 19.9 67.82 0.097 7.15 3.5 8.05
8/21/2022 5:00:00 AM 19.87 67.766 0.097 7.12 3.57 8.05
8/21/2022 5:15:00 AM 19.82 67.676 0.098 7.12 3.6 8.06
8/21/2022 5:30:00 AM 19.79 67.622 0.097 7.12 3.45 8.08
8/21/2022 5:45:00 AM 19.75 67.55 0.098 7.14 4.2 8.08
8/21/2022 6:00:00 AM 19.72 67.496 0.098 7.14 3.51 8.09
8/21/2022 6:15:00 AM 19.69 67.442 0.098 7.15 3.55 8.1
8/21/2022 6:30:00 AM 19.66 67.388 0.098 7.14 3.53 8.11
8/21/2022 6:45:00 AM 19.62 67.316 0.098 7.14 3.45 8.12
8/21/2022 7:00:00 AM 19.59 67.262 0.098 7.15 3.33 8.15
8/21/2022 7:15:00 AM 19.57 67.226 0.098 7.16 3.35 8.21
8/21/2022 7:30:00 AM 19.55 67.19 0.098 7.15 3.37 8.25
8/21/2022 7:45:00 AM 19.55 67.19 0.098 7.18 3.35 8.32
8/21/2022 8:00:00 AM 19.56 67.208 0.098 7.15 3.32 8.39
8/21/2022 8:15:00 AM 19.57 67.226 0.098 7.19 3.28 8.5
8/21/2022 8:30:00 AM 19.62 67.316 0.098 7.21 3.29 8.66
8/21/2022 8:45:00 AM 19.74 67.532 0.098 7.26 3.26 8.81
8/21/2022 9:00:00 AM 19.82 67.676 0.098 7.26 3.25 8.87
8/21/2022 9:15:00 AM 19.88 67.784 0.097 7.31 3.3 8.95
8/21/2022 9:30:00 AM 19.94 67.892 0.097 7.31 3.15 9.08
8/21/2022 9:45:00 AM 20.09 68.162 0.097 7.37 3.21 9.22
8/21/2022 10:00:00 AM 20.28 68.504 0.096 7.41 3.3 9.36
8/21/2022 10:15:00 AM 20.47 68.846 0.096 7.41 3.16 9.45
8/21/2022 10:30:00 AM 20.69 69.242 0.096 7.5 3.36 9.53
8/21/2022 10:45:00 AM 20.82 69.476 0.096 7.52 3.31 9.56
8/21/2022 11:00:00 AM 20.94 69.692 0.096 7.58 3.09 9.59
8/21/2022 11:15:00 AM 21.01 69.818 0.096 7.62 3.07 9.57
8/21/2022 11:30:00 AM 21.04 69.872 0.096 7.67 3.07 9.57
8/21/2022 11:45:00 AM 21.05 69.89 0.096 7.67 2.99 9.53
8/21/2022 12:00:00 PM 21.06 69.908 0.096 7.67 2.99 9.51
8/21/2022 12:15:00 PM 21.02 69.836 0.096 7.67 2.99 9.42
8/21/2022 12:30:00 PM 20.91 69.638 0.096 7.65 3.34 9.25
8/21/2022 12:45:00 PM 20.8 69.44 0.094 7.57 4.09 9.07
8/21/2022 1:00:00 PM 20.73 69.314 0.126 7.57 9.9 8.97
8/21/2022 1:15:00 PM 20.69 69.242 0.141 7.59 20.72 8.95
8/21/2022 1:30:00 PM 20.71 69.278 0.106 7.58 4.57 9.11
8/21/2022 1:45:00 PM 20.81 69.458 0.099 7.62 3.24 9.26
8/21/2022 2:00:00 PM 20.83 69.494 0.098 7.61 3.08 9.29
8/21/2022 2:15:00 PM 20.92 69.656 0.097 7.7 3.09 9.45
8/21/2022 2:30:00 PM 21.22 70.196 0.097 7.77 3.12 9.53
8/21/2022 2:45:00 PM 21.44 70.592 0.097 7.84 3.01 9.59
8/21/2022 3:00:00 PM 21.89 71.402 0.097 7.95 3.12 9.62
8/21/2022 3:15:00 PM 22.18 71.924 0.097 7.93 3.07 9.57
8/21/2022 3:30:00 PM 22.37 72.266 0.097 8.01 3.06 9.57
8/21/2022 3:45:00 PM 22.26 72.068 0.096 7.97 3.08 9.5
8/21/2022 4:00:00 PM 22.24 72.032 0.096 8.04 3.11 9.51
8/21/2022 4:15:00 PM 22.38 72.284 0.096 8.06 3.03 9.51
8/21/2022 4:30:00 PM 22.62 72.716 0.095 8.1 2.99 9.43
8/21/2022 4:45:00 PM 22.75 72.95 0.095 8.15 3.07 9.44
8/21/2022 5:00:00 PM 22.53 72.554 0.095 8.01 3.01 9.2
8/21/2022 5:15:00 PM 22.33 72.194 0.095 7.9 2.97 9.06
8/21/2022 5:30:00 PM 22.18 71.924 0.095 7.82 3.04 8.95
8/21/2022 5:45:00 PM 22.05 71.69 0.096 7.73 2.98 8.8
8/21/2022 6:00:00 PM 21.94 71.492 0.096 7.66 3.03 8.68
8/21/2022 6:15:00 PM 21.81 71.258 0.095 7.59 3.94 8.54
8/21/2022 6:30:00 PM 21.83 71.294 0.228 7.99 202.05 8.47
8/21/2022 6:45:00 PM 21.68 71.024 0.135 7.79 62.89 8.41
8/21/2022 7:00:00 PM 21.52 70.736 0.111 7.69 31.58 8.39
8/21/2022 7:15:00 PM 21.38 70.484 0.1 7.58 14.71 8.31
8/21/2022 7:30:00 PM 21.3 70.34 0.099 7.48 7.11 8.21
8/21/2022 7:45:00 PM 21.24 70.232 0.101 7.42 7.25 8.15
8/21/2022 8:00:00 PM 21.18 70.124 0.098 7.34 17.37 8.16
8/21/2022 8:15:00 PM 20.96 69.728 0.078 7.23 60.62 8.28
8/21/2022 8:30:00 PM 20.41 68.738 0.068 7.01 247.01 8.36
8/21/2022 8:45:00 PM 19.69 67.442 0.059 6.9 202.91 8.5
8/21/2022 9:00:00 PM 19.36 66.848 0.056 6.89 167.61 8.57
8/21/2022 9:15:00 PM 19.18 66.524 0.056 6.77 160.87 8.59
8/21/2022 9:30:00 PM 18.97 66.146 0.056 6.58 187.83 8.62
8/21/2022 9:45:00 PM 18.86 65.948 0.063 6.57 196.18 8.63
8/21/2022 10:00:00 PM 18.72 65.696 0.066 6.53 188.89 8.66
8/21/2022 10:15:00 PM 18.6 65.48 0.071 6.57 175.99 8.7
8/21/2022 10:30:00 PM 18.51 65.318 0.074 6.58 145.12 8.72
8/21/2022 10:45:00 PM 18.42 65.156 0.073 6.6 127.83 8.75
8/21/2022 11:00:00 PM 18.35 65.03 0.074 6.62 106.6 8.77
8/21/2022 11:15:00 PM 18.29 64.922 0.073 6.69 90.89 8.8
8/21/2022 11:30:00 PM 18.22 64.796 0.073 6.7 79.09 8.82
8/21/2022 11:45:00 PM 18.15 64.67 0.072 6.69 70.61 8.84
8/22/2022 12:00:00 AM 18.1 64.58 0.071 6.68 64.62 8.85
8/22/2022 12:15:00 AM 18.04 64.472 0.069 6.69 61.29 8.87
8/22/2022 12:30:00 AM 17.97 64.346 0.068 6.69 59.07 8.89
8/22/2022 12:45:00 AM 17.91 64.238 0.067 6.73 56.73 8.9
8/22/2022 1:00:00 AM 17.86 64.148 0.066 6.7 53.32 8.92
8/22/2022 1:15:00 AM 17.81 64.058 0.066 6.71 50.75 8.93
8/22/2022 1:30:00 AM 17.77 63.986 0.066 6.73 47.5 8.94
8/22/2022 1:45:00 AM 17.72 63.896 0.066 6.72 44.82 8.95
8/22/2022 2:00:00 AM 17.68 63.824 0.066 6.75 41.74 8.96
8/22/2022 2:15:00 AM 17.65 63.77 0.067 6.74 40.34 8.97
8/22/2022 2:30:00 AM 17.61 63.698 0.068 6.75 38.58 8.98
8/22/2022 2:45:00 AM 17.56 63.608 0.068 6.79 37.45 8.99
8/22/2022 3:00:00 AM 17.53 63.554 0.069 6.75 35.99 8.99
8/22/2022 3:15:00 AM 17.49 63.482 0.069 6.79 35.75 9
8/22/2022 3:30:00 AM 17.46 63.428 0.069 6.76 33.9 9.01
8/22/2022 3:45:00 AM 17.42 63.356 0.07 6.76 32.67 9.02
8/22/2022 4:00:00 AM 17.39 63.302 0.07 6.76 31.04 9.02
8/22/2022 4:15:00 AM 17.36 63.248 0.07 6.81 30.06 9.03
8/22/2022 4:30:00 AM 17.33 63.194 0.071 6.81 28.64 9.04
8/22/2022 4:45:00 AM 17.3 63.14 0.071 6.83 27.47 9.04
8/22/2022 5:00:00 AM 17.26 63.068 0.071 6.83 26.53 9.05
8/22/2022 5:15:00 AM 17.23 63.014 0.072 6.82 25.63 9.06
8/22/2022 5:30:00 AM 17.2 62.96 0.072 6.82 24.59 9.07
8/22/2022 5:45:00 AM 17.16 62.888 0.072 6.84 24.21 9.08
8/22/2022 6:00:00 AM 17.14 62.852 0.072 6.85 23.24 9.08
8/22/2022 6:15:00 AM 17.11 62.798 0.073 6.84 24.28 9.09
8/22/2022 6:30:00 AM 17.07 62.726 0.073 6.83 22.4 9.1
8/22/2022 6:45:00 AM 17.04 62.672 0.073 6.84 21.95 9.11
8/22/2022 7:00:00 AM 17.02 62.636 0.073 6.84 21.46 9.11
8/22/2022 7:15:00 AM 17 62.6 0.073 6.88 20.81 9.12
8/22/2022 7:30:00 AM 16.98 62.564 0.074 6.87 20.55 9.14
8/22/2022 7:45:00 AM 16.96 62.528 0.074 6.85 19.62 9.16
8/22/2022 8:00:00 AM 16.96 62.528 0.074 6.89 19.45 9.18
8/22/2022 8:15:00 AM 16.97 62.546 0.075 6.88 19.05 9.22
8/22/2022 8:30:00 AM 16.97 62.546 0.075 6.92 18.54 9.26
8/22/2022 8:45:00 AM 16.97 62.546 0.075 6.94 18.03 9.28
8/22/2022 9:00:00 AM 16.97 62.546 0.075 6.94 17.38 9.3
8/22/2022 9:15:00 AM 17.01 62.618 0.076 6.95 16.93 9.35
8/22/2022 9:30:00 AM 17.04 62.672 0.075 6.95 16.57 9.39
8/22/2022 9:45:00 AM 17.08 62.744 0.076 6.99 16.16 9.43
8/22/2022 10:00:00 AM 17.1 62.78 0.076 7.01 15.62 9.43
8/22/2022 10:15:00 AM 17.12 62.816 0.076 7.01 15.66 9.43
8/22/2022 10:30:00 AM 17.13 62.834 0.076 7.03 14.95 9.43
8/22/2022 10:45:00 AM 17.17 62.906 0.077 7.05 14.59 9.45
8/22/2022 11:00:00 AM 17.2 62.96 0.077 7.06 14.07 9.46
8/22/2022 11:15:00 AM 17.24 63.032 0.077 7.08 14.03 9.5
8/22/2022 11:30:00 AM 17.31 63.158 0.077 7.11 13.56 9.54
8/22/2022 11:45:00 AM 17.41 63.338 0.077 7.11 13.19 9.6
8/22/2022 12:00:00 PM 17.52 63.536 0.077 7.14 13.02 9.64
8/22/2022 12:15:00 PM 17.65 63.77 0.077 7.18 12.7 9.64
8/22/2022 12:30:00 PM 17.74 63.932 0.077 7.19 12.53 9.66
8/22/2022 12:45:00 PM 17.91 64.238 0.077 7.2 12.27 9.68
8/22/2022 1:00:00 PM 18.04 64.472 0.077 7.24 11.91 9.66
8/22/2022 1:15:00 PM 18.12 64.616 0.077 7.28 11.8 9.63
8/22/2022 1:30:00 PM 18.3 64.94 0.077 7.28 11.62 9.63
8/22/2022 1:45:00 PM 18.51 65.318 0.077 7.3 11.41 9.64
8/22/2022 2:00:00 PM 18.67 65.606 0.077 7.33 11.1 9.63
8/22/2022 2:15:00 PM 18.78 65.804 0.077 7.35 11.17 9.62
8/22/2022 2:30:00 PM 18.85 65.93 0.076 7.33 11.26 9.58
8/22/2022 2:45:00 PM 19.06 66.308 0.077 7.33 10.97 9.55
8/22/2022 3:00:00 PM 19.16 66.488 0.076 7.36 10.99 9.52
8/22/2022 3:15:00 PM 19.26 66.668 0.077 7.35 10.78 9.49
8/22/2022 3:30:00 PM 19.28 66.704 0.077 7.36 10.75 9.44
8/22/2022 3:45:00 PM 19.27 66.686 0.077 7.33 10.63 9.38
8/22/2022 4:00:00 PM 19.23 66.614 0.077 7.35 10.3 9.32
8/22/2022 4:15:00 PM 19.18 66.524 0.076 7.31 10.12 9.28
8/22/2022 4:30:00 PM 19.24 66.632 0.077 7.36 10.19 9.3
8/22/2022 4:45:00 PM 19.31 66.758 0.077 7.32 10.24 9.3
8/22/2022 5:00:00 PM 19.34 66.812 0.077 7.36 9.96 9.28
8/22/2022 5:15:00 PM 19.35 66.83 0.077 7.32 10.07 9.22
8/22/2022 5:30:00 PM 19.35 66.83 0.077 7.3 9.91 9.17
8/22/2022 5:45:00 PM 19.29 66.722 0.077 7.31 9.79 9.07
8/22/2022 6:00:00 PM 19.23 66.614 0.077 7.22 9.91 8.98
8/22/2022 6:15:00 PM 19.19 66.542 0.078 7.23 9.87 8.92
8/22/2022 6:30:00 PM 19.15 66.47 0.078 7.18 9.98 8.88
8/22/2022 6:45:00 PM 19.08 66.344 0.077 7.17 9.8 8.85
8/22/2022 7:00:00 PM 19.02 66.236 0.077 7.15 8.86 8.82
8/22/2022 7:15:00 PM 18.96 66.128 0.077 7.13 8.98 8.79
8/22/2022 7:30:00 PM 18.91 66.038 0.078 7.11 8.93 8.77
8/22/2022 7:45:00 PM 18.86 65.948 0.078 7.12 8.81 8.77
8/22/2022 8:00:00 PM 18.81 65.858 0.078 7.11 9.12 8.76
8/22/2022 8:15:00 PM 18.75 65.75 0.078 7.09 8.93 8.75
8/22/2022 8:30:00 PM 18.67 65.606 0.077 7.08 9.28 8.75
8/22/2022 8:45:00 PM 18.58 65.444 0.077 7.08 9.26 8.76
8/22/2022 9:00:00 PM 18.49 65.282 0.076 7.1 9.34 8.77
8/22/2022 9:15:00 PM 18.42 65.156 0.077 7.08 9.37 8.79
8/22/2022 9:30:00 PM 18.35 65.03 0.076 7.08 9.15 8.8
8/22/2022 9:45:00 PM 18.29 64.922 0.077 7.05 9.17 8.8
8/22/2022 10:00:00 PM 18.22 64.796 0.077 7.05 9.38 8.82
8/22/2022 10:15:00 PM 18.1 64.58 0.076 7.05 9.09 8.85
8/22/2022 10:30:00 PM 18.03 64.454 0.076 7.06 9.21 8.86
8/22/2022 10:45:00 PM 17.97 64.346 0.076 7.03 8.85 8.87
8/22/2022 11:00:00 PM 17.91 64.238 0.076 7.04 8.97 8.89
8/22/2022 11:15:00 PM 17.86 64.148 0.077 7.05 8.95 8.9
8/22/2022 11:30:00 PM 17.8 64.04 0.077 7.06 8.89 8.91
8/22/2022 11:45:00 PM 17.74 63.932 0.077 7.03 8.88 8.93
8/23/2022 12:00:00 AM 17.69 63.842 0.077 7.1 8.77 8.94
8/23/2022 12:15:00 AM 17.66 63.788 0.078 7.04 8.6 8.94
8/23/2022 12:30:00 AM 17.57 63.626 0.077 7.05 8.52 8.97
8/23/2022 12:45:00 AM 17.51 63.518 0.077 7.04 8.44 8.98
8/23/2022 1:00:00 AM 17.48 63.464 0.077 7.07 8.67 8.98
8/23/2022 1:15:00 AM 17.46 63.428 0.078 7.05 8.63 8.98
8/23/2022 1:30:00 AM 17.41 63.338 0.078 7.05 8.48 8.99
8/23/2022 1:45:00 AM 17.32 63.176 0.077 7.04 8.43 9.02
8/23/2022 2:00:00 AM 17.28 63.104 0.077 7.04 8.4 9.02
8/23/2022 2:15:00 AM 17.28 63.104 0.078 7.07 8.36 9.02
8/23/2022 2:30:00 AM 17.24 63.032 0.078 7.04 8.31 9.03
8/23/2022 2:45:00 AM 17.21 62.978 0.078 7.09 8.14 9.03
8/23/2022 3:00:00 AM 17.19 62.942 0.079 7.03 8.25 9.04
8/23/2022 3:15:00 AM 17.15 62.87 0.079 7.1 8.2 9.05
8/23/2022 3:30:00 AM 17.1 62.78 0.079 7.01 8.03 9.06
8/23/2022 3:45:00 AM 17.07 62.726 0.079 7.03 8.04 9.06
8/23/2022 4:00:00 AM 17.04 62.672 0.079 7 7.83 9.07
8/23/2022 4:15:00 AM 17.02 62.636 0.08 7.07 7.76 9.07
8/23/2022 4:30:00 AM 16.96 62.528 0.079 7.01 7.72 9.09
8/23/2022 4:45:00 AM 16.92 62.456 0.079 7.07 7.61 9.09
8/23/2022 5:00:00 AM 16.92 62.456 0.08 7.02 7.68 9.1
8/23/2022 5:15:00 AM 16.93 62.474 0.08 7.04 7.67 9.09
8/23/2022 5:30:00 AM 16.92 62.456 0.081 7.05 7.75 9.09
8/23/2022 5:45:00 AM 16.88 62.384 0.081 7.05 7.56 9.1
8/23/2022 6:00:00 AM 16.86 62.348 0.081 7.09 7.79 9.11
8/23/2022 6:15:00 AM 16.84 62.312 0.081 7.03 7.54 9.1
8/23/2022 6:30:00 AM 16.8 62.24 0.081 7.04 7.41 9.12
8/23/2022 6:45:00 AM 16.78 62.204 0.081 7.03 7.31 9.12
8/23/2022 7:00:00 AM 16.77 62.186 0.081 7.04 7.16 9.15
8/23/2022 7:15:00 AM 16.77 62.186 0.081 7.05 7.15 9.18
8/23/2022 7:30:00 AM 16.75 62.15 0.081 7.04 6.69 9.22
8/23/2022 7:45:00 AM 16.75 62.15 0.081 7.04 6.75 9.25
8/23/2022 8:00:00 AM 16.74 62.132 0.081 7.08 6.6 9.26
8/23/2022 8:15:00 AM 16.75 62.15 0.082 7.08 6.3 9.3
8/23/2022 8:30:00 AM 16.77 62.186 0.081 7.07 6.22 9.37
8/23/2022 8:45:00 AM 16.79 62.222 0.081 7.09 6.25 9.43
8/23/2022 9:00:00 AM 16.84 62.312 0.081 7.15 6.13 9.51
8/23/2022 9:15:00 AM 16.88 62.384 0.081 7.14 6.17 9.57
8/23/2022 9:30:00 AM 16.92 62.456 0.081 7.18 5.98 9.6
8/23/2022 9:45:00 AM 16.99 62.582 0.082 7.18 5.82 9.66
8/23/2022 10:00:00 AM 17.04 62.672 0.081 7.22 5.87 9.68
8/23/2022 10:15:00 AM 17.1 62.78 0.082 7.23 5.81 9.69
8/23/2022 10:30:00 AM 17.14 62.852 0.082 7.29 5.79 9.68
8/23/2022 10:45:00 AM 17.18 62.924 0.082 7.25 5.81 9.68
8/23/2022 11:00:00 AM 17.36 63.248 0.082 7.32 5.71 9.75
8/23/2022 11:15:00 AM 17.42 63.356 0.082 7.31 5.63 9.78
8/23/2022 11:30:00 AM 17.45 63.41 0.082 7.32 5.64 9.74
8/23/2022 11:45:00 AM 17.48 63.464 0.082 7.33 5.64 9.73
8/23/2022 12:00:00 PM 17.72 63.896 0.082 7.35 5.35 9.77
8/23/2022 12:15:00 PM 17.75 63.95 0.082 7.39 5.28 9.81
8/23/2022 12:30:00 PM 17.94 64.292 0.082 7.43 5.35 9.84
8/23/2022 12:45:00 PM 18.27 64.886 0.082 7.52 5.26 9.86
8/23/2022 1:00:00 PM 18.43 65.174 0.082 7.49 5.33 9.84
8/23/2022 1:15:00 PM 18.66 65.588 0.082 7.54 5.4 9.8
8/23/2022 1:30:00 PM 18.73 65.714 0.086 7.56 6.86 9.72
8/23/2022 1:45:00 PM 18.93 66.074 0.083 7.55 5.34 9.75
8/23/2022 2:00:00 PM 19.09 66.362 0.084 7.62 5.23 9.74
8/23/2022 2:15:00 PM 19.24 66.632 0.084 7.58 5.1 9.74
8/23/2022 2:30:00 PM 19.5 67.1 0.085 7.68 4.99 9.74
8/23/2022 2:45:00 PM 19.48 67.064 0.086 7.61 5.01 9.66
8/23/2022 3:00:00 PM 19.53 67.154 0.086 7.64 5.1 9.63
8/23/2022 3:15:00 PM 19.85 67.73 0.087 7.71 4.92 9.65
8/23/2022 3:30:00 PM 20.03 68.054 0.088 7.67 4.99 9.61
8/23/2022 3:45:00 PM 20.15 68.27 0.089 7.71 4.94 9.58
8/23/2022 4:00:00 PM 20.06 68.108 0.09 7.69 5.02 9.49
8/23/2022 4:15:00 PM 20.14 68.252 0.09 7.67 4.93 9.45
8/23/2022 4:30:00 PM 20.12 68.216 0.09 7.68 5.06 9.42
8/23/2022 4:45:00 PM 20.14 68.252 0.091 7.66 4.9 9.39
8/23/2022 5:00:00 PM 20.18 68.324 0.091 7.64 4.71 9.34
8/23/2022 5:15:00 PM 20.11 68.198 0.092 7.62 4.84 9.27
8/23/2022 5:30:00 PM 20.14 68.252 0.094 7.61 4.69 9.24
8/23/2022 5:45:00 PM 20.14 68.252 0.094 7.59 4.75 9.21
8/23/2022 6:00:00 PM 20.13 68.234 0.094 7.58 4.8 9.17
8/23/2022 6:15:00 PM 20.14 68.252 0.096 7.56 4.73 9.13
8/23/2022 6:30:00 PM 20.12 68.216 0.096 7.52 4.8 9.07
8/23/2022 6:45:00 PM 20.08 68.144 0.097 7.5 4.69 9
8/23/2022 7:00:00 PM 20.06 68.108 0.098 7.45 4.75 8.93
8/23/2022 7:15:00 PM 20.01 68.018 0.098 7.43 4.81 8.86
8/23/2022 7:30:00 PM 19.96 67.92799 0.099 7.4 4.73 8.79
8/23/2022 7:45:00 PM 19.89 67.802 0.099 7.35 4.86 8.73
8/23/2022 8:00:00 PM 19.82 67.676 0.099 7.36 4.83 8.68
8/23/2022 8:15:00 PM 19.74 67.532 0.099 7.3 4.9 8.64
8/23/2022 8:30:00 PM 19.65 67.37 0.099 7.27 5.01 8.6
8/23/2022 8:45:00 PM 19.56 67.208 0.099 7.28 5.08 8.58
8/23/2022 9:00:00 PM 19.45 67.01 0.098 7.24 5.11 8.57
8/23/2022 9:15:00 PM 19.36 66.848 0.098 7.23 5.27 8.57
8/23/2022 9:30:00 PM 19.28 66.704 0.098 7.22 5.35 8.57
8/23/2022 9:45:00 PM 19.18 66.524 0.098 7.22 5.4 8.58
8/23/2022 10:00:00 PM 19.09 66.362 0.099 7.23 5.3 8.58
8/23/2022 10:15:00 PM 18.99 66.182 0.097 7.2 5.44 8.6
8/23/2022 10:30:00 PM 18.91 66.038 0.098 7.2 5.44 8.61
8/23/2022 10:45:00 PM 18.81 65.858 0.097 7.21 5.38 8.63
8/23/2022 11:00:00 PM 18.72 65.696 0.098 7.2 5.64 8.64
8/23/2022 11:15:00 PM 18.63 65.534 0.097 7.17 5.73 8.66
8/23/2022 11:30:00 PM 18.53 65.354 0.098 7.17 5.85 8.67
8/23/2022 11:45:00 PM 18.45 65.21 0.098 7.17 6.04 8.69
8/24/2022 12:00:00 AM 18.37 65.066 0.098 7.2 6 8.71
8/24/2022 12:15:00 AM 18.29 64.922 0.098 7.18 6.31 8.73
8/24/2022 12:30:00 AM 18.21 64.778 0.098 7.19 6.44 8.75
8/24/2022 12:45:00 AM 18.14 64.652 0.098 7.15 6.62 8.76
8/24/2022 1:00:00 AM 18.07 64.526 0.098 7.2 6.87 8.79
8/24/2022 1:15:00 AM 18 64.4 0.098 7.14 7.01 8.8
8/24/2022 1:30:00 AM 17.94 64.292 0.098 7.15 7.06 8.81
8/24/2022 1:45:00 AM 17.87 64.166 0.096 7.15 7.56 8.83
8/24/2022 2:00:00 AM 17.81 64.058 0.097 7.14 8.07 8.85
8/24/2022 2:15:00 AM 17.75 63.95 0.097 7.13 7.82 8.86
8/24/2022 2:30:00 AM 17.69 63.842 0.097 7.14 8.29 8.87
8/24/2022 2:45:00 AM 17.63 63.734 0.096 7.13 8.31 8.89
8/24/2022 3:00:00 AM 17.58 63.644 0.096 7.19 8.5 8.9
8/24/2022 3:15:00 AM 17.52 63.536 0.096 7.1 8.22 8.91
8/24/2022 3:30:00 AM 17.45 63.41 0.095 7.12 8.08 8.93
8/24/2022 3:45:00 AM 17.39 63.302 0.095 7.14 8.3 8.94
8/24/2022 4:00:00 AM 17.34 63.212 0.095 7.14 7.83 8.95
8/24/2022 4:15:00 AM 17.28 63.104 0.095 7.1 7.88 8.96
8/24/2022 4:30:00 AM 17.21 62.978 0.095 7.1 8.2 8.98
8/24/2022 4:45:00 AM 17.16 62.888 0.095 7.12 7.91 8.99
8/24/2022 5:00:00 AM 17.1 62.78 0.094 7.15 7.64 9
8/24/2022 5:15:00 AM 17.05 62.69 0.094 7.08 7.5 9.02
8/24/2022 5:30:00 AM 16.99 62.582 0.094 7.1 7.61 9.03
8/24/2022 5:45:00 AM 16.94 62.492 0.094 7.14 7.29 9.04
8/24/2022 6:00:00 AM 16.89 62.402 0.094 7.1 6.87 9.05
8/24/2022 6:15:00 AM 16.84 62.312 0.094 7.13 6.98 9.07
8/24/2022 6:30:00 AM 16.77 62.186 0.093 7.12 6.78 9.09
8/24/2022 6:45:00 AM 16.72 62.096 0.093 7.07 6.54 9.1
8/24/2022 7:00:00 AM 16.68 62.024 0.094 7.09 6.21 9.12
8/24/2022 7:15:00 AM 16.63 61.934 0.093 7.13 6.09 9.16
8/24/2022 7:30:00 AM 16.59 61.862 0.093 7.13 5.91 9.19
8/24/2022 7:45:00 AM 16.56 61.808 0.094 7.11 5.8 9.23
8/24/2022 8:00:00 AM 16.54 61.772 0.093 7.11 5.85 9.29
8/24/2022 8:15:00 AM 16.53 61.754 0.093 7.16 5.44 9.38
8/24/2022 8:30:00 AM 16.53 61.754 0.092 7.18 5.39 9.44
8/24/2022 8:45:00 AM 16.55 61.79 0.093 7.22 5.23 9.52
8/24/2022 9:00:00 AM 16.57 61.826 0.092 7.18 5.12 9.6
8/24/2022 9:15:00 AM 16.59 61.862 0.092 7.24 5.09 9.69
8/24/2022 9:30:00 AM 16.64 61.952 0.092 7.25 5.01 9.78
8/24/2022 9:45:00 AM 16.71 62.078 0.092 7.29 4.94 9.85
8/24/2022 10:00:00 AM 16.78 62.204 0.092 7.33 4.88 9.93
8/24/2022 10:15:00 AM 16.85 62.33 0.092 7.35 4.76 9.99
8/24/2022 10:30:00 AM 16.94 62.492 0.092 7.41 4.55 10.05
8/24/2022 10:45:00 AM 17.12 62.816 0.091 7.47 4.58 10.07
8/24/2022 11:00:00 AM 17.38 63.284 0.091 7.49 4.52 10.08
8/24/2022 11:15:00 AM 17.66 63.788 0.091 7.51 4.37 10.07
8/24/2022 11:30:00 AM 17.98 64.364 0.091 7.53 4.54 10.07
8/24/2022 11:45:00 AM 18.3 64.94 0.09 7.61 4.39 10.08
8/24/2022 12:00:00 PM 18.55 65.39 0.09 7.62 4.32 10.09
8/24/2022 12:15:00 PM 18.7 65.66 0.09 7.68 4.32 10.05
8/24/2022 12:30:00 PM 18.86 65.948 0.09 7.68 4.33 10.04
8/24/2022 12:45:00 PM 19.02 66.236 0.089 7.7 4.31 10.01
8/24/2022 1:00:00 PM 19.34 66.812 0.09 7.75 4.27 10.02
8/24/2022 1:15:00 PM 19.53 67.154 0.089 7.78 4.2 9.99
8/24/2022 1:30:00 PM 19.74 67.532 0.089 7.81 4.18 9.95
8/24/2022 1:45:00 PM 20.05 68.09 0.089 7.85 4.21 9.94
8/24/2022 2:00:00 PM 20.38 68.684 0.089 7.89 4.13 9.9
8/24/2022 2:15:00 PM 20.7 69.26 0.088 7.98 4.18 9.9
8/24/2022 2:30:00 PM 20.86 69.548 0.089 7.97 4.1 9.85
8/24/2022 2:45:00 PM 20.83 69.494 0.089 7.98 4.04 9.78
8/24/2022 3:00:00 PM 21.11 69.998 0.089 8.01 4.05 9.77
8/24/2022 3:15:00 PM 21.28 70.304 0.089 8.06 4.17 9.72
8/24/2022 3:30:00 PM 21.31 70.358 0.088 8.01 3.96 9.69
8/24/2022 3:45:00 PM 21.41 70.538 0.088 8.04 3.9 9.66
8/24/2022 4:00:00 PM 21.44 70.592 0.088 8.02 4.1 9.6
8/24/2022 4:15:00 PM 21.43 70.574 0.088 8 4.01 9.54
8/24/2022 4:30:00 PM 21.44 70.592 0.087 7.99 4.29 9.51
8/24/2022 4:45:00 PM 21.32 70.376 0.088 7.97 3.97 9.45
8/24/2022 5:00:00 PM 21.13 70.034 0.088 7.9 3.91 9.35
8/24/2022 5:15:00 PM 21.08 69.944 0.088 7.85 3.86 9.28
8/24/2022 5:30:00 PM 21.05 69.89 0.088 7.81 3.8 9.25
8/24/2022 5:45:00 PM 21.02 69.836 0.088 7.8 3.86 9.2
8/24/2022 6:00:00 PM 20.94 69.692 0.088 7.73 3.82 9.11
8/24/2022 6:15:00 PM 20.86 69.548 0.088 7.67 3.82 9.04
8/24/2022 6:30:00 PM 20.81 69.458 0.088 7.62 3.78 8.96
8/24/2022 6:45:00 PM 20.76 69.368 0.088 7.56 3.82 8.88
8/24/2022 7:00:00 PM 20.71 69.278 0.088 7.53 4.02 8.82
8/24/2022 7:15:00 PM 20.64 69.152 0.088 7.49 3.77 8.75
8/24/2022 7:30:00 PM 20.57 69.026 0.088 7.46 3.83 8.7
8/24/2022 7:45:00 PM 20.48 68.864 0.088 7.45 3.8 8.63
8/24/2022 8:00:00 PM 20.4 68.72 0.089 7.36 3.85 8.57
8/24/2022 8:15:00 PM 20.32 68.576 0.089 7.33 3.94 8.51
8/24/2022 8:30:00 PM 20.24 68.432 0.089 7.3 4.02 8.46
8/24/2022 8:45:00 PM 20.16 68.288 0.089 7.28 3.97 8.42
8/24/2022 9:00:00 PM 20.09 68.162 0.089 7.26 4.1 8.4
8/24/2022 9:15:00 PM 20.01 68.018 0.089 7.26 4.27 8.38
8/24/2022 9:30:00 PM 19.94 67.892 0.089 7.25 4.25 8.38
8/24/2022 9:45:00 PM 19.88 67.784 0.089 7.21 4.37 8.37
8/24/2022 10:00:00 PM 19.8 67.64 0.088 7.24 4.3 8.37
8/24/2022 10:15:00 PM 19.73 67.514 0.089 7.22 4.11 8.38
8/24/2022 10:30:00 PM 19.65 67.37 0.088 7.17 4.29 8.38
8/24/2022 10:45:00 PM 19.56 67.208 0.088 7.18 4.23 8.4
8/24/2022 11:00:00 PM 19.48 67.064 0.088 7.16 4.48 8.41
8/24/2022 11:15:00 PM 19.39 66.902 0.088 7.17 4.16 8.43
8/24/2022 11:30:00 PM 19.3 66.74 0.089 7.14 4.28 8.44
8/24/2022 11:45:00 PM 19.2 66.56 0.089 7.19 4.31 8.46
8/25/2022 12:00:00 AM 19.11 66.398 0.089 7.14 4.08 8.48
8/25/2022 12:15:00 AM 19.03 66.254 0.089 7.17 4.25 8.5
8/25/2022 12:30:00 AM 18.95 66.11 0.089 7.16 4.15 8.52
8/25/2022 12:45:00 AM 18.87 65.966 0.089 7.19 4.16 8.54
8/25/2022 1:00:00 AM 18.78 65.804 0.089 7.14 4.5 8.56
8/25/2022 1:15:00 AM 18.7 65.66 0.089 7.19 4.1 8.58
8/25/2022 1:30:00 AM 18.62 65.516 0.089 7.11 4.28 8.6
8/25/2022 1:45:00 AM 18.55 65.39 0.089 7.13 4.24 8.61
8/25/2022 2:00:00 AM 18.47 65.246 0.089 7.12 4.16 8.63
8/25/2022 2:15:00 AM 18.39 65.102 0.089 7.12 4.25 8.65
8/25/2022 2:30:00 AM 18.31 64.958 0.089 7.17 4.23 8.67
8/25/2022 2:45:00 AM 18.24 64.832 0.089 7.1 4.3 8.68
8/25/2022 3:00:00 AM 18.16 64.688 0.088 7.15 4.1 8.7
8/25/2022 3:15:00 AM 18.09 64.562 0.088 7.1 4.31 8.72
8/25/2022 3:30:00 AM 18.01 64.418 0.088 7.11 4.3 8.73
8/25/2022 3:45:00 AM 17.93 64.274 0.088 7.15 4.06 8.76
8/25/2022 4:00:00 AM 17.86 64.148 0.088 7.1 4.19 8.77
8/25/2022 4:15:00 AM 17.8 64.04 0.087 7.16 4.25 8.79
8/25/2022 4:30:00 AM 17.73 63.914 0.088 7.08 4.15 8.8
8/25/2022 4:45:00 AM 17.67 63.806 0.088 7.1 4.13 8.82
8/25/2022 5:00:00 AM 17.6 63.68 0.088 7.15 4.25 8.83
8/25/2022 5:15:00 AM 17.54 63.572 0.088 7.06 4.28 8.84
8/25/2022 5:30:00 AM 17.48 63.464 0.088 7.14 4.18 8.86
8/25/2022 5:45:00 AM 17.43 63.374 0.088 7.06 4.09 8.87
8/25/2022 6:00:00 AM 17.38 63.284 0.088 7.07 4.15 8.88
8/25/2022 6:15:00 AM 17.33 63.194 0.088 7.07 3.99 8.9
8/25/2022 6:30:00 AM 17.28 63.104 0.088 7.08 4.08 8.91
8/25/2022 6:45:00 AM 17.23 63.014 0.089 7.07 4.2 8.93
8/25/2022 7:00:00 AM 17.18 62.924 0.088 7.07 4.05 8.96
8/25/2022 7:15:00 AM 17.14 62.852 0.088 7.08 3.88 9
8/25/2022 7:30:00 AM 17.1 62.78 0.088 7.11 3.99 9.04
8/25/2022 7:45:00 AM 17.06 62.708 0.088 7.15 3.77 9.1
8/25/2022 8:00:00 AM 17.04 62.672 0.088 7.11 3.84 9.17
8/25/2022 8:15:00 AM 17.02 62.636 0.088 7.18 3.89 9.25
8/25/2022 8:30:00 AM 17.01 62.618 0.087 7.12 3.91 9.34
8/25/2022 8:45:00 AM 17.01 62.618 0.087 7.16 4 9.45
8/25/2022 9:00:00 AM 17.02 62.636 0.087 7.18 3.71 9.55
8/25/2022 9:15:00 AM 17.06 62.708 0.087 7.22 3.74 9.68
8/25/2022 9:30:00 AM 17.11 62.798 0.087 7.25 3.65 9.8
8/25/2022 9:45:00 AM 17.17 62.906 0.087 7.29 3.71 9.85
8/25/2022 10:00:00 AM 17.26 63.068 0.086 7.35 3.8 9.89
8/25/2022 10:15:00 AM 17.43 63.374 0.087 7.36 3.68 9.91
8/25/2022 10:30:00 AM 17.62 63.716 0.086 7.4 3.79 9.92
8/25/2022 10:45:00 AM 17.85 64.13 0.086 7.39</